<?xml version="1.0" encoding="UTF-8" standalone="no" ?>
<gpx xmlns="http://www.topografix.com/GPX/1/1" xmlns:xsi="http://www.w3.org/2001/XMLSchema-instance" xsi:schemaLocation="http://www.topografix.com/GPX/1/1 http://www.topografix.com/GPX/1/1/gpx.xsd" version="1.1" creator="VisuGPX - https://www.visugpx.com">
  <metadata>
    <name>Parcours montagne aux Andélys</name>
    <desc><![CDATA[A quatre sangliers, une belle ambiance montagne au printemps]]></desc>
  </metadata>
  <trk>
    <name><![CDATA[Actuel: 02 APR 2017 09:07]]></name>
    <trkseg>
      <trkpt lat="49.24752" lon="1.4223">
        <ele>18.94</ele>
        <time>2017-04-02T07:07:31Z</time>
      </trkpt>
      <trkpt lat="49.24752" lon="1.4223">
        <ele>18.93</ele>
        <time>2017-04-02T07:07:32Z</time>
      </trkpt>
      <trkpt lat="49.24752" lon="1.42224">
        <ele>18.47</ele>
        <time>2017-04-02T07:07:42Z</time>
      </trkpt>
      <trkpt lat="49.24754" lon="1.42203">
        <ele>18.03</ele>
        <time>2017-04-02T07:07:48Z</time>
      </trkpt>
      <trkpt lat="49.24753" lon="1.42193">
        <ele>18.05</ele>
        <time>2017-04-02T07:07:50Z</time>
      </trkpt>
      <trkpt lat="49.24736" lon="1.4218">
        <ele>17.88</ele>
        <time>2017-04-02T07:07:55Z</time>
      </trkpt>
      <trkpt lat="49.24723" lon="1.4218">
        <ele>17.55</ele>
        <time>2017-04-02T07:07:58Z</time>
      </trkpt>
      <trkpt lat="49.24702" lon="1.42194">
        <ele>17.12</ele>
        <time>2017-04-02T07:08:03Z</time>
      </trkpt>
      <trkpt lat="49.24689" lon="1.42203">
        <ele>16.69</ele>
        <time>2017-04-02T07:08:06Z</time>
      </trkpt>
      <trkpt lat="49.24673" lon="1.42217">
        <ele>16.62</ele>
        <time>2017-04-02T07:08:10Z</time>
      </trkpt>
      <trkpt lat="49.24667" lon="1.42226">
        <ele>16.39</ele>
        <time>2017-04-02T07:08:12Z</time>
      </trkpt>
      <trkpt lat="49.24646" lon="1.42228">
        <ele>16.56</ele>
        <time>2017-04-02T07:08:21Z</time>
      </trkpt>
      <trkpt lat="49.24647" lon="1.42227">
        <ele>16.6</ele>
        <time>2017-04-02T07:08:23Z</time>
      </trkpt>
      <trkpt lat="49.24653" lon="1.42232">
        <ele>16.37</ele>
        <time>2017-04-02T07:08:32Z</time>
      </trkpt>
      <trkpt lat="49.24628" lon="1.42247">
        <ele>17.13</ele>
        <time>2017-04-02T07:08:43Z</time>
      </trkpt>
      <trkpt lat="49.24587" lon="1.42267">
        <ele>18.91</ele>
        <time>2017-04-02T07:08:55Z</time>
      </trkpt>
      <trkpt lat="49.24543" lon="1.42297">
        <ele>21.79</ele>
        <time>2017-04-02T07:09:09Z</time>
      </trkpt>
      <trkpt lat="49.24543" lon="1.42363">
        <ele>23.39</ele>
        <time>2017-04-02T07:09:22Z</time>
      </trkpt>
      <trkpt lat="49.24554" lon="1.42435">
        <ele>24.79</ele>
        <time>2017-04-02T07:09:37Z</time>
      </trkpt>
      <trkpt lat="49.24561" lon="1.42513">
        <ele>26.24</ele>
        <time>2017-04-02T07:09:53Z</time>
      </trkpt>
      <trkpt lat="49.24555" lon="1.42592">
        <ele>27.14</ele>
        <time>2017-04-02T07:10:07Z</time>
      </trkpt>
      <trkpt lat="49.24537" lon="1.42674">
        <ele>28.2</ele>
        <time>2017-04-02T07:10:22Z</time>
      </trkpt>
      <trkpt lat="49.24502" lon="1.42726">
        <ele>31.19</ele>
        <time>2017-04-02T07:10:36Z</time>
      </trkpt>
      <trkpt lat="49.24477" lon="1.42763">
        <ele>34.2</ele>
        <time>2017-04-02T07:10:47Z</time>
      </trkpt>
      <trkpt lat="49.24467" lon="1.42818">
        <ele>37.25</ele>
        <time>2017-04-02T07:11:00Z</time>
      </trkpt>
      <trkpt lat="49.24473" lon="1.42876">
        <ele>40.51</ele>
        <time>2017-04-02T07:11:13Z</time>
      </trkpt>
      <trkpt lat="49.2448" lon="1.42932">
        <ele>43.54</ele>
        <time>2017-04-02T07:11:26Z</time>
      </trkpt>
      <trkpt lat="49.24482" lon="1.42991">
        <ele>46.58</ele>
        <time>2017-04-02T07:11:39Z</time>
      </trkpt>
      <trkpt lat="49.24455" lon="1.43023">
        <ele>49.59</ele>
        <time>2017-04-02T07:11:53Z</time>
      </trkpt>
      <trkpt lat="49.24425" lon="1.43004">
        <ele>52.74</ele>
        <time>2017-04-02T07:12:08Z</time>
      </trkpt>
      <trkpt lat="49.24412" lon="1.42968">
        <ele>55.23</ele>
        <time>2017-04-02T07:12:20Z</time>
      </trkpt>
      <trkpt lat="49.24396" lon="1.42925">
        <ele>57.86</ele>
        <time>2017-04-02T07:12:34Z</time>
      </trkpt>
      <trkpt lat="49.24376" lon="1.42884">
        <ele>60.54</ele>
        <time>2017-04-02T07:12:48Z</time>
      </trkpt>
      <trkpt lat="49.24349" lon="1.42851">
        <ele>63.6</ele>
        <time>2017-04-02T07:13:01Z</time>
      </trkpt>
      <trkpt lat="49.24317" lon="1.42817">
        <ele>66.62</ele>
        <time>2017-04-02T07:13:16Z</time>
      </trkpt>
      <trkpt lat="49.24283" lon="1.42792">
        <ele>69.77</ele>
        <time>2017-04-02T07:13:32Z</time>
      </trkpt>
      <trkpt lat="49.24255" lon="1.42791">
        <ele>71.76</ele>
        <time>2017-04-02T07:13:44Z</time>
      </trkpt>
      <trkpt lat="49.24218" lon="1.42797">
        <ele>74.57</ele>
        <time>2017-04-02T07:13:59Z</time>
      </trkpt>
      <trkpt lat="49.24182" lon="1.42804">
        <ele>77.47</ele>
        <time>2017-04-02T07:14:14Z</time>
      </trkpt>
      <trkpt lat="49.24148" lon="1.42809">
        <ele>80.49</ele>
        <time>2017-04-02T07:14:28Z</time>
      </trkpt>
      <trkpt lat="49.24116" lon="1.42788">
        <ele>83.59</ele>
        <time>2017-04-02T07:14:43Z</time>
      </trkpt>
      <trkpt lat="49.24092" lon="1.42737">
        <ele>86.85</ele>
        <time>2017-04-02T07:14:59Z</time>
      </trkpt>
      <trkpt lat="49.24072" lon="1.42696">
        <ele>89.7</ele>
        <time>2017-04-02T07:15:13Z</time>
      </trkpt>
      <trkpt lat="49.24047" lon="1.42646">
        <ele>92.83</ele>
        <time>2017-04-02T07:15:29Z</time>
      </trkpt>
      <trkpt lat="49.24017" lon="1.42595">
        <ele>96</ele>
        <time>2017-04-02T07:15:46Z</time>
      </trkpt>
      <trkpt lat="49.2398" lon="1.42572">
        <ele>99.09</ele>
        <time>2017-04-02T07:16:01Z</time>
      </trkpt>
      <trkpt lat="49.23938" lon="1.42562">
        <ele>102.22</ele>
        <time>2017-04-02T07:16:17Z</time>
      </trkpt>
      <trkpt lat="49.23901" lon="1.42557">
        <ele>104.96</ele>
        <time>2017-04-02T07:16:33Z</time>
      </trkpt>
      <trkpt lat="49.23876" lon="1.4254">
        <ele>107.65</ele>
        <time>2017-04-02T07:16:45Z</time>
      </trkpt>
      <trkpt lat="49.23889" lon="1.42513">
        <ele>109.25</ele>
        <time>2017-04-02T07:16:54Z</time>
      </trkpt>
      <trkpt lat="49.23929" lon="1.42503">
        <ele>111.91</ele>
        <time>2017-04-02T07:17:09Z</time>
      </trkpt>
      <trkpt lat="49.2397" lon="1.42494">
        <ele>115.02</ele>
        <time>2017-04-02T07:17:25Z</time>
      </trkpt>
      <trkpt lat="49.24005" lon="1.42477">
        <ele>117.91</ele>
        <time>2017-04-02T07:17:41Z</time>
      </trkpt>
      <trkpt lat="49.24001" lon="1.4244">
        <ele>119.29</ele>
        <time>2017-04-02T07:17:51Z</time>
      </trkpt>
      <trkpt lat="49.23962" lon="1.4243">
        <ele>121.56</ele>
        <time>2017-04-02T07:18:05Z</time>
      </trkpt>
      <trkpt lat="49.23919" lon="1.42426">
        <ele>124.75</ele>
        <time>2017-04-02T07:18:20Z</time>
      </trkpt>
      <trkpt lat="49.23878" lon="1.42421">
        <ele>127.96</ele>
        <time>2017-04-02T07:18:35Z</time>
      </trkpt>
      <trkpt lat="49.23838" lon="1.42415">
        <ele>131.02</ele>
        <time>2017-04-02T07:18:50Z</time>
      </trkpt>
      <trkpt lat="49.238" lon="1.42411">
        <ele>134.04</ele>
        <time>2017-04-02T07:19:04Z</time>
      </trkpt>
      <trkpt lat="49.2376" lon="1.42407">
        <ele>137.13</ele>
        <time>2017-04-02T07:19:18Z</time>
      </trkpt>
      <trkpt lat="49.23751" lon="1.42404">
        <ele>137.57</ele>
        <time>2017-04-02T07:19:22Z</time>
      </trkpt>
      <trkpt lat="49.23758" lon="1.42363">
        <ele>138.26</ele>
        <time>2017-04-02T07:19:31Z</time>
      </trkpt>
      <trkpt lat="49.23759" lon="1.42292">
        <ele>140.59</ele>
        <time>2017-04-02T07:19:44Z</time>
      </trkpt>
      <trkpt lat="49.23754" lon="1.4221">
        <ele>141.9</ele>
        <time>2017-04-02T07:19:59Z</time>
      </trkpt>
      <trkpt lat="49.23749" lon="1.42131">
        <ele>143.08</ele>
        <time>2017-04-02T07:20:13Z</time>
      </trkpt>
      <trkpt lat="49.23748" lon="1.42113">
        <ele>143.22</ele>
        <time>2017-04-02T07:20:16Z</time>
      </trkpt>
      <trkpt lat="49.2375" lon="1.42037">
        <ele>143.31</ele>
        <time>2017-04-02T07:20:28Z</time>
      </trkpt>
      <trkpt lat="49.23752" lon="1.4202">
        <ele>144.38</ele>
        <time>2017-04-02T07:20:34Z</time>
      </trkpt>
      <trkpt lat="49.23751" lon="1.42035">
        <ele>144.2</ele>
        <time>2017-04-02T07:20:40Z</time>
      </trkpt>
      <trkpt lat="49.23752" lon="1.42033">
        <ele>143.85</ele>
        <time>2017-04-02T07:20:49Z</time>
      </trkpt>
      <trkpt lat="49.23753" lon="1.42025">
        <ele>144.33</ele>
        <time>2017-04-02T07:20:52Z</time>
      </trkpt>
      <trkpt lat="49.23754" lon="1.42021">
        <ele>144.48</ele>
        <time>2017-04-02T07:20:55Z</time>
      </trkpt>
      <trkpt lat="49.23754" lon="1.42018">
        <ele>144.09</ele>
        <time>2017-04-02T07:20:57Z</time>
      </trkpt>
      <trkpt lat="49.23751" lon="1.4197">
        <ele>143.94</ele>
        <time>2017-04-02T07:21:06Z</time>
      </trkpt>
      <trkpt lat="49.2373" lon="1.41841">
        <ele>145.7</ele>
        <time>2017-04-02T07:21:23Z</time>
      </trkpt>
      <trkpt lat="49.23705" lon="1.41724">
        <ele>146.55</ele>
        <time>2017-04-02T07:21:39Z</time>
      </trkpt>
      <trkpt lat="49.23699" lon="1.41694">
        <ele>146.57</ele>
        <time>2017-04-02T07:21:43Z</time>
      </trkpt>
      <trkpt lat="49.23687" lon="1.41539">
        <ele>147.08</ele>
        <time>2017-04-02T07:22:03Z</time>
      </trkpt>
      <trkpt lat="49.23696" lon="1.41432">
        <ele>147.27</ele>
        <time>2017-04-02T07:22:17Z</time>
      </trkpt>
      <trkpt lat="49.23718" lon="1.41323">
        <ele>148.11</ele>
        <time>2017-04-02T07:22:31Z</time>
      </trkpt>
      <trkpt lat="49.23746" lon="1.41193">
        <ele>149.07</ele>
        <time>2017-04-02T07:22:47Z</time>
      </trkpt>
      <trkpt lat="49.2378" lon="1.41092">
        <ele>148.08</ele>
        <time>2017-04-02T07:23:00Z</time>
      </trkpt>
      <trkpt lat="49.2379" lon="1.41075">
        <ele>147.57</ele>
        <time>2017-04-02T07:23:03Z</time>
      </trkpt>
      <trkpt lat="49.23803" lon="1.4105">
        <ele>146.28</ele>
        <time>2017-04-02T07:23:08Z</time>
      </trkpt>
      <trkpt lat="49.23795" lon="1.4104">
        <ele>146.49</ele>
        <time>2017-04-02T07:23:12Z</time>
      </trkpt>
      <trkpt lat="49.23788" lon="1.41041">
        <ele>146.57</ele>
        <time>2017-04-02T07:23:14Z</time>
      </trkpt>
      <trkpt lat="49.23777" lon="1.41017">
        <ele>146.84</ele>
        <time>2017-04-02T07:23:19Z</time>
      </trkpt>
      <trkpt lat="49.23772" lon="1.41001">
        <ele>146.79</ele>
        <time>2017-04-02T07:23:21Z</time>
      </trkpt>
      <trkpt lat="49.23728" lon="1.40945">
        <ele>147.06</ele>
        <time>2017-04-02T07:23:32Z</time>
      </trkpt>
      <trkpt lat="49.23703" lon="1.40921">
        <ele>147.46</ele>
        <time>2017-04-02T07:23:37Z</time>
      </trkpt>
      <trkpt lat="49.23646" lon="1.40868">
        <ele>146.95</ele>
        <time>2017-04-02T07:23:47Z</time>
      </trkpt>
      <trkpt lat="49.23636" lon="1.40857">
        <ele>146.77</ele>
        <time>2017-04-02T07:23:49Z</time>
      </trkpt>
      <trkpt lat="49.2362" lon="1.40842">
        <ele>147.11</ele>
        <time>2017-04-02T07:23:52Z</time>
      </trkpt>
      <trkpt lat="49.23598" lon="1.4083">
        <ele>146.54</ele>
        <time>2017-04-02T07:23:56Z</time>
      </trkpt>
      <trkpt lat="49.23584" lon="1.40828">
        <ele>145.46</ele>
        <time>2017-04-02T07:23:59Z</time>
      </trkpt>
      <trkpt lat="49.23574" lon="1.40828">
        <ele>143.68</ele>
        <time>2017-04-02T07:24:01Z</time>
      </trkpt>
      <trkpt lat="49.23566" lon="1.40818">
        <ele>141.67</ele>
        <time>2017-04-02T07:24:04Z</time>
      </trkpt>
      <trkpt lat="49.23561" lon="1.40804">
        <ele>140.45</ele>
        <time>2017-04-02T07:24:06Z</time>
      </trkpt>
      <trkpt lat="49.23549" lon="1.4076">
        <ele>137.79</ele>
        <time>2017-04-02T07:24:11Z</time>
      </trkpt>
      <trkpt lat="49.23547" lon="1.40731">
        <ele>135.26</ele>
        <time>2017-04-02T07:24:15Z</time>
      </trkpt>
      <trkpt lat="49.23548" lon="1.40726">
        <ele>134.88</ele>
        <time>2017-04-02T07:24:16Z</time>
      </trkpt>
      <trkpt lat="49.23552" lon="1.40703">
        <ele>133.56</ele>
        <time>2017-04-02T07:24:20Z</time>
      </trkpt>
      <trkpt lat="49.23555" lon="1.40697">
        <ele>132.8</ele>
        <time>2017-04-02T07:24:22Z</time>
      </trkpt>
      <trkpt lat="49.23559" lon="1.40688">
        <ele>131.67</ele>
        <time>2017-04-02T07:24:24Z</time>
      </trkpt>
      <trkpt lat="49.23565" lon="1.40677">
        <ele>130.48</ele>
        <time>2017-04-02T07:24:26Z</time>
      </trkpt>
      <trkpt lat="49.23581" lon="1.40651">
        <ele>130.73</ele>
        <time>2017-04-02T07:24:32Z</time>
      </trkpt>
      <trkpt lat="49.23586" lon="1.40642">
        <ele>130.46</ele>
        <time>2017-04-02T07:24:34Z</time>
      </trkpt>
      <trkpt lat="49.2359" lon="1.40631">
        <ele>130.16</ele>
        <time>2017-04-02T07:24:36Z</time>
      </trkpt>
      <trkpt lat="49.23601" lon="1.40614">
        <ele>128.24</ele>
        <time>2017-04-02T07:24:40Z</time>
      </trkpt>
      <trkpt lat="49.23629" lon="1.40603">
        <ele>124.71</ele>
        <time>2017-04-02T07:24:50Z</time>
      </trkpt>
      <trkpt lat="49.23632" lon="1.406">
        <ele>123.75</ele>
        <time>2017-04-02T07:24:51Z</time>
      </trkpt>
      <trkpt lat="49.23649" lon="1.40595">
        <ele>119.56</ele>
        <time>2017-04-02T07:24:54Z</time>
      </trkpt>
      <trkpt lat="49.23678" lon="1.40586">
        <ele>114.97</ele>
        <time>2017-04-02T07:25:00Z</time>
      </trkpt>
      <trkpt lat="49.23687" lon="1.40581">
        <ele>112.98</ele>
        <time>2017-04-02T07:25:02Z</time>
      </trkpt>
      <trkpt lat="49.23703" lon="1.40574">
        <ele>108.52</ele>
        <time>2017-04-02T07:25:07Z</time>
      </trkpt>
      <trkpt lat="49.23706" lon="1.40575">
        <ele>108.27</ele>
        <time>2017-04-02T07:25:08Z</time>
      </trkpt>
      <trkpt lat="49.23717" lon="1.40594">
        <ele>105.11</ele>
        <time>2017-04-02T07:25:15Z</time>
      </trkpt>
      <trkpt lat="49.23726" lon="1.40603">
        <ele>101.6</ele>
        <time>2017-04-02T07:25:20Z</time>
      </trkpt>
      <trkpt lat="49.23733" lon="1.40609">
        <ele>97.34</ele>
        <time>2017-04-02T07:25:23Z</time>
      </trkpt>
      <trkpt lat="49.23739" lon="1.40619">
        <ele>93.44</ele>
        <time>2017-04-02T07:25:27Z</time>
      </trkpt>
      <trkpt lat="49.23749" lon="1.40635">
        <ele>90.04</ele>
        <time>2017-04-02T07:25:31Z</time>
      </trkpt>
      <trkpt lat="49.23752" lon="1.40638">
        <ele>89.33</ele>
        <time>2017-04-02T07:25:32Z</time>
      </trkpt>
      <trkpt lat="49.23753" lon="1.4063">
        <ele>87.47</ele>
        <time>2017-04-02T07:25:36Z</time>
      </trkpt>
      <trkpt lat="49.23749" lon="1.40619">
        <ele>86.69</ele>
        <time>2017-04-02T07:25:38Z</time>
      </trkpt>
      <trkpt lat="49.2375" lon="1.40559">
        <ele>87.07</ele>
        <time>2017-04-02T07:25:49Z</time>
      </trkpt>
      <trkpt lat="49.23753" lon="1.40504">
        <ele>89.24</ele>
        <time>2017-04-02T07:26:00Z</time>
      </trkpt>
      <trkpt lat="49.23758" lon="1.40478">
        <ele>88.48</ele>
        <time>2017-04-02T07:26:07Z</time>
      </trkpt>
      <trkpt lat="49.23751" lon="1.40461">
        <ele>89.06</ele>
        <time>2017-04-02T07:26:14Z</time>
      </trkpt>
      <trkpt lat="49.23741" lon="1.40449">
        <ele>89.21</ele>
        <time>2017-04-02T07:26:19Z</time>
      </trkpt>
      <trkpt lat="49.23736" lon="1.40417">
        <ele>84.43</ele>
        <time>2017-04-02T07:26:27Z</time>
      </trkpt>
      <trkpt lat="49.23736" lon="1.404">
        <ele>82.96</ele>
        <time>2017-04-02T07:26:30Z</time>
      </trkpt>
      <trkpt lat="49.23738" lon="1.40371">
        <ele>80.33</ele>
        <time>2017-04-02T07:26:35Z</time>
      </trkpt>
      <trkpt lat="49.23748" lon="1.40351">
        <ele>75.77</ele>
        <time>2017-04-02T07:26:40Z</time>
      </trkpt>
      <trkpt lat="49.23763" lon="1.40341">
        <ele>72.7</ele>
        <time>2017-04-02T07:26:46Z</time>
      </trkpt>
      <trkpt lat="49.23766" lon="1.40343">
        <ele>73.78</ele>
        <time>2017-04-02T07:26:48Z</time>
      </trkpt>
      <trkpt lat="49.23775" lon="1.40348">
        <ele>76.98</ele>
        <time>2017-04-02T07:27:02Z</time>
      </trkpt>
      <trkpt lat="49.23786" lon="1.40352">
        <ele>80.24</ele>
        <time>2017-04-02T07:27:16Z</time>
      </trkpt>
      <trkpt lat="49.23788" lon="1.40341">
        <ele>81.77</ele>
        <time>2017-04-02T07:27:31Z</time>
      </trkpt>
      <trkpt lat="49.23788" lon="1.40336">
        <ele>82.42</ele>
        <time>2017-04-02T07:27:34Z</time>
      </trkpt>
      <trkpt lat="49.23799" lon="1.40331">
        <ele>83.6</ele>
        <time>2017-04-02T07:27:42Z</time>
      </trkpt>
      <trkpt lat="49.23816" lon="1.40329">
        <ele>83.44</ele>
        <time>2017-04-02T07:27:49Z</time>
      </trkpt>
      <trkpt lat="49.23838" lon="1.40301">
        <ele>80.76</ele>
        <time>2017-04-02T07:27:58Z</time>
      </trkpt>
      <trkpt lat="49.23841" lon="1.40296">
        <ele>80.92</ele>
        <time>2017-04-02T07:27:59Z</time>
      </trkpt>
      <trkpt lat="49.23846" lon="1.40283">
        <ele>80.04</ele>
        <time>2017-04-02T07:28:01Z</time>
      </trkpt>
      <trkpt lat="49.2385" lon="1.40265">
        <ele>78.36</ele>
        <time>2017-04-02T07:28:04Z</time>
      </trkpt>
      <trkpt lat="49.23851" lon="1.40254">
        <ele>78.43</ele>
        <time>2017-04-02T07:28:09Z</time>
      </trkpt>
      <trkpt lat="49.23859" lon="1.40255">
        <ele>76.63</ele>
        <time>2017-04-02T07:28:13Z</time>
      </trkpt>
      <trkpt lat="49.23867" lon="1.40248">
        <ele>73.23</ele>
        <time>2017-04-02T07:28:17Z</time>
      </trkpt>
      <trkpt lat="49.23872" lon="1.40239">
        <ele>71.02</ele>
        <time>2017-04-02T07:28:21Z</time>
      </trkpt>
      <trkpt lat="49.23881" lon="1.40242">
        <ele>69.56</ele>
        <time>2017-04-02T07:28:25Z</time>
      </trkpt>
      <trkpt lat="49.23885" lon="1.4027">
        <ele>65.92</ele>
        <time>2017-04-02T07:28:32Z</time>
      </trkpt>
      <trkpt lat="49.23893" lon="1.40277">
        <ele>64.2</ele>
        <time>2017-04-02T07:28:35Z</time>
      </trkpt>
      <trkpt lat="49.23899" lon="1.40273">
        <ele>62.39</ele>
        <time>2017-04-02T07:28:37Z</time>
      </trkpt>
      <trkpt lat="49.23914" lon="1.40259">
        <ele>58.22</ele>
        <time>2017-04-02T07:28:42Z</time>
      </trkpt>
      <trkpt lat="49.23923" lon="1.40245">
        <ele>54.92</ele>
        <time>2017-04-02T07:28:46Z</time>
      </trkpt>
      <trkpt lat="49.23937" lon="1.40231">
        <ele>50.2</ele>
        <time>2017-04-02T07:28:50Z</time>
      </trkpt>
      <trkpt lat="49.23945" lon="1.4022">
        <ele>46.04</ele>
        <time>2017-04-02T07:28:53Z</time>
      </trkpt>
      <trkpt lat="49.23952" lon="1.40201">
        <ele>42.12</ele>
        <time>2017-04-02T07:28:58Z</time>
      </trkpt>
      <trkpt lat="49.23951" lon="1.4019">
        <ele>38.91</ele>
        <time>2017-04-02T07:29:01Z</time>
      </trkpt>
      <trkpt lat="49.23953" lon="1.40186">
        <ele>37.15</ele>
        <time>2017-04-02T07:29:03Z</time>
      </trkpt>
      <trkpt lat="49.23961" lon="1.40193">
        <ele>35.57</ele>
        <time>2017-04-02T07:29:06Z</time>
      </trkpt>
      <trkpt lat="49.23972" lon="1.40214">
        <ele>32.45</ele>
        <time>2017-04-02T07:29:10Z</time>
      </trkpt>
      <trkpt lat="49.23973" lon="1.40227">
        <ele>31.55</ele>
        <time>2017-04-02T07:29:12Z</time>
      </trkpt>
      <trkpt lat="49.23972" lon="1.40244">
        <ele>29.68</ele>
        <time>2017-04-02T07:29:15Z</time>
      </trkpt>
      <trkpt lat="49.23959" lon="1.40261">
        <ele>30.57</ele>
        <time>2017-04-02T07:29:21Z</time>
      </trkpt>
      <trkpt lat="49.23939" lon="1.40286">
        <ele>33.9</ele>
        <time>2017-04-02T07:29:34Z</time>
      </trkpt>
      <trkpt lat="49.23927" lon="1.40306">
        <ele>36.91</ele>
        <time>2017-04-02T07:29:44Z</time>
      </trkpt>
      <trkpt lat="49.23914" lon="1.40325">
        <ele>39.94</ele>
        <time>2017-04-02T07:29:55Z</time>
      </trkpt>
      <trkpt lat="49.23902" lon="1.40344">
        <ele>43.2</ele>
        <time>2017-04-02T07:30:06Z</time>
      </trkpt>
      <trkpt lat="49.2389" lon="1.40365">
        <ele>46.35</ele>
        <time>2017-04-02T07:30:17Z</time>
      </trkpt>
      <trkpt lat="49.23884" lon="1.40375">
        <ele>48.34</ele>
        <time>2017-04-02T07:30:24Z</time>
      </trkpt>
      <trkpt lat="49.23871" lon="1.40392">
        <ele>51.21</ele>
        <time>2017-04-02T07:30:35Z</time>
      </trkpt>
      <trkpt lat="49.23856" lon="1.40412">
        <ele>54.75</ele>
        <time>2017-04-02T07:30:48Z</time>
      </trkpt>
      <trkpt lat="49.23843" lon="1.40433">
        <ele>57.07</ele>
        <time>2017-04-02T07:30:59Z</time>
      </trkpt>
      <trkpt lat="49.2383" lon="1.40455">
        <ele>60.18</ele>
        <time>2017-04-02T07:31:12Z</time>
      </trkpt>
      <trkpt lat="49.23817" lon="1.40474">
        <ele>63.27</ele>
        <time>2017-04-02T07:31:23Z</time>
      </trkpt>
      <trkpt lat="49.23812" lon="1.40482">
        <ele>64.78</ele>
        <time>2017-04-02T07:31:28Z</time>
      </trkpt>
      <trkpt lat="49.23796" lon="1.40512">
        <ele>67.94</ele>
        <time>2017-04-02T07:31:44Z</time>
      </trkpt>
      <trkpt lat="49.23786" lon="1.40532">
        <ele>71.01</ele>
        <time>2017-04-02T07:31:55Z</time>
      </trkpt>
      <trkpt lat="49.23782" lon="1.40542">
        <ele>72.31</ele>
        <time>2017-04-02T07:32:00Z</time>
      </trkpt>
      <trkpt lat="49.23772" lon="1.40562">
        <ele>75.68</ele>
        <time>2017-04-02T07:32:13Z</time>
      </trkpt>
      <trkpt lat="49.23762" lon="1.40584">
        <ele>78.8</ele>
        <time>2017-04-02T07:32:25Z</time>
      </trkpt>
      <trkpt lat="49.23754" lon="1.40605">
        <ele>82.1</ele>
        <time>2017-04-02T07:32:36Z</time>
      </trkpt>
      <trkpt lat="49.23748" lon="1.40629">
        <ele>85.27</ele>
        <time>2017-04-02T07:32:47Z</time>
      </trkpt>
      <trkpt lat="49.23762" lon="1.40647">
        <ele>88.1</ele>
        <time>2017-04-02T07:32:59Z</time>
      </trkpt>
      <trkpt lat="49.23787" lon="1.4065">
        <ele>91.12</ele>
        <time>2017-04-02T07:33:13Z</time>
      </trkpt>
      <trkpt lat="49.23809" lon="1.40654">
        <ele>94.35</ele>
        <time>2017-04-02T07:33:26Z</time>
      </trkpt>
      <trkpt lat="49.2383" lon="1.40652">
        <ele>97.37</ele>
        <time>2017-04-02T07:33:39Z</time>
      </trkpt>
      <trkpt lat="49.23856" lon="1.40642">
        <ele>99.96</ele>
        <time>2017-04-02T07:33:53Z</time>
      </trkpt>
      <trkpt lat="49.23885" lon="1.40639">
        <ele>103.03</ele>
        <time>2017-04-02T07:34:07Z</time>
      </trkpt>
      <trkpt lat="49.23897" lon="1.40646">
        <ele>104.4</ele>
        <time>2017-04-02T07:34:13Z</time>
      </trkpt>
      <trkpt lat="49.23901" lon="1.40656">
        <ele>105.52</ele>
        <time>2017-04-02T07:34:17Z</time>
      </trkpt>
      <trkpt lat="49.23896" lon="1.40697">
        <ele>108.78</ele>
        <time>2017-04-02T07:34:32Z</time>
      </trkpt>
      <trkpt lat="49.23885" lon="1.40729">
        <ele>111.79</ele>
        <time>2017-04-02T07:34:45Z</time>
      </trkpt>
      <trkpt lat="49.23881" lon="1.40744">
        <ele>113.31</ele>
        <time>2017-04-02T07:34:52Z</time>
      </trkpt>
      <trkpt lat="49.23871" lon="1.40773">
        <ele>116.63</ele>
        <time>2017-04-02T07:35:04Z</time>
      </trkpt>
      <trkpt lat="49.23866" lon="1.40786">
        <ele>118.56</ele>
        <time>2017-04-02T07:35:11Z</time>
      </trkpt>
      <trkpt lat="49.23862" lon="1.408">
        <ele>120.38</ele>
        <time>2017-04-02T07:35:17Z</time>
      </trkpt>
      <trkpt lat="49.23856" lon="1.40826">
        <ele>123.71</ele>
        <time>2017-04-02T07:35:28Z</time>
      </trkpt>
      <trkpt lat="49.23855" lon="1.4085">
        <ele>126.79</ele>
        <time>2017-04-02T07:35:37Z</time>
      </trkpt>
      <trkpt lat="49.23855" lon="1.40881">
        <ele>129.88</ele>
        <time>2017-04-02T07:35:47Z</time>
      </trkpt>
      <trkpt lat="49.23857" lon="1.40907">
        <ele>131.85</ele>
        <time>2017-04-02T07:35:55Z</time>
      </trkpt>
      <trkpt lat="49.23857" lon="1.40915">
        <ele>132.54</ele>
        <time>2017-04-02T07:35:58Z</time>
      </trkpt>
      <trkpt lat="49.23853" lon="1.4095">
        <ele>135.98</ele>
        <time>2017-04-02T07:36:11Z</time>
      </trkpt>
      <trkpt lat="49.23843" lon="1.40971">
        <ele>139.06</ele>
        <time>2017-04-02T07:36:21Z</time>
      </trkpt>
      <trkpt lat="49.23834" lon="1.40985">
        <ele>141.03</ele>
        <time>2017-04-02T07:36:28Z</time>
      </trkpt>
      <trkpt lat="49.23812" lon="1.41021">
        <ele>144.32</ele>
        <time>2017-04-02T07:36:41Z</time>
      </trkpt>
      <trkpt lat="49.23786" lon="1.41059">
        <ele>145.54</ele>
        <time>2017-04-02T07:36:51Z</time>
      </trkpt>
      <trkpt lat="49.23783" lon="1.41063">
        <ele>145.73</ele>
        <time>2017-04-02T07:36:52Z</time>
      </trkpt>
      <trkpt lat="49.23758" lon="1.4112">
        <ele>147.02</ele>
        <time>2017-04-02T07:37:02Z</time>
      </trkpt>
      <trkpt lat="49.23772" lon="1.41143">
        <ele>146.45</ele>
        <time>2017-04-02T07:37:07Z</time>
      </trkpt>
      <trkpt lat="49.23805" lon="1.41157">
        <ele>145.74</ele>
        <time>2017-04-02T07:37:14Z</time>
      </trkpt>
      <trkpt lat="49.23854" lon="1.41178">
        <ele>143.88</ele>
        <time>2017-04-02T07:37:23Z</time>
      </trkpt>
      <trkpt lat="49.23873" lon="1.41191">
        <ele>144.2</ele>
        <time>2017-04-02T07:37:27Z</time>
      </trkpt>
      <trkpt lat="49.2388" lon="1.41198">
        <ele>144.21</ele>
        <time>2017-04-02T07:37:29Z</time>
      </trkpt>
      <trkpt lat="49.23898" lon="1.41194">
        <ele>142.54</ele>
        <time>2017-04-02T07:37:34Z</time>
      </trkpt>
      <trkpt lat="49.23922" lon="1.41179">
        <ele>139.09</ele>
        <time>2017-04-02T07:37:41Z</time>
      </trkpt>
      <trkpt lat="49.23945" lon="1.41172">
        <ele>134.7</ele>
        <time>2017-04-02T07:37:47Z</time>
      </trkpt>
      <trkpt lat="49.23962" lon="1.41168">
        <ele>131</ele>
        <time>2017-04-02T07:37:51Z</time>
      </trkpt>
      <trkpt lat="49.23968" lon="1.41167">
        <ele>129.24</ele>
        <time>2017-04-02T07:37:53Z</time>
      </trkpt>
      <trkpt lat="49.23975" lon="1.41165">
        <ele>125.71</ele>
        <time>2017-04-02T07:38:00Z</time>
      </trkpt>
      <trkpt lat="49.2398" lon="1.41154">
        <ele>124.16</ele>
        <time>2017-04-02T07:38:05Z</time>
      </trkpt>
      <trkpt lat="49.23992" lon="1.41148">
        <ele>120.64</ele>
        <time>2017-04-02T07:38:10Z</time>
      </trkpt>
      <trkpt lat="49.23994" lon="1.41147">
        <ele>119.77</ele>
        <time>2017-04-02T07:38:11Z</time>
      </trkpt>
      <trkpt lat="49.24007" lon="1.41152">
        <ele>115.15</ele>
        <time>2017-04-02T07:38:18Z</time>
      </trkpt>
      <trkpt lat="49.24009" lon="1.41152">
        <ele>114.1</ele>
        <time>2017-04-02T07:38:19Z</time>
      </trkpt>
      <trkpt lat="49.24014" lon="1.41155">
        <ele>111.6</ele>
        <time>2017-04-02T07:38:22Z</time>
      </trkpt>
      <trkpt lat="49.24026" lon="1.41173">
        <ele>108.41</ele>
        <time>2017-04-02T07:38:31Z</time>
      </trkpt>
      <trkpt lat="49.24032" lon="1.41185">
        <ele>106.86</ele>
        <time>2017-04-02T07:38:36Z</time>
      </trkpt>
      <trkpt lat="49.24045" lon="1.41197">
        <ele>105.54</ele>
        <time>2017-04-02T07:38:42Z</time>
      </trkpt>
      <trkpt lat="49.24055" lon="1.41205">
        <ele>101.18</ele>
        <time>2017-04-02T07:38:47Z</time>
      </trkpt>
      <trkpt lat="49.24056" lon="1.41207">
        <ele>100.55</ele>
        <time>2017-04-02T07:38:48Z</time>
      </trkpt>
      <trkpt lat="49.24061" lon="1.41207">
        <ele>99.31</ele>
        <time>2017-04-02T07:38:51Z</time>
      </trkpt>
      <trkpt lat="49.24065" lon="1.41205">
        <ele>97.66</ele>
        <time>2017-04-02T07:38:53Z</time>
      </trkpt>
      <trkpt lat="49.24074" lon="1.41197">
        <ele>93.75</ele>
        <time>2017-04-02T07:38:58Z</time>
      </trkpt>
      <trkpt lat="49.24075" lon="1.41194">
        <ele>92.87</ele>
        <time>2017-04-02T07:38:59Z</time>
      </trkpt>
      <trkpt lat="49.24083" lon="1.4119">
        <ele>89.04</ele>
        <time>2017-04-02T07:39:04Z</time>
      </trkpt>
      <trkpt lat="49.24099" lon="1.41186">
        <ele>86</ele>
        <time>2017-04-02T07:39:11Z</time>
      </trkpt>
      <trkpt lat="49.24107" lon="1.41175">
        <ele>82.18</ele>
        <time>2017-04-02T07:39:14Z</time>
      </trkpt>
      <trkpt lat="49.24119" lon="1.41164">
        <ele>78.53</ele>
        <time>2017-04-02T07:39:18Z</time>
      </trkpt>
      <trkpt lat="49.24123" lon="1.41158">
        <ele>76.87</ele>
        <time>2017-04-02T07:39:20Z</time>
      </trkpt>
      <trkpt lat="49.24131" lon="1.41155">
        <ele>75.07</ele>
        <time>2017-04-02T07:39:23Z</time>
      </trkpt>
      <trkpt lat="49.24141" lon="1.41149">
        <ele>73.22</ele>
        <time>2017-04-02T07:39:27Z</time>
      </trkpt>
      <trkpt lat="49.24141" lon="1.41133">
        <ele>69.3</ele>
        <time>2017-04-02T07:39:32Z</time>
      </trkpt>
      <trkpt lat="49.24144" lon="1.41114">
        <ele>64.18</ele>
        <time>2017-04-02T07:39:37Z</time>
      </trkpt>
      <trkpt lat="49.24149" lon="1.41099">
        <ele>59.89</ele>
        <time>2017-04-02T07:39:40Z</time>
      </trkpt>
      <trkpt lat="49.24155" lon="1.41083">
        <ele>56.08</ele>
        <time>2017-04-02T07:39:43Z</time>
      </trkpt>
      <trkpt lat="49.24162" lon="1.41071">
        <ele>52.44</ele>
        <time>2017-04-02T07:39:46Z</time>
      </trkpt>
      <trkpt lat="49.24168" lon="1.41061">
        <ele>49.12</ele>
        <time>2017-04-02T07:39:49Z</time>
      </trkpt>
      <trkpt lat="49.24178" lon="1.41052">
        <ele>45.31</ele>
        <time>2017-04-02T07:39:53Z</time>
      </trkpt>
      <trkpt lat="49.24185" lon="1.4105">
        <ele>44.69</ele>
        <time>2017-04-02T07:39:54Z</time>
      </trkpt>
      <trkpt lat="49.24198" lon="1.41043">
        <ele>42.15</ele>
        <time>2017-04-02T07:39:57Z</time>
      </trkpt>
      <trkpt lat="49.242" lon="1.41007">
        <ele>37.29</ele>
        <time>2017-04-02T07:40:03Z</time>
      </trkpt>
      <trkpt lat="49.24199" lon="1.40988">
        <ele>34.27</ele>
        <time>2017-04-02T07:40:06Z</time>
      </trkpt>
      <trkpt lat="49.24201" lon="1.40984">
        <ele>34.22</ele>
        <time>2017-04-02T07:40:07Z</time>
      </trkpt>
      <trkpt lat="49.24218" lon="1.40962">
        <ele>32.09</ele>
        <time>2017-04-02T07:40:14Z</time>
      </trkpt>
      <trkpt lat="49.24235" lon="1.40965">
        <ele>28.85</ele>
        <time>2017-04-02T07:40:19Z</time>
      </trkpt>
      <trkpt lat="49.24246" lon="1.40971">
        <ele>25.43</ele>
        <time>2017-04-02T07:40:23Z</time>
      </trkpt>
      <trkpt lat="49.24248" lon="1.40974">
        <ele>25.14</ele>
        <time>2017-04-02T07:40:24Z</time>
      </trkpt>
      <trkpt lat="49.24261" lon="1.40976">
        <ele>24.33</ele>
        <time>2017-04-02T07:40:28Z</time>
      </trkpt>
      <trkpt lat="49.2427" lon="1.40971">
        <ele>23.45</ele>
        <time>2017-04-02T07:40:31Z</time>
      </trkpt>
      <trkpt lat="49.24288" lon="1.40978">
        <ele>19.7</ele>
        <time>2017-04-02T07:40:36Z</time>
      </trkpt>
      <trkpt lat="49.24303" lon="1.41023">
        <ele>16.31</ele>
        <time>2017-04-02T07:40:44Z</time>
      </trkpt>
      <trkpt lat="49.24312" lon="1.4105">
        <ele>13.17</ele>
        <time>2017-04-02T07:40:50Z</time>
      </trkpt>
      <trkpt lat="49.24316" lon="1.41068">
        <ele>11.5</ele>
        <time>2017-04-02T07:40:54Z</time>
      </trkpt>
      <trkpt lat="49.24329" lon="1.41101">
        <ele>8.78</ele>
        <time>2017-04-02T07:41:02Z</time>
      </trkpt>
      <trkpt lat="49.2434" lon="1.41101">
        <ele>6.67</ele>
        <time>2017-04-02T07:41:07Z</time>
      </trkpt>
      <trkpt lat="49.24343" lon="1.41115">
        <ele>6.05</ele>
        <time>2017-04-02T07:41:11Z</time>
      </trkpt>
      <trkpt lat="49.24351" lon="1.41156">
        <ele>5.9</ele>
        <time>2017-04-02T07:41:21Z</time>
      </trkpt>
      <trkpt lat="49.24376" lon="1.41201">
        <ele>6.6</ele>
        <time>2017-04-02T07:41:32Z</time>
      </trkpt>
      <trkpt lat="49.24411" lon="1.41272">
        <ele>6.77</ele>
        <time>2017-04-02T07:41:47Z</time>
      </trkpt>
      <trkpt lat="49.24414" lon="1.41275">
        <ele>6.65</ele>
        <time>2017-04-02T07:41:48Z</time>
      </trkpt>
      <trkpt lat="49.24425" lon="1.41298">
        <ele>6.79</ele>
        <time>2017-04-02T07:41:52Z</time>
      </trkpt>
      <trkpt lat="49.24436" lon="1.41325">
        <ele>7.79</ele>
        <time>2017-04-02T07:41:56Z</time>
      </trkpt>
      <trkpt lat="49.24451" lon="1.41382">
        <ele>6.8</ele>
        <time>2017-04-02T07:42:04Z</time>
      </trkpt>
      <trkpt lat="49.24478" lon="1.41494">
        <ele>7.1</ele>
        <time>2017-04-02T07:42:19Z</time>
      </trkpt>
      <trkpt lat="49.24501" lon="1.41581">
        <ele>7.61</ele>
        <time>2017-04-02T07:42:31Z</time>
      </trkpt>
      <trkpt lat="49.24505" lon="1.41609">
        <ele>7.65</ele>
        <time>2017-04-02T07:42:35Z</time>
      </trkpt>
      <trkpt lat="49.24518" lon="1.4173">
        <ele>8.81</ele>
        <time>2017-04-02T07:42:51Z</time>
      </trkpt>
      <trkpt lat="49.24522" lon="1.41814">
        <ele>9.13</ele>
        <time>2017-04-02T07:43:02Z</time>
      </trkpt>
      <trkpt lat="49.24521" lon="1.41852">
        <ele>9.27</ele>
        <time>2017-04-02T07:43:07Z</time>
      </trkpt>
      <trkpt lat="49.24517" lon="1.4189">
        <ele>9.91</ele>
        <time>2017-04-02T07:43:12Z</time>
      </trkpt>
      <trkpt lat="49.24516" lon="1.41928">
        <ele>10.45</ele>
        <time>2017-04-02T07:43:17Z</time>
      </trkpt>
      <trkpt lat="49.24511" lon="1.41979">
        <ele>10.96</ele>
        <time>2017-04-02T07:43:24Z</time>
      </trkpt>
      <trkpt lat="49.24515" lon="1.42026">
        <ele>11.68</ele>
        <time>2017-04-02T07:43:30Z</time>
      </trkpt>
      <trkpt lat="49.2452" lon="1.42049">
        <ele>12.11</ele>
        <time>2017-04-02T07:43:33Z</time>
      </trkpt>
      <trkpt lat="49.24523" lon="1.4209">
        <ele>12.43</ele>
        <time>2017-04-02T07:43:38Z</time>
      </trkpt>
      <trkpt lat="49.24525" lon="1.42121">
        <ele>12.73</ele>
        <time>2017-04-02T07:43:42Z</time>
      </trkpt>
      <trkpt lat="49.24526" lon="1.42152">
        <ele>13.31</ele>
        <time>2017-04-02T07:43:46Z</time>
      </trkpt>
      <trkpt lat="49.24531" lon="1.42203">
        <ele>14.21</ele>
        <time>2017-04-02T07:43:53Z</time>
      </trkpt>
      <trkpt lat="49.24532" lon="1.42217">
        <ele>14.57</ele>
        <time>2017-04-02T07:43:55Z</time>
      </trkpt>
      <trkpt lat="49.24533" lon="1.42231">
        <ele>14.93</ele>
        <time>2017-04-02T07:43:57Z</time>
      </trkpt>
      <trkpt lat="49.24537" lon="1.42285">
        <ele>16.37</ele>
        <time>2017-04-02T07:44:05Z</time>
      </trkpt>
      <trkpt lat="49.24542" lon="1.42348">
        <ele>18.02</ele>
        <time>2017-04-02T07:44:15Z</time>
      </trkpt>
      <trkpt lat="49.24526" lon="1.42349">
        <ele>19.55</ele>
        <time>2017-04-02T07:44:22Z</time>
      </trkpt>
      <trkpt lat="49.24503" lon="1.42345">
        <ele>23.03</ele>
        <time>2017-04-02T07:44:33Z</time>
      </trkpt>
      <trkpt lat="49.24483" lon="1.42344">
        <ele>26.06</ele>
        <time>2017-04-02T07:44:44Z</time>
      </trkpt>
      <trkpt lat="49.24459" lon="1.42345">
        <ele>29.21</ele>
        <time>2017-04-02T07:44:56Z</time>
      </trkpt>
      <trkpt lat="49.24437" lon="1.42336">
        <ele>32.32</ele>
        <time>2017-04-02T07:45:08Z</time>
      </trkpt>
      <trkpt lat="49.24412" lon="1.42333">
        <ele>35.43</ele>
        <time>2017-04-02T07:45:20Z</time>
      </trkpt>
      <trkpt lat="49.24401" lon="1.42335">
        <ele>36.88</ele>
        <time>2017-04-02T07:45:26Z</time>
      </trkpt>
      <trkpt lat="49.24389" lon="1.42325">
        <ele>38.88</ele>
        <time>2017-04-02T07:45:34Z</time>
      </trkpt>
      <trkpt lat="49.2436" lon="1.42304">
        <ele>41.73</ele>
        <time>2017-04-02T07:45:49Z</time>
      </trkpt>
      <trkpt lat="49.24333" lon="1.42272">
        <ele>44.34</ele>
        <time>2017-04-02T07:46:04Z</time>
      </trkpt>
      <trkpt lat="49.24316" lon="1.42238">
        <ele>46.96</ele>
        <time>2017-04-02T07:46:18Z</time>
      </trkpt>
      <trkpt lat="49.24303" lon="1.42212">
        <ele>49.28</ele>
        <time>2017-04-02T07:46:30Z</time>
      </trkpt>
      <trkpt lat="49.24291" lon="1.42181">
        <ele>52.17</ele>
        <time>2017-04-02T07:46:43Z</time>
      </trkpt>
      <trkpt lat="49.24302" lon="1.4216">
        <ele>55.33</ele>
        <time>2017-04-02T07:46:55Z</time>
      </trkpt>
      <trkpt lat="49.24312" lon="1.42146">
        <ele>58.93</ele>
        <time>2017-04-02T07:47:05Z</time>
      </trkpt>
      <trkpt lat="49.24315" lon="1.42143">
        <ele>59.72</ele>
        <time>2017-04-02T07:47:07Z</time>
      </trkpt>
      <trkpt lat="49.24327" lon="1.42128">
        <ele>63.36</ele>
        <time>2017-04-02T07:47:16Z</time>
      </trkpt>
      <trkpt lat="49.24334" lon="1.4212">
        <ele>65.7</ele>
        <time>2017-04-02T07:47:22Z</time>
      </trkpt>
      <trkpt lat="49.24339" lon="1.42102">
        <ele>68.75</ele>
        <time>2017-04-02T07:47:33Z</time>
      </trkpt>
      <trkpt lat="49.24336" lon="1.42088">
        <ele>70.25</ele>
        <time>2017-04-02T07:47:40Z</time>
      </trkpt>
      <trkpt lat="49.24324" lon="1.42057">
        <ele>73.42</ele>
        <time>2017-04-02T07:47:56Z</time>
      </trkpt>
      <trkpt lat="49.24321" lon="1.4205">
        <ele>74.08</ele>
        <time>2017-04-02T07:48:00Z</time>
      </trkpt>
      <trkpt lat="49.2431" lon="1.42025">
        <ele>76.83</ele>
        <time>2017-04-02T07:48:14Z</time>
      </trkpt>
      <trkpt lat="49.24308" lon="1.4202">
        <ele>77.34</ele>
        <time>2017-04-02T07:48:17Z</time>
      </trkpt>
      <trkpt lat="49.24305" lon="1.42013">
        <ele>77.92</ele>
        <time>2017-04-02T07:48:21Z</time>
      </trkpt>
      <trkpt lat="49.24296" lon="1.4199">
        <ele>81.41</ele>
        <time>2017-04-02T07:48:34Z</time>
      </trkpt>
      <trkpt lat="49.24294" lon="1.41973">
        <ele>84.28</ele>
        <time>2017-04-02T07:48:42Z</time>
      </trkpt>
      <trkpt lat="49.2429" lon="1.41949">
        <ele>86.75</ele>
        <time>2017-04-02T07:48:54Z</time>
      </trkpt>
      <trkpt lat="49.2428" lon="1.4192">
        <ele>90.15</ele>
        <time>2017-04-02T07:49:09Z</time>
      </trkpt>
      <trkpt lat="49.24262" lon="1.41892">
        <ele>93.08</ele>
        <time>2017-04-02T07:49:24Z</time>
      </trkpt>
      <trkpt lat="49.24246" lon="1.41866">
        <ele>95.78</ele>
        <time>2017-04-02T07:49:38Z</time>
      </trkpt>
      <trkpt lat="49.24235" lon="1.41842">
        <ele>98.44</ele>
        <time>2017-04-02T07:49:51Z</time>
      </trkpt>
      <trkpt lat="49.24219" lon="1.41819">
        <ele>100.21</ele>
        <time>2017-04-02T07:50:04Z</time>
      </trkpt>
      <trkpt lat="49.24199" lon="1.41794">
        <ele>103.23</ele>
        <time>2017-04-02T07:50:19Z</time>
      </trkpt>
      <trkpt lat="49.24186" lon="1.41778">
        <ele>105.35</ele>
        <time>2017-04-02T07:50:29Z</time>
      </trkpt>
      <trkpt lat="49.24181" lon="1.41772">
        <ele>106.35</ele>
        <time>2017-04-02T07:50:33Z</time>
      </trkpt>
      <trkpt lat="49.24164" lon="1.41751">
        <ele>109.42</ele>
        <time>2017-04-02T07:50:47Z</time>
      </trkpt>
      <trkpt lat="49.24158" lon="1.41739">
        <ele>111.93</ele>
        <time>2017-04-02T07:50:54Z</time>
      </trkpt>
      <trkpt lat="49.2415" lon="1.41727">
        <ele>115.16</ele>
        <time>2017-04-02T07:51:02Z</time>
      </trkpt>
      <trkpt lat="49.24139" lon="1.4171">
        <ele>118.22</ele>
        <time>2017-04-02T07:51:13Z</time>
      </trkpt>
      <trkpt lat="49.24131" lon="1.41703">
        <ele>119.68</ele>
        <time>2017-04-02T07:51:19Z</time>
      </trkpt>
      <trkpt lat="49.24127" lon="1.41696">
        <ele>120.38</ele>
        <time>2017-04-02T07:51:23Z</time>
      </trkpt>
      <trkpt lat="49.24117" lon="1.41693">
        <ele>121.6</ele>
        <time>2017-04-02T07:51:29Z</time>
      </trkpt>
      <trkpt lat="49.24086" lon="1.41688">
        <ele>124.03</ele>
        <time>2017-04-02T07:51:46Z</time>
      </trkpt>
      <trkpt lat="49.24053" lon="1.4169">
        <ele>127.5</ele>
        <time>2017-04-02T07:52:03Z</time>
      </trkpt>
      <trkpt lat="49.24013" lon="1.41683">
        <ele>130.2</ele>
        <time>2017-04-02T07:52:20Z</time>
      </trkpt>
      <trkpt lat="49.23975" lon="1.41675">
        <ele>132.23</ele>
        <time>2017-04-02T07:52:34Z</time>
      </trkpt>
      <trkpt lat="49.23936" lon="1.41675">
        <ele>133.88</ele>
        <time>2017-04-02T07:52:47Z</time>
      </trkpt>
      <trkpt lat="49.23894" lon="1.41675">
        <ele>135.91</ele>
        <time>2017-04-02T07:53:00Z</time>
      </trkpt>
      <trkpt lat="49.23842" lon="1.41677">
        <ele>139.12</ele>
        <time>2017-04-02T07:53:13Z</time>
      </trkpt>
      <trkpt lat="49.23797" lon="1.41678">
        <ele>140.43</ele>
        <time>2017-04-02T07:53:24Z</time>
      </trkpt>
      <trkpt lat="49.23732" lon="1.4168">
        <ele>142.33</ele>
        <time>2017-04-02T07:53:39Z</time>
      </trkpt>
      <trkpt lat="49.23707" lon="1.41682">
        <ele>142.96</ele>
        <time>2017-04-02T07:53:45Z</time>
      </trkpt>
      <trkpt lat="49.23696" lon="1.41666">
        <ele>142.65</ele>
        <time>2017-04-02T07:53:49Z</time>
      </trkpt>
      <trkpt lat="49.23688" lon="1.41555">
        <ele>142.75</ele>
        <time>2017-04-02T07:54:04Z</time>
      </trkpt>
      <trkpt lat="49.23696" lon="1.41435">
        <ele>143.75</ele>
        <time>2017-04-02T07:54:19Z</time>
      </trkpt>
      <trkpt lat="49.23723" lon="1.41294">
        <ele>143.94</ele>
        <time>2017-04-02T07:54:37Z</time>
      </trkpt>
      <trkpt lat="49.23738" lon="1.41218">
        <ele>145.29</ele>
        <time>2017-04-02T07:54:47Z</time>
      </trkpt>
      <trkpt lat="49.23753" lon="1.41175">
        <ele>145.21</ele>
        <time>2017-04-02T07:54:53Z</time>
      </trkpt>
      <trkpt lat="49.23777" lon="1.41151">
        <ele>144.63</ele>
        <time>2017-04-02T07:55:00Z</time>
      </trkpt>
      <trkpt lat="49.23843" lon="1.41176">
        <ele>143.7</ele>
        <time>2017-04-02T07:55:12Z</time>
      </trkpt>
      <trkpt lat="49.23849" lon="1.41178">
        <ele>143.36</ele>
        <time>2017-04-02T07:55:13Z</time>
      </trkpt>
      <trkpt lat="49.2386" lon="1.41181">
        <ele>143.26</ele>
        <time>2017-04-02T07:55:15Z</time>
      </trkpt>
      <trkpt lat="49.23879" lon="1.41189">
        <ele>142.51</ele>
        <time>2017-04-02T07:55:19Z</time>
      </trkpt>
      <trkpt lat="49.23893" lon="1.41201">
        <ele>141.39</ele>
        <time>2017-04-02T07:55:23Z</time>
      </trkpt>
      <trkpt lat="49.23907" lon="1.41222">
        <ele>140.97</ele>
        <time>2017-04-02T07:55:28Z</time>
      </trkpt>
      <trkpt lat="49.23922" lon="1.41244">
        <ele>139.62</ele>
        <time>2017-04-02T07:55:34Z</time>
      </trkpt>
      <trkpt lat="49.23947" lon="1.41245">
        <ele>137.22</ele>
        <time>2017-04-02T07:55:42Z</time>
      </trkpt>
      <trkpt lat="49.23953" lon="1.41248">
        <ele>136.85</ele>
        <time>2017-04-02T07:55:44Z</time>
      </trkpt>
      <trkpt lat="49.23961" lon="1.41252">
        <ele>134.99</ele>
        <time>2017-04-02T07:55:48Z</time>
      </trkpt>
      <trkpt lat="49.23967" lon="1.41262">
        <ele>134.57</ele>
        <time>2017-04-02T07:55:51Z</time>
      </trkpt>
      <trkpt lat="49.23985" lon="1.41278">
        <ele>130.71</ele>
        <time>2017-04-02T07:55:56Z</time>
      </trkpt>
      <trkpt lat="49.23992" lon="1.41286">
        <ele>129.95</ele>
        <time>2017-04-02T07:55:59Z</time>
      </trkpt>
      <trkpt lat="49.23999" lon="1.41282">
        <ele>128.4</ele>
        <time>2017-04-02T07:56:02Z</time>
      </trkpt>
      <trkpt lat="49.24005" lon="1.4127">
        <ele>125.07</ele>
        <time>2017-04-02T07:56:07Z</time>
      </trkpt>
      <trkpt lat="49.24005" lon="1.41268">
        <ele>123.92</ele>
        <time>2017-04-02T07:56:08Z</time>
      </trkpt>
      <trkpt lat="49.24008" lon="1.41256">
        <ele>121.6</ele>
        <time>2017-04-02T07:56:14Z</time>
      </trkpt>
      <trkpt lat="49.24003" lon="1.41212">
        <ele>120.58</ele>
        <time>2017-04-02T07:56:24Z</time>
      </trkpt>
      <trkpt lat="49.24003" lon="1.41191">
        <ele>120.02</ele>
        <time>2017-04-02T07:56:38Z</time>
      </trkpt>
      <trkpt lat="49.23995" lon="1.41173">
        <ele>119.75</ele>
        <time>2017-04-02T07:56:51Z</time>
      </trkpt>
      <trkpt lat="49.23996" lon="1.4114">
        <ele>118.74</ele>
        <time>2017-04-02T07:57:17Z</time>
      </trkpt>
      <trkpt lat="49.23995" lon="1.41135">
        <ele>118.54</ele>
        <time>2017-04-02T07:57:21Z</time>
      </trkpt>
      <trkpt lat="49.2399" lon="1.41108">
        <ele>117.35</ele>
        <time>2017-04-02T07:57:29Z</time>
      </trkpt>
      <trkpt lat="49.23983" lon="1.41091">
        <ele>117.76</ele>
        <time>2017-04-02T07:57:40Z</time>
      </trkpt>
      <trkpt lat="49.23979" lon="1.41067">
        <ele>115.5</ele>
        <time>2017-04-02T07:58:00Z</time>
      </trkpt>
      <trkpt lat="49.23976" lon="1.4106">
        <ele>115.04</ele>
        <time>2017-04-02T07:58:06Z</time>
      </trkpt>
      <trkpt lat="49.23973" lon="1.41047">
        <ele>114.29</ele>
        <time>2017-04-02T07:58:11Z</time>
      </trkpt>
      <trkpt lat="49.2397" lon="1.41032">
        <ele>113.68</ele>
        <time>2017-04-02T07:58:26Z</time>
      </trkpt>
      <trkpt lat="49.2397" lon="1.41016">
        <ele>112.36</ele>
        <time>2017-04-02T07:58:46Z</time>
      </trkpt>
      <trkpt lat="49.23978" lon="1.40999">
        <ele>108.67</ele>
        <time>2017-04-02T07:58:53Z</time>
      </trkpt>
      <trkpt lat="49.23977" lon="1.4099">
        <ele>107.38</ele>
        <time>2017-04-02T07:59:00Z</time>
      </trkpt>
      <trkpt lat="49.23977" lon="1.40979">
        <ele>107.43</ele>
        <time>2017-04-02T07:59:12Z</time>
      </trkpt>
      <trkpt lat="49.23977" lon="1.40978">
        <ele>107.44</ele>
        <time>2017-04-02T07:59:13Z</time>
      </trkpt>
      <trkpt lat="49.23975" lon="1.40956">
        <ele>106.33</ele>
        <time>2017-04-02T07:59:26Z</time>
      </trkpt>
      <trkpt lat="49.23974" lon="1.40952">
        <ele>105.59</ele>
        <time>2017-04-02T07:59:34Z</time>
      </trkpt>
      <trkpt lat="49.23981" lon="1.40945">
        <ele>102.66</ele>
        <time>2017-04-02T07:59:39Z</time>
      </trkpt>
      <trkpt lat="49.23981" lon="1.4093">
        <ele>99.26</ele>
        <time>2017-04-02T07:59:53Z</time>
      </trkpt>
      <trkpt lat="49.2398" lon="1.40918">
        <ele>97.14</ele>
        <time>2017-04-02T08:00:12Z</time>
      </trkpt>
      <trkpt lat="49.23983" lon="1.40916">
        <ele>96.79</ele>
        <time>2017-04-02T08:00:16Z</time>
      </trkpt>
      <trkpt lat="49.23986" lon="1.40912">
        <ele>95.56</ele>
        <time>2017-04-02T08:00:19Z</time>
      </trkpt>
      <trkpt lat="49.23993" lon="1.40911">
        <ele>93.73</ele>
        <time>2017-04-02T08:00:23Z</time>
      </trkpt>
      <trkpt lat="49.24003" lon="1.40906">
        <ele>89.01</ele>
        <time>2017-04-02T08:00:28Z</time>
      </trkpt>
      <trkpt lat="49.24008" lon="1.40898">
        <ele>86.5</ele>
        <time>2017-04-02T08:00:32Z</time>
      </trkpt>
      <trkpt lat="49.24015" lon="1.40896">
        <ele>84.62</ele>
        <time>2017-04-02T08:00:35Z</time>
      </trkpt>
      <trkpt lat="49.24019" lon="1.40896">
        <ele>84.82</ele>
        <time>2017-04-02T08:00:37Z</time>
      </trkpt>
      <trkpt lat="49.24024" lon="1.40896">
        <ele>84.38</ele>
        <time>2017-04-02T08:00:52Z</time>
      </trkpt>
      <trkpt lat="49.24032" lon="1.40895">
        <ele>84.49</ele>
        <time>2017-04-02T08:00:55Z</time>
      </trkpt>
      <trkpt lat="49.24052" lon="1.40889">
        <ele>81.34</ele>
        <time>2017-04-02T08:00:59Z</time>
      </trkpt>
      <trkpt lat="49.24075" lon="1.40869">
        <ele>76.91</ele>
        <time>2017-04-02T08:01:04Z</time>
      </trkpt>
      <trkpt lat="49.24079" lon="1.40861">
        <ele>75.56</ele>
        <time>2017-04-02T08:01:07Z</time>
      </trkpt>
      <trkpt lat="49.24083" lon="1.40848">
        <ele>73.89</ele>
        <time>2017-04-02T08:01:10Z</time>
      </trkpt>
      <trkpt lat="49.2409" lon="1.40828">
        <ele>68.63</ele>
        <time>2017-04-02T08:01:13Z</time>
      </trkpt>
      <trkpt lat="49.2409" lon="1.4081">
        <ele>65.89</ele>
        <time>2017-04-02T08:01:16Z</time>
      </trkpt>
      <trkpt lat="49.2409" lon="1.40793">
        <ele>62.76</ele>
        <time>2017-04-02T08:01:19Z</time>
      </trkpt>
      <trkpt lat="49.24098" lon="1.40779">
        <ele>59.09</ele>
        <time>2017-04-02T08:01:22Z</time>
      </trkpt>
      <trkpt lat="49.24117" lon="1.40788">
        <ele>56.61</ele>
        <time>2017-04-02T08:01:29Z</time>
      </trkpt>
      <trkpt lat="49.2412" lon="1.40781">
        <ele>55.42</ele>
        <time>2017-04-02T08:01:31Z</time>
      </trkpt>
      <trkpt lat="49.24125" lon="1.40769">
        <ele>53.77</ele>
        <time>2017-04-02T08:01:34Z</time>
      </trkpt>
      <trkpt lat="49.2412" lon="1.4075">
        <ele>48.72</ele>
        <time>2017-04-02T08:01:38Z</time>
      </trkpt>
      <trkpt lat="49.24115" lon="1.40732">
        <ele>45.94</ele>
        <time>2017-04-02T08:01:42Z</time>
      </trkpt>
      <trkpt lat="49.24129" lon="1.40721">
        <ele>41.58</ele>
        <time>2017-04-02T08:01:48Z</time>
      </trkpt>
      <trkpt lat="49.24144" lon="1.40713">
        <ele>39.16</ele>
        <time>2017-04-02T08:01:55Z</time>
      </trkpt>
      <trkpt lat="49.24125" lon="1.40707">
        <ele>41.32</ele>
        <time>2017-04-02T08:02:04Z</time>
      </trkpt>
      <trkpt lat="49.24105" lon="1.40698">
        <ele>40.01</ele>
        <time>2017-04-02T08:02:12Z</time>
      </trkpt>
      <trkpt lat="49.24109" lon="1.40691">
        <ele>38.97</ele>
        <time>2017-04-02T08:02:18Z</time>
      </trkpt>
      <trkpt lat="49.24123" lon="1.40692">
        <ele>37.45</ele>
        <time>2017-04-02T08:02:25Z</time>
      </trkpt>
      <trkpt lat="49.24127" lon="1.40681">
        <ele>36.69</ele>
        <time>2017-04-02T08:02:30Z</time>
      </trkpt>
      <trkpt lat="49.24131" lon="1.40646">
        <ele>36.39</ele>
        <time>2017-04-02T08:02:38Z</time>
      </trkpt>
      <trkpt lat="49.24134" lon="1.4064">
        <ele>35.62</ele>
        <time>2017-04-02T08:02:40Z</time>
      </trkpt>
      <trkpt lat="49.24141" lon="1.40636">
        <ele>37.11</ele>
        <time>2017-04-02T08:02:53Z</time>
      </trkpt>
      <trkpt lat="49.24143" lon="1.40635">
        <ele>36.48</ele>
        <time>2017-04-02T08:03:16Z</time>
      </trkpt>
      <trkpt lat="49.24144" lon="1.40634">
        <ele>35.75</ele>
        <time>2017-04-02T08:03:17Z</time>
      </trkpt>
      <trkpt lat="49.24144" lon="1.40635">
        <ele>36.82</ele>
        <time>2017-04-02T08:03:24Z</time>
      </trkpt>
      <trkpt lat="49.24143" lon="1.40634">
        <ele>36.65</ele>
        <time>2017-04-02T08:03:26Z</time>
      </trkpt>
      <trkpt lat="49.24144" lon="1.40635">
        <ele>35.91</ele>
        <time>2017-04-02T08:03:42Z</time>
      </trkpt>
      <trkpt lat="49.24145" lon="1.40636">
        <ele>35.69</ele>
        <time>2017-04-02T08:03:57Z</time>
      </trkpt>
      <trkpt lat="49.24142" lon="1.40638">
        <ele>36.38</ele>
        <time>2017-04-02T08:04:11Z</time>
      </trkpt>
      <trkpt lat="49.24154" lon="1.40631">
        <ele>35.47</ele>
        <time>2017-04-02T08:04:30Z</time>
      </trkpt>
      <trkpt lat="49.24153" lon="1.40631">
        <ele>36.31</ele>
        <time>2017-04-02T08:04:34Z</time>
      </trkpt>
      <trkpt lat="49.24147" lon="1.40633">
        <ele>37.23</ele>
        <time>2017-04-02T08:05:03Z</time>
      </trkpt>
      <trkpt lat="49.24146" lon="1.40634">
        <ele>36.85</ele>
        <time>2017-04-02T08:05:11Z</time>
      </trkpt>
      <trkpt lat="49.2415" lon="1.40634">
        <ele>36.17</ele>
        <time>2017-04-02T08:05:32Z</time>
      </trkpt>
      <trkpt lat="49.24151" lon="1.40636">
        <ele>36.04</ele>
        <time>2017-04-02T08:05:40Z</time>
      </trkpt>
      <trkpt lat="49.24159" lon="1.40636">
        <ele>35.25</ele>
        <time>2017-04-02T08:05:44Z</time>
      </trkpt>
      <trkpt lat="49.24171" lon="1.40641">
        <ele>32.95</ele>
        <time>2017-04-02T08:05:49Z</time>
      </trkpt>
      <trkpt lat="49.24178" lon="1.40645">
        <ele>31.74</ele>
        <time>2017-04-02T08:05:51Z</time>
      </trkpt>
      <trkpt lat="49.24195" lon="1.40648">
        <ele>27.84</ele>
        <time>2017-04-02T08:05:55Z</time>
      </trkpt>
      <trkpt lat="49.24203" lon="1.40635">
        <ele>24.18</ele>
        <time>2017-04-02T08:05:59Z</time>
      </trkpt>
      <trkpt lat="49.24213" lon="1.40613">
        <ele>22.81</ele>
        <time>2017-04-02T08:06:07Z</time>
      </trkpt>
      <trkpt lat="49.24212" lon="1.40604">
        <ele>21.51</ele>
        <time>2017-04-02T08:06:09Z</time>
      </trkpt>
      <trkpt lat="49.24195" lon="1.4055">
        <ele>22.56</ele>
        <time>2017-04-02T08:06:22Z</time>
      </trkpt>
      <trkpt lat="49.24179" lon="1.40491">
        <ele>22.83</ele>
        <time>2017-04-02T08:06:35Z</time>
      </trkpt>
      <trkpt lat="49.24168" lon="1.40431">
        <ele>22.38</ele>
        <time>2017-04-02T08:06:48Z</time>
      </trkpt>
      <trkpt lat="49.24144" lon="1.40372">
        <ele>22.29</ele>
        <time>2017-04-02T08:07:01Z</time>
      </trkpt>
      <trkpt lat="49.24122" lon="1.4036">
        <ele>25.59</ele>
        <time>2017-04-02T08:07:12Z</time>
      </trkpt>
      <trkpt lat="49.24104" lon="1.40345">
        <ele>28.63</ele>
        <time>2017-04-02T08:07:23Z</time>
      </trkpt>
      <trkpt lat="49.24077" lon="1.40311">
        <ele>29.95</ele>
        <time>2017-04-02T08:07:33Z</time>
      </trkpt>
      <trkpt lat="49.24043" lon="1.40275">
        <ele>32.76</ele>
        <time>2017-04-02T08:07:46Z</time>
      </trkpt>
      <trkpt lat="49.24002" lon="1.40279">
        <ele>35.95</ele>
        <time>2017-04-02T08:08:00Z</time>
      </trkpt>
      <trkpt lat="49.23963" lon="1.40311">
        <ele>37.26</ele>
        <time>2017-04-02T08:08:15Z</time>
      </trkpt>
      <trkpt lat="49.23932" lon="1.40339">
        <ele>40.6</ele>
        <time>2017-04-02T08:08:29Z</time>
      </trkpt>
      <trkpt lat="49.23907" lon="1.40361">
        <ele>43.2</ele>
        <time>2017-04-02T08:08:40Z</time>
      </trkpt>
      <trkpt lat="49.23895" lon="1.40364">
        <ele>43.57</ele>
        <time>2017-04-02T08:08:48Z</time>
      </trkpt>
      <trkpt lat="49.23889" lon="1.4037">
        <ele>44.78</ele>
        <time>2017-04-02T08:08:53Z</time>
      </trkpt>
      <trkpt lat="49.23887" lon="1.40373">
        <ele>45.5</ele>
        <time>2017-04-02T08:08:55Z</time>
      </trkpt>
      <trkpt lat="49.23886" lon="1.40375">
        <ele>46.03</ele>
        <time>2017-04-02T08:09:01Z</time>
      </trkpt>
      <trkpt lat="49.23895" lon="1.40368">
        <ele>45.22</ele>
        <time>2017-04-02T08:09:07Z</time>
      </trkpt>
      <trkpt lat="49.23899" lon="1.40366">
        <ele>43.93</ele>
        <time>2017-04-02T08:09:23Z</time>
      </trkpt>
      <trkpt lat="49.23892" lon="1.40368">
        <ele>44.92</ele>
        <time>2017-04-02T08:09:31Z</time>
      </trkpt>
      <trkpt lat="49.23876" lon="1.40391">
        <ele>48.25</ele>
        <time>2017-04-02T08:09:43Z</time>
      </trkpt>
      <trkpt lat="49.23863" lon="1.4041">
        <ele>51.39</ele>
        <time>2017-04-02T08:09:52Z</time>
      </trkpt>
      <trkpt lat="49.23859" lon="1.40417">
        <ele>52.33</ele>
        <time>2017-04-02T08:09:55Z</time>
      </trkpt>
      <trkpt lat="49.23859" lon="1.40395">
        <ele>54.57</ele>
        <time>2017-04-02T08:10:04Z</time>
      </trkpt>
      <trkpt lat="49.23861" lon="1.40383">
        <ele>54.96</ele>
        <time>2017-04-02T08:10:07Z</time>
      </trkpt>
      <trkpt lat="49.23876" lon="1.40335">
        <ele>57.12</ele>
        <time>2017-04-02T08:10:22Z</time>
      </trkpt>
      <trkpt lat="49.23887" lon="1.40287">
        <ele>59.03</ele>
        <time>2017-04-02T08:10:36Z</time>
      </trkpt>
      <trkpt lat="49.23875" lon="1.40289">
        <ele>60.96</ele>
        <time>2017-04-02T08:10:45Z</time>
      </trkpt>
      <trkpt lat="49.23867" lon="1.4031">
        <ele>64.05</ele>
        <time>2017-04-02T08:10:53Z</time>
      </trkpt>
      <trkpt lat="49.23865" lon="1.40314">
        <ele>65.12</ele>
        <time>2017-04-02T08:10:55Z</time>
      </trkpt>
      <trkpt lat="49.23841" lon="1.40351">
        <ele>68.54</ele>
        <time>2017-04-02T08:11:10Z</time>
      </trkpt>
      <trkpt lat="49.23826" lon="1.40381">
        <ele>71.6</ele>
        <time>2017-04-02T08:11:22Z</time>
      </trkpt>
      <trkpt lat="49.23809" lon="1.40413">
        <ele>74.77</ele>
        <time>2017-04-02T08:11:35Z</time>
      </trkpt>
      <trkpt lat="49.23794" lon="1.40445">
        <ele>77.97</ele>
        <time>2017-04-02T08:11:47Z</time>
      </trkpt>
      <trkpt lat="49.23776" lon="1.40466">
        <ele>81.17</ele>
        <time>2017-04-02T08:11:57Z</time>
      </trkpt>
      <trkpt lat="49.23757" lon="1.40468">
        <ele>84.33</ele>
        <time>2017-04-02T08:12:06Z</time>
      </trkpt>
      <trkpt lat="49.23736" lon="1.40445">
        <ele>85.2</ele>
        <time>2017-04-02T08:12:18Z</time>
      </trkpt>
      <trkpt lat="49.23728" lon="1.40451">
        <ele>83.25</ele>
        <time>2017-04-02T08:12:22Z</time>
      </trkpt>
      <trkpt lat="49.23704" lon="1.40456">
        <ele>79.14</ele>
        <time>2017-04-02T08:12:27Z</time>
      </trkpt>
      <trkpt lat="49.23699" lon="1.40454">
        <ele>78.97</ele>
        <time>2017-04-02T08:12:28Z</time>
      </trkpt>
      <trkpt lat="49.23686" lon="1.40444">
        <ele>77.68</ele>
        <time>2017-04-02T08:12:35Z</time>
      </trkpt>
      <trkpt lat="49.23688" lon="1.40436">
        <ele>75.28</ele>
        <time>2017-04-02T08:12:54Z</time>
      </trkpt>
      <trkpt lat="49.23691" lon="1.40436">
        <ele>74.67</ele>
        <time>2017-04-02T08:12:56Z</time>
      </trkpt>
      <trkpt lat="49.23704" lon="1.40422">
        <ele>71.34</ele>
        <time>2017-04-02T08:13:02Z</time>
      </trkpt>
      <trkpt lat="49.23702" lon="1.40414">
        <ele>69.37</ele>
        <time>2017-04-02T08:13:05Z</time>
      </trkpt>
      <trkpt lat="49.23694" lon="1.40403">
        <ele>67.64</ele>
        <time>2017-04-02T08:13:09Z</time>
      </trkpt>
      <trkpt lat="49.23694" lon="1.40389">
        <ele>63.69</ele>
        <time>2017-04-02T08:13:13Z</time>
      </trkpt>
      <trkpt lat="49.23687" lon="1.40378">
        <ele>61.35</ele>
        <time>2017-04-02T08:13:17Z</time>
      </trkpt>
      <trkpt lat="49.23671" lon="1.40367">
        <ele>61.09</ele>
        <time>2017-04-02T08:13:25Z</time>
      </trkpt>
      <trkpt lat="49.23665" lon="1.40364">
        <ele>61.61</ele>
        <time>2017-04-02T08:13:28Z</time>
      </trkpt>
      <trkpt lat="49.23656" lon="1.40357">
        <ele>61.25</ele>
        <time>2017-04-02T08:13:33Z</time>
      </trkpt>
      <trkpt lat="49.23652" lon="1.4035">
        <ele>59.82</ele>
        <time>2017-04-02T08:13:37Z</time>
      </trkpt>
      <trkpt lat="49.23647" lon="1.40348">
        <ele>60.6</ele>
        <time>2017-04-02T08:13:41Z</time>
      </trkpt>
      <trkpt lat="49.23636" lon="1.40348">
        <ele>63.13</ele>
        <time>2017-04-02T08:13:47Z</time>
      </trkpt>
      <trkpt lat="49.23634" lon="1.40346">
        <ele>63.73</ele>
        <time>2017-04-02T08:13:49Z</time>
      </trkpt>
      <trkpt lat="49.23627" lon="1.40339">
        <ele>64.93</ele>
        <time>2017-04-02T08:13:54Z</time>
      </trkpt>
      <trkpt lat="49.23621" lon="1.40335">
        <ele>66.16</ele>
        <time>2017-04-02T08:13:58Z</time>
      </trkpt>
      <trkpt lat="49.23615" lon="1.40337">
        <ele>68.45</ele>
        <time>2017-04-02T08:14:03Z</time>
      </trkpt>
      <trkpt lat="49.23618" lon="1.40357">
        <ele>70.11</ele>
        <time>2017-04-02T08:14:14Z</time>
      </trkpt>
      <trkpt lat="49.2362" lon="1.40368">
        <ele>71.11</ele>
        <time>2017-04-02T08:14:21Z</time>
      </trkpt>
      <trkpt lat="49.23623" lon="1.40389">
        <ele>74.59</ele>
        <time>2017-04-02T08:14:33Z</time>
      </trkpt>
      <trkpt lat="49.23625" lon="1.4039">
        <ele>75.11</ele>
        <time>2017-04-02T08:14:49Z</time>
      </trkpt>
      <trkpt lat="49.2362" lon="1.404">
        <ele>78.13</ele>
        <time>2017-04-02T08:15:02Z</time>
      </trkpt>
      <trkpt lat="49.23614" lon="1.40407">
        <ele>81.15</ele>
        <time>2017-04-02T08:15:14Z</time>
      </trkpt>
      <trkpt lat="49.23606" lon="1.4041">
        <ele>84.18</ele>
        <time>2017-04-02T08:15:34Z</time>
      </trkpt>
      <trkpt lat="49.23593" lon="1.40403">
        <ele>87.33</ele>
        <time>2017-04-02T08:15:54Z</time>
      </trkpt>
      <trkpt lat="49.23585" lon="1.40398">
        <ele>90.49</ele>
        <time>2017-04-02T08:16:08Z</time>
      </trkpt>
      <trkpt lat="49.23576" lon="1.40394">
        <ele>92.48</ele>
        <time>2017-04-02T08:16:19Z</time>
      </trkpt>
      <trkpt lat="49.23559" lon="1.40381">
        <ele>94.3</ele>
        <time>2017-04-02T08:16:31Z</time>
      </trkpt>
      <trkpt lat="49.23544" lon="1.40372">
        <ele>94.62</ele>
        <time>2017-04-02T08:16:41Z</time>
      </trkpt>
      <trkpt lat="49.23538" lon="1.40366">
        <ele>92.73</ele>
        <time>2017-04-02T08:16:44Z</time>
      </trkpt>
      <trkpt lat="49.23529" lon="1.40371">
        <ele>90.04</ele>
        <time>2017-04-02T08:16:49Z</time>
      </trkpt>
      <trkpt lat="49.23528" lon="1.40397">
        <ele>88.85</ele>
        <time>2017-04-02T08:16:56Z</time>
      </trkpt>
      <trkpt lat="49.23525" lon="1.40407">
        <ele>87.87</ele>
        <time>2017-04-02T08:17:08Z</time>
      </trkpt>
      <trkpt lat="49.23523" lon="1.40407">
        <ele>87.56</ele>
        <time>2017-04-02T08:17:22Z</time>
      </trkpt>
      <trkpt lat="49.23517" lon="1.4041">
        <ele>84.31</ele>
        <time>2017-04-02T08:17:30Z</time>
      </trkpt>
      <trkpt lat="49.23511" lon="1.40421">
        <ele>80.8</ele>
        <time>2017-04-02T08:17:36Z</time>
      </trkpt>
      <trkpt lat="49.2351" lon="1.40422">
        <ele>80.26</ele>
        <time>2017-04-02T08:17:37Z</time>
      </trkpt>
      <trkpt lat="49.23502" lon="1.40425">
        <ele>76.45</ele>
        <time>2017-04-02T08:17:42Z</time>
      </trkpt>
      <trkpt lat="49.23494" lon="1.40428">
        <ele>72.4</ele>
        <time>2017-04-02T08:17:47Z</time>
      </trkpt>
      <trkpt lat="49.23488" lon="1.40429">
        <ele>69.06</ele>
        <time>2017-04-02T08:17:51Z</time>
      </trkpt>
      <trkpt lat="49.23487" lon="1.40429">
        <ele>68.28</ele>
        <time>2017-04-02T08:17:52Z</time>
      </trkpt>
      <trkpt lat="49.23482" lon="1.40433">
        <ele>65.34</ele>
        <time>2017-04-02T08:17:55Z</time>
      </trkpt>
      <trkpt lat="49.23474" lon="1.40424">
        <ele>61.55</ele>
        <time>2017-04-02T08:18:01Z</time>
      </trkpt>
      <trkpt lat="49.2347" lon="1.40409">
        <ele>58.95</ele>
        <time>2017-04-02T08:18:06Z</time>
      </trkpt>
      <trkpt lat="49.23461" lon="1.40383">
        <ele>54.69</ele>
        <time>2017-04-02T08:18:11Z</time>
      </trkpt>
      <trkpt lat="49.23457" lon="1.40368">
        <ele>50.78</ele>
        <time>2017-04-02T08:18:14Z</time>
      </trkpt>
      <trkpt lat="49.23452" lon="1.40357">
        <ele>47.49</ele>
        <time>2017-04-02T08:18:18Z</time>
      </trkpt>
      <trkpt lat="49.23451" lon="1.40354">
        <ele>46.95</ele>
        <time>2017-04-02T08:18:19Z</time>
      </trkpt>
      <trkpt lat="49.23445" lon="1.40335">
        <ele>43.12</ele>
        <time>2017-04-02T08:18:22Z</time>
      </trkpt>
      <trkpt lat="49.2344" lon="1.40322">
        <ele>39.85</ele>
        <time>2017-04-02T08:18:25Z</time>
      </trkpt>
      <trkpt lat="49.23444" lon="1.40287">
        <ele>36.36</ele>
        <time>2017-04-02T08:18:33Z</time>
      </trkpt>
      <trkpt lat="49.23445" lon="1.40284">
        <ele>35.65</ele>
        <time>2017-04-02T08:18:34Z</time>
      </trkpt>
      <trkpt lat="49.23445" lon="1.40266">
        <ele>32</ele>
        <time>2017-04-02T08:18:40Z</time>
      </trkpt>
      <trkpt lat="49.23445" lon="1.40253">
        <ele>28.79</ele>
        <time>2017-04-02T08:18:45Z</time>
      </trkpt>
      <trkpt lat="49.2345" lon="1.40244">
        <ele>26.06</ele>
        <time>2017-04-02T08:18:49Z</time>
      </trkpt>
      <trkpt lat="49.23451" lon="1.40237">
        <ele>23.75</ele>
        <time>2017-04-02T08:18:59Z</time>
      </trkpt>
      <trkpt lat="49.23442" lon="1.40239">
        <ele>21.01</ele>
        <time>2017-04-02T08:19:09Z</time>
      </trkpt>
      <trkpt lat="49.2344" lon="1.40237">
        <ele>19.93</ele>
        <time>2017-04-02T08:19:11Z</time>
      </trkpt>
      <trkpt lat="49.23441" lon="1.4023">
        <ele>17.81</ele>
        <time>2017-04-02T08:19:16Z</time>
      </trkpt>
      <trkpt lat="49.23446" lon="1.40224">
        <ele>16.09</ele>
        <time>2017-04-02T08:19:20Z</time>
      </trkpt>
      <trkpt lat="49.23453" lon="1.40216">
        <ele>13.03</ele>
        <time>2017-04-02T08:19:25Z</time>
      </trkpt>
      <trkpt lat="49.23443" lon="1.40207">
        <ele>9.37</ele>
        <time>2017-04-02T08:19:32Z</time>
      </trkpt>
      <trkpt lat="49.23443" lon="1.40194">
        <ele>6.63</ele>
        <time>2017-04-02T08:19:36Z</time>
      </trkpt>
      <trkpt lat="49.23442" lon="1.40186">
        <ele>4.38</ele>
        <time>2017-04-02T08:19:40Z</time>
      </trkpt>
      <trkpt lat="49.23441" lon="1.40182">
        <ele>3.21</ele>
        <time>2017-04-02T08:19:42Z</time>
      </trkpt>
      <trkpt lat="49.23432" lon="1.40181">
        <ele>1.86</ele>
        <time>2017-04-02T08:19:50Z</time>
      </trkpt>
      <trkpt lat="49.23433" lon="1.4018">
        <ele>1.74</ele>
        <time>2017-04-02T08:20:21Z</time>
      </trkpt>
      <trkpt lat="49.23435" lon="1.40176">
        <ele>1.96</ele>
        <time>2017-04-02T08:20:44Z</time>
      </trkpt>
      <trkpt lat="49.23436" lon="1.4018">
        <ele>2.42</ele>
        <time>2017-04-02T08:21:11Z</time>
      </trkpt>
      <trkpt lat="49.23437" lon="1.4018">
        <ele>2.82</ele>
        <time>2017-04-02T08:21:38Z</time>
      </trkpt>
      <trkpt lat="49.23434" lon="1.40181">
        <ele>2.41</ele>
        <time>2017-04-02T08:22:02Z</time>
      </trkpt>
      <trkpt lat="49.23433" lon="1.40184">
        <ele>2.84</ele>
        <time>2017-04-02T08:22:28Z</time>
      </trkpt>
      <trkpt lat="49.23435" lon="1.40184">
        <ele>2.38</ele>
        <time>2017-04-02T08:23:00Z</time>
      </trkpt>
      <trkpt lat="49.23436" lon="1.40181">
        <ele>2.02</ele>
        <time>2017-04-02T08:23:06Z</time>
      </trkpt>
      <trkpt lat="49.23435" lon="1.40173">
        <ele>2.18</ele>
        <time>2017-04-02T08:23:09Z</time>
      </trkpt>
      <trkpt lat="49.23401" lon="1.40165">
        <ele>2</ele>
        <time>2017-04-02T08:23:18Z</time>
      </trkpt>
      <trkpt lat="49.23352" lon="1.40161">
        <ele>1.52</ele>
        <time>2017-04-02T08:23:29Z</time>
      </trkpt>
      <trkpt lat="49.23337" lon="1.40162">
        <ele>1.94</ele>
        <time>2017-04-02T08:23:32Z</time>
      </trkpt>
      <trkpt lat="49.2329" lon="1.40153">
        <ele>1.95</ele>
        <time>2017-04-02T08:23:45Z</time>
      </trkpt>
      <trkpt lat="49.23287" lon="1.40155">
        <ele>1.94</ele>
        <time>2017-04-02T08:23:46Z</time>
      </trkpt>
      <trkpt lat="49.23251" lon="1.4018">
        <ele>2.88</ele>
        <time>2017-04-02T08:23:58Z</time>
      </trkpt>
      <trkpt lat="49.23242" lon="1.40211">
        <ele>4.9</ele>
        <time>2017-04-02T08:24:07Z</time>
      </trkpt>
      <trkpt lat="49.23237" lon="1.40249">
        <ele>7.96</ele>
        <time>2017-04-02T08:24:18Z</time>
      </trkpt>
      <trkpt lat="49.23231" lon="1.40286">
        <ele>10.5</ele>
        <time>2017-04-02T08:24:29Z</time>
      </trkpt>
      <trkpt lat="49.23222" lon="1.40338">
        <ele>13.67</ele>
        <time>2017-04-02T08:24:44Z</time>
      </trkpt>
      <trkpt lat="49.23213" lon="1.40388">
        <ele>16.88</ele>
        <time>2017-04-02T08:24:58Z</time>
      </trkpt>
      <trkpt lat="49.23202" lon="1.40436">
        <ele>19.61</ele>
        <time>2017-04-02T08:25:11Z</time>
      </trkpt>
      <trkpt lat="49.23181" lon="1.40482">
        <ele>22.57</ele>
        <time>2017-04-02T08:25:26Z</time>
      </trkpt>
      <trkpt lat="49.23154" lon="1.40508">
        <ele>25.74</ele>
        <time>2017-04-02T08:25:40Z</time>
      </trkpt>
      <trkpt lat="49.23129" lon="1.40525">
        <ele>28.61</ele>
        <time>2017-04-02T08:25:53Z</time>
      </trkpt>
      <trkpt lat="49.23105" lon="1.4054">
        <ele>31.75</ele>
        <time>2017-04-02T08:26:06Z</time>
      </trkpt>
      <trkpt lat="49.23081" lon="1.40559">
        <ele>35.04</ele>
        <time>2017-04-02T08:26:20Z</time>
      </trkpt>
      <trkpt lat="49.23071" lon="1.4057">
        <ele>36.26</ele>
        <time>2017-04-02T08:26:28Z</time>
      </trkpt>
      <trkpt lat="49.2306" lon="1.40592">
        <ele>39.34</ele>
        <time>2017-04-02T08:26:42Z</time>
      </trkpt>
      <trkpt lat="49.23059" lon="1.40593">
        <ele>39.52</ele>
        <time>2017-04-02T08:26:43Z</time>
      </trkpt>
      <trkpt lat="49.23043" lon="1.40626">
        <ele>41.86</ele>
        <time>2017-04-02T08:26:57Z</time>
      </trkpt>
      <trkpt lat="49.23039" lon="1.40632">
        <ele>42.55</ele>
        <time>2017-04-02T08:27:00Z</time>
      </trkpt>
      <trkpt lat="49.23035" lon="1.40669">
        <ele>45.28</ele>
        <time>2017-04-02T08:27:15Z</time>
      </trkpt>
      <trkpt lat="49.23037" lon="1.40702">
        <ele>46.31</ele>
        <time>2017-04-02T08:27:27Z</time>
      </trkpt>
      <trkpt lat="49.23037" lon="1.40713">
        <ele>46.75</ele>
        <time>2017-04-02T08:27:31Z</time>
      </trkpt>
      <trkpt lat="49.23039" lon="1.40722">
        <ele>47.3</ele>
        <time>2017-04-02T08:27:34Z</time>
      </trkpt>
      <trkpt lat="49.23045" lon="1.40738">
        <ele>47.83</ele>
        <time>2017-04-02T08:27:40Z</time>
      </trkpt>
      <trkpt lat="49.23056" lon="1.40781">
        <ele>50.06</ele>
        <time>2017-04-02T08:27:55Z</time>
      </trkpt>
      <trkpt lat="49.23063" lon="1.40794">
        <ele>50.67</ele>
        <time>2017-04-02T08:28:00Z</time>
      </trkpt>
      <trkpt lat="49.23072" lon="1.40814">
        <ele>52.09</ele>
        <time>2017-04-02T08:28:09Z</time>
      </trkpt>
      <trkpt lat="49.23074" lon="1.40823">
        <ele>52.64</ele>
        <time>2017-04-02T08:28:13Z</time>
      </trkpt>
      <trkpt lat="49.23074" lon="1.40849">
        <ele>54.58</ele>
        <time>2017-04-02T08:28:25Z</time>
      </trkpt>
      <trkpt lat="49.23072" lon="1.40863">
        <ele>55.5</ele>
        <time>2017-04-02T08:28:31Z</time>
      </trkpt>
      <trkpt lat="49.23077" lon="1.40891">
        <ele>57.54</ele>
        <time>2017-04-02T08:28:42Z</time>
      </trkpt>
      <trkpt lat="49.23077" lon="1.40896">
        <ele>58.02</ele>
        <time>2017-04-02T08:28:44Z</time>
      </trkpt>
      <trkpt lat="49.23074" lon="1.40905">
        <ele>58.71</ele>
        <time>2017-04-02T08:28:48Z</time>
      </trkpt>
      <trkpt lat="49.23087" lon="1.40937">
        <ele>60.91</ele>
        <time>2017-04-02T08:29:01Z</time>
      </trkpt>
      <trkpt lat="49.23085" lon="1.40956">
        <ele>62.19</ele>
        <time>2017-04-02T08:29:09Z</time>
      </trkpt>
      <trkpt lat="49.23087" lon="1.40975">
        <ele>63.53</ele>
        <time>2017-04-02T08:29:15Z</time>
      </trkpt>
      <trkpt lat="49.2309" lon="1.4099">
        <ele>64.43</ele>
        <time>2017-04-02T08:29:21Z</time>
      </trkpt>
      <trkpt lat="49.23086" lon="1.4101">
        <ele>66.08</ele>
        <time>2017-04-02T08:29:28Z</time>
      </trkpt>
      <trkpt lat="49.23087" lon="1.41044">
        <ele>67.86</ele>
        <time>2017-04-02T08:29:41Z</time>
      </trkpt>
      <trkpt lat="49.23092" lon="1.41073">
        <ele>70.61</ele>
        <time>2017-04-02T08:29:54Z</time>
      </trkpt>
      <trkpt lat="49.23091" lon="1.41078">
        <ele>71.05</ele>
        <time>2017-04-02T08:29:56Z</time>
      </trkpt>
      <trkpt lat="49.23102" lon="1.41103">
        <ele>73.47</ele>
        <time>2017-04-02T08:30:06Z</time>
      </trkpt>
      <trkpt lat="49.23111" lon="1.41137">
        <ele>76.79</ele>
        <time>2017-04-02T08:30:21Z</time>
      </trkpt>
      <trkpt lat="49.23122" lon="1.41168">
        <ele>80</ele>
        <time>2017-04-02T08:30:34Z</time>
      </trkpt>
      <trkpt lat="49.23123" lon="1.41171">
        <ele>80.65</ele>
        <time>2017-04-02T08:30:36Z</time>
      </trkpt>
      <trkpt lat="49.23126" lon="1.41177">
        <ele>81.34</ele>
        <time>2017-04-02T08:30:39Z</time>
      </trkpt>
      <trkpt lat="49.23133" lon="1.41185">
        <ele>82.35</ele>
        <time>2017-04-02T08:30:43Z</time>
      </trkpt>
      <trkpt lat="49.23144" lon="1.41205">
        <ele>85.22</ele>
        <time>2017-04-02T08:30:54Z</time>
      </trkpt>
      <trkpt lat="49.23148" lon="1.41217">
        <ele>86.77</ele>
        <time>2017-04-02T08:31:01Z</time>
      </trkpt>
      <trkpt lat="49.23151" lon="1.41225">
        <ele>87.73</ele>
        <time>2017-04-02T08:31:05Z</time>
      </trkpt>
      <trkpt lat="49.23152" lon="1.41234">
        <ele>88.95</ele>
        <time>2017-04-02T08:31:10Z</time>
      </trkpt>
      <trkpt lat="49.23164" lon="1.41256">
        <ele>92.38</ele>
        <time>2017-04-02T08:31:22Z</time>
      </trkpt>
      <trkpt lat="49.2317" lon="1.41272">
        <ele>94.96</ele>
        <time>2017-04-02T08:31:31Z</time>
      </trkpt>
      <trkpt lat="49.23171" lon="1.41287">
        <ele>96.96</ele>
        <time>2017-04-02T08:31:39Z</time>
      </trkpt>
      <trkpt lat="49.23183" lon="1.41305">
        <ele>99.33</ele>
        <time>2017-04-02T08:31:50Z</time>
      </trkpt>
      <trkpt lat="49.23187" lon="1.4131">
        <ele>99.8</ele>
        <time>2017-04-02T08:31:54Z</time>
      </trkpt>
      <trkpt lat="49.23198" lon="1.41317">
        <ele>100.49</ele>
        <time>2017-04-02T08:32:00Z</time>
      </trkpt>
      <trkpt lat="49.23219" lon="1.41311">
        <ele>101.96</ele>
        <time>2017-04-02T08:32:10Z</time>
      </trkpt>
      <trkpt lat="49.2322" lon="1.41276">
        <ele>103.91</ele>
        <time>2017-04-02T08:32:23Z</time>
      </trkpt>
      <trkpt lat="49.23219" lon="1.41265">
        <ele>104.4</ele>
        <time>2017-04-02T08:32:27Z</time>
      </trkpt>
      <trkpt lat="49.23212" lon="1.41221">
        <ele>107.02</ele>
        <time>2017-04-02T08:32:42Z</time>
      </trkpt>
      <trkpt lat="49.23204" lon="1.41174">
        <ele>108.49</ele>
        <time>2017-04-02T08:32:56Z</time>
      </trkpt>
      <trkpt lat="49.23206" lon="1.41169">
        <ele>108.85</ele>
        <time>2017-04-02T08:32:58Z</time>
      </trkpt>
      <trkpt lat="49.23208" lon="1.41165">
        <ele>109.33</ele>
        <time>2017-04-02T08:33:00Z</time>
      </trkpt>
      <trkpt lat="49.23222" lon="1.41181">
        <ele>111.59</ele>
        <time>2017-04-02T08:33:12Z</time>
      </trkpt>
      <trkpt lat="49.23228" lon="1.41206">
        <ele>113.2</ele>
        <time>2017-04-02T08:33:22Z</time>
      </trkpt>
      <trkpt lat="49.2324" lon="1.41235">
        <ele>115.48</ele>
        <time>2017-04-02T08:33:33Z</time>
      </trkpt>
      <trkpt lat="49.23257" lon="1.41269">
        <ele>117.98</ele>
        <time>2017-04-02T08:33:45Z</time>
      </trkpt>
      <trkpt lat="49.2326" lon="1.41287">
        <ele>119.11</ele>
        <time>2017-04-02T08:33:51Z</time>
      </trkpt>
      <trkpt lat="49.2326" lon="1.41299">
        <ele>119.78</ele>
        <time>2017-04-02T08:33:55Z</time>
      </trkpt>
      <trkpt lat="49.2327" lon="1.41351">
        <ele>122.94</ele>
        <time>2017-04-02T08:34:10Z</time>
      </trkpt>
      <trkpt lat="49.23274" lon="1.41364">
        <ele>123.92</ele>
        <time>2017-04-02T08:34:14Z</time>
      </trkpt>
      <trkpt lat="49.23274" lon="1.4137">
        <ele>124.16</ele>
        <time>2017-04-02T08:34:16Z</time>
      </trkpt>
      <trkpt lat="49.23278" lon="1.41391">
        <ele>125.23</ele>
        <time>2017-04-02T08:34:22Z</time>
      </trkpt>
      <trkpt lat="49.23276" lon="1.41436">
        <ele>127.46</ele>
        <time>2017-04-02T08:34:34Z</time>
      </trkpt>
      <trkpt lat="49.2328" lon="1.41476">
        <ele>129.74</ele>
        <time>2017-04-02T08:34:45Z</time>
      </trkpt>
      <trkpt lat="49.23288" lon="1.41534">
        <ele>132.25</ele>
        <time>2017-04-02T08:35:00Z</time>
      </trkpt>
      <trkpt lat="49.23276" lon="1.41581">
        <ele>134.35</ele>
        <time>2017-04-02T08:35:13Z</time>
      </trkpt>
      <trkpt lat="49.23269" lon="1.41599">
        <ele>135.37</ele>
        <time>2017-04-02T08:35:19Z</time>
      </trkpt>
      <trkpt lat="49.23269" lon="1.41603">
        <ele>135.85</ele>
        <time>2017-04-02T08:35:21Z</time>
      </trkpt>
      <trkpt lat="49.23274" lon="1.41588">
        <ele>134.5</ele>
        <time>2017-04-02T08:35:27Z</time>
      </trkpt>
      <trkpt lat="49.23279" lon="1.41574">
        <ele>133.74</ele>
        <time>2017-04-02T08:35:30Z</time>
      </trkpt>
      <trkpt lat="49.23282" lon="1.41512">
        <ele>131.09</ele>
        <time>2017-04-02T08:35:38Z</time>
      </trkpt>
      <trkpt lat="49.23284" lon="1.41447">
        <ele>126.86</ele>
        <time>2017-04-02T08:35:44Z</time>
      </trkpt>
      <trkpt lat="49.23275" lon="1.41358">
        <ele>122.57</ele>
        <time>2017-04-02T08:35:53Z</time>
      </trkpt>
      <trkpt lat="49.23262" lon="1.413">
        <ele>119.14</ele>
        <time>2017-04-02T08:35:59Z</time>
      </trkpt>
      <trkpt lat="49.2323" lon="1.41235">
        <ele>114.73</ele>
        <time>2017-04-02T08:36:06Z</time>
      </trkpt>
      <trkpt lat="49.23226" lon="1.41227">
        <ele>114.06</ele>
        <time>2017-04-02T08:36:07Z</time>
      </trkpt>
      <trkpt lat="49.2322" lon="1.41199">
        <ele>112.6</ele>
        <time>2017-04-02T08:36:10Z</time>
      </trkpt>
      <trkpt lat="49.23208" lon="1.41169">
        <ele>110.99</ele>
        <time>2017-04-02T08:36:14Z</time>
      </trkpt>
      <trkpt lat="49.23203" lon="1.41151">
        <ele>108.74</ele>
        <time>2017-04-02T08:36:18Z</time>
      </trkpt>
      <trkpt lat="49.23204" lon="1.41112">
        <ele>109.47</ele>
        <time>2017-04-02T08:36:28Z</time>
      </trkpt>
      <trkpt lat="49.23219" lon="1.41078">
        <ele>112.13</ele>
        <time>2017-04-02T08:36:40Z</time>
      </trkpt>
      <trkpt lat="49.23231" lon="1.41057">
        <ele>115.14</ele>
        <time>2017-04-02T08:36:49Z</time>
      </trkpt>
      <trkpt lat="49.23244" lon="1.41033">
        <ele>118.11</ele>
        <time>2017-04-02T08:37:00Z</time>
      </trkpt>
      <trkpt lat="49.23246" lon="1.4103">
        <ele>118.89</ele>
        <time>2017-04-02T08:37:02Z</time>
      </trkpt>
      <trkpt lat="49.23258" lon="1.41013">
        <ele>122.21</ele>
        <time>2017-04-02T08:37:13Z</time>
      </trkpt>
      <trkpt lat="49.23259" lon="1.41011">
        <ele>123.01</ele>
        <time>2017-04-02T08:37:15Z</time>
      </trkpt>
      <trkpt lat="49.23261" lon="1.41009">
        <ele>123.67</ele>
        <time>2017-04-02T08:37:22Z</time>
      </trkpt>
      <trkpt lat="49.23263" lon="1.41014">
        <ele>124.14</ele>
        <time>2017-04-02T08:37:26Z</time>
      </trkpt>
      <trkpt lat="49.23269" lon="1.41023">
        <ele>126.18</ele>
        <time>2017-04-02T08:37:41Z</time>
      </trkpt>
      <trkpt lat="49.23271" lon="1.41024">
        <ele>126.36</ele>
        <time>2017-04-02T08:37:43Z</time>
      </trkpt>
      <trkpt lat="49.23284" lon="1.41028">
        <ele>125.76</ele>
        <time>2017-04-02T08:37:51Z</time>
      </trkpt>
      <trkpt lat="49.23304" lon="1.41033">
        <ele>124.7</ele>
        <time>2017-04-02T08:38:03Z</time>
      </trkpt>
      <trkpt lat="49.23308" lon="1.41034">
        <ele>123.92</ele>
        <time>2017-04-02T08:38:05Z</time>
      </trkpt>
      <trkpt lat="49.23312" lon="1.41023">
        <ele>122.49</ele>
        <time>2017-04-02T08:38:11Z</time>
      </trkpt>
      <trkpt lat="49.23318" lon="1.4101">
        <ele>118.2</ele>
        <time>2017-04-02T08:38:19Z</time>
      </trkpt>
      <trkpt lat="49.2332" lon="1.41006">
        <ele>116.64</ele>
        <time>2017-04-02T08:38:22Z</time>
      </trkpt>
      <trkpt lat="49.23322" lon="1.40996">
        <ele>112.88</ele>
        <time>2017-04-02T08:38:28Z</time>
      </trkpt>
      <trkpt lat="49.23324" lon="1.40986">
        <ele>110.11</ele>
        <time>2017-04-02T08:38:33Z</time>
      </trkpt>
      <trkpt lat="49.23324" lon="1.40982">
        <ele>108.45</ele>
        <time>2017-04-02T08:38:36Z</time>
      </trkpt>
      <trkpt lat="49.2333" lon="1.40973">
        <ele>107.41</ele>
        <time>2017-04-02T08:38:51Z</time>
      </trkpt>
      <trkpt lat="49.23347" lon="1.40963">
        <ele>108.98</ele>
        <time>2017-04-02T08:39:07Z</time>
      </trkpt>
      <trkpt lat="49.23365" lon="1.40955">
        <ele>106.74</ele>
        <time>2017-04-02T08:39:18Z</time>
      </trkpt>
      <trkpt lat="49.23373" lon="1.40954">
        <ele>106.43</ele>
        <time>2017-04-02T08:39:22Z</time>
      </trkpt>
      <trkpt lat="49.23391" lon="1.40954">
        <ele>107.69</ele>
        <time>2017-04-02T08:39:33Z</time>
      </trkpt>
      <trkpt lat="49.23413" lon="1.40951">
        <ele>109.23</ele>
        <time>2017-04-02T08:39:50Z</time>
      </trkpt>
      <trkpt lat="49.23421" lon="1.40949">
        <ele>111.33</ele>
        <time>2017-04-02T08:39:58Z</time>
      </trkpt>
      <trkpt lat="49.23424" lon="1.40948">
        <ele>111.68</ele>
        <time>2017-04-02T08:40:00Z</time>
      </trkpt>
      <trkpt lat="49.23439" lon="1.40935">
        <ele>113.97</ele>
        <time>2017-04-02T08:40:12Z</time>
      </trkpt>
      <trkpt lat="49.2346" lon="1.40916">
        <ele>114.76</ele>
        <time>2017-04-02T08:40:29Z</time>
      </trkpt>
      <trkpt lat="49.23475" lon="1.40908">
        <ele>116.47</ele>
        <time>2017-04-02T08:40:48Z</time>
      </trkpt>
      <trkpt lat="49.2349" lon="1.4089">
        <ele>117.63</ele>
        <time>2017-04-02T08:41:13Z</time>
      </trkpt>
      <trkpt lat="49.23505" lon="1.40871">
        <ele>120.64</ele>
        <time>2017-04-02T08:41:33Z</time>
      </trkpt>
      <trkpt lat="49.23517" lon="1.40855">
        <ele>123.64</ele>
        <time>2017-04-02T08:41:50Z</time>
      </trkpt>
      <trkpt lat="49.23522" lon="1.40852">
        <ele>125.67</ele>
        <time>2017-04-02T08:42:00Z</time>
      </trkpt>
      <trkpt lat="49.23533" lon="1.40843">
        <ele>129.04</ele>
        <time>2017-04-02T08:42:18Z</time>
      </trkpt>
      <trkpt lat="49.23542" lon="1.4084">
        <ele>132.23</ele>
        <time>2017-04-02T08:42:36Z</time>
      </trkpt>
      <trkpt lat="49.23551" lon="1.40824">
        <ele>134.96</ele>
        <time>2017-04-02T08:43:02Z</time>
      </trkpt>
      <trkpt lat="49.23552" lon="1.40815">
        <ele>134.3</ele>
        <time>2017-04-02T08:43:29Z</time>
      </trkpt>
      <trkpt lat="49.2355" lon="1.40811">
        <ele>134.22</ele>
        <time>2017-04-02T08:43:34Z</time>
      </trkpt>
      <trkpt lat="49.23536" lon="1.40766">
        <ele>131</ele>
        <time>2017-04-02T08:43:42Z</time>
      </trkpt>
      <trkpt lat="49.2353" lon="1.40734">
        <ele>128.24</ele>
        <time>2017-04-02T08:43:47Z</time>
      </trkpt>
      <trkpt lat="49.23543" lon="1.40695">
        <ele>125.72</ele>
        <time>2017-04-02T08:43:56Z</time>
      </trkpt>
      <trkpt lat="49.23553" lon="1.40677">
        <ele>124.23</ele>
        <time>2017-04-02T08:43:59Z</time>
      </trkpt>
      <trkpt lat="49.23568" lon="1.40655">
        <ele>123.88</ele>
        <time>2017-04-02T08:44:04Z</time>
      </trkpt>
      <trkpt lat="49.23589" lon="1.40618">
        <ele>122.47</ele>
        <time>2017-04-02T08:44:12Z</time>
      </trkpt>
      <trkpt lat="49.23623" lon="1.40605">
        <ele>119.11</ele>
        <time>2017-04-02T08:44:22Z</time>
      </trkpt>
      <trkpt lat="49.23627" lon="1.40603">
        <ele>118.17</ele>
        <time>2017-04-02T08:44:23Z</time>
      </trkpt>
      <trkpt lat="49.23648" lon="1.40598">
        <ele>112.01</ele>
        <time>2017-04-02T08:44:27Z</time>
      </trkpt>
      <trkpt lat="49.23673" lon="1.40591">
        <ele>107.97</ele>
        <time>2017-04-02T08:44:31Z</time>
      </trkpt>
      <trkpt lat="49.23685" lon="1.40582">
        <ele>105.6</ele>
        <time>2017-04-02T08:44:33Z</time>
      </trkpt>
      <trkpt lat="49.23696" lon="1.4057">
        <ele>101.98</ele>
        <time>2017-04-02T08:44:36Z</time>
      </trkpt>
      <trkpt lat="49.23698" lon="1.40567">
        <ele>101.33</ele>
        <time>2017-04-02T08:44:37Z</time>
      </trkpt>
      <trkpt lat="49.23698" lon="1.40546">
        <ele>97.63</ele>
        <time>2017-04-02T08:44:48Z</time>
      </trkpt>
      <trkpt lat="49.23694" lon="1.40545">
        <ele>97.11</ele>
        <time>2017-04-02T08:44:50Z</time>
      </trkpt>
      <trkpt lat="49.23665" lon="1.4054">
        <ele>98.31</ele>
        <time>2017-04-02T08:45:02Z</time>
      </trkpt>
      <trkpt lat="49.23651" lon="1.40529">
        <ele>100.16</ele>
        <time>2017-04-02T08:45:10Z</time>
      </trkpt>
      <trkpt lat="49.23636" lon="1.40534">
        <ele>103.36</ele>
        <time>2017-04-02T08:45:18Z</time>
      </trkpt>
      <trkpt lat="49.2361" lon="1.4053">
        <ele>106.02</ele>
        <time>2017-04-02T08:45:29Z</time>
      </trkpt>
      <trkpt lat="49.23582" lon="1.40526">
        <ele>106.88</ele>
        <time>2017-04-02T08:45:42Z</time>
      </trkpt>
      <trkpt lat="49.23579" lon="1.40507">
        <ele>104.35</ele>
        <time>2017-04-02T08:45:47Z</time>
      </trkpt>
      <trkpt lat="49.23565" lon="1.40468">
        <ele>101.13</ele>
        <time>2017-04-02T08:45:54Z</time>
      </trkpt>
      <trkpt lat="49.23556" lon="1.40427">
        <ele>97.31</ele>
        <time>2017-04-02T08:46:00Z</time>
      </trkpt>
      <trkpt lat="49.23553" lon="1.40407">
        <ele>95.19</ele>
        <time>2017-04-02T08:46:05Z</time>
      </trkpt>
      <trkpt lat="49.23551" lon="1.40392">
        <ele>93.75</ele>
        <time>2017-04-02T08:46:09Z</time>
      </trkpt>
      <trkpt lat="49.2356" lon="1.40384">
        <ele>91.77</ele>
        <time>2017-04-02T08:46:14Z</time>
      </trkpt>
      <trkpt lat="49.23565" lon="1.40386">
        <ele>90.74</ele>
        <time>2017-04-02T08:46:16Z</time>
      </trkpt>
      <trkpt lat="49.23572" lon="1.40398">
        <ele>89.11</ele>
        <time>2017-04-02T08:46:20Z</time>
      </trkpt>
      <trkpt lat="49.2358" lon="1.40398">
        <ele>86.43</ele>
        <time>2017-04-02T08:46:24Z</time>
      </trkpt>
      <trkpt lat="49.23587" lon="1.40402">
        <ele>82.23</ele>
        <time>2017-04-02T08:46:29Z</time>
      </trkpt>
      <trkpt lat="49.23596" lon="1.40409">
        <ele>80.9</ele>
        <time>2017-04-02T08:46:33Z</time>
      </trkpt>
      <trkpt lat="49.23606" lon="1.404">
        <ele>76.97</ele>
        <time>2017-04-02T08:46:37Z</time>
      </trkpt>
      <trkpt lat="49.2361" lon="1.40387">
        <ele>73.07</ele>
        <time>2017-04-02T08:46:40Z</time>
      </trkpt>
      <trkpt lat="49.2361" lon="1.40384">
        <ele>71.71</ele>
        <time>2017-04-02T08:46:41Z</time>
      </trkpt>
      <trkpt lat="49.23607" lon="1.40369">
        <ele>68.18</ele>
        <time>2017-04-02T08:46:45Z</time>
      </trkpt>
      <trkpt lat="49.23604" lon="1.40361">
        <ele>66.85</ele>
        <time>2017-04-02T08:46:48Z</time>
      </trkpt>
      <trkpt lat="49.23607" lon="1.40337">
        <ele>63.58</ele>
        <time>2017-04-02T08:46:57Z</time>
      </trkpt>
      <trkpt lat="49.23614" lon="1.4034">
        <ele>61.6</ele>
        <time>2017-04-02T08:46:59Z</time>
      </trkpt>
      <trkpt lat="49.23626" lon="1.40339">
        <ele>57.46</ele>
        <time>2017-04-02T08:47:04Z</time>
      </trkpt>
      <trkpt lat="49.23634" lon="1.40348">
        <ele>57.25</ele>
        <time>2017-04-02T08:47:11Z</time>
      </trkpt>
      <trkpt lat="49.23656" lon="1.40361">
        <ele>56.61</ele>
        <time>2017-04-02T08:47:21Z</time>
      </trkpt>
      <trkpt lat="49.23663" lon="1.40368">
        <ele>57.1</ele>
        <time>2017-04-02T08:47:25Z</time>
      </trkpt>
      <trkpt lat="49.23672" lon="1.40382">
        <ele>59.3</ele>
        <time>2017-04-02T08:47:33Z</time>
      </trkpt>
      <trkpt lat="49.23674" lon="1.40386">
        <ele>60.1</ele>
        <time>2017-04-02T08:47:35Z</time>
      </trkpt>
      <trkpt lat="49.23684" lon="1.40406">
        <ele>63.71</ele>
        <time>2017-04-02T08:47:46Z</time>
      </trkpt>
      <trkpt lat="49.23689" lon="1.40415">
        <ele>65.69</ele>
        <time>2017-04-02T08:47:52Z</time>
      </trkpt>
      <trkpt lat="49.23688" lon="1.40421">
        <ele>67.26</ele>
        <time>2017-04-02T08:47:56Z</time>
      </trkpt>
      <trkpt lat="49.23681" lon="1.4043">
        <ele>69.28</ele>
        <time>2017-04-02T08:48:04Z</time>
      </trkpt>
      <trkpt lat="49.23679" lon="1.40429">
        <ele>71.72</ele>
        <time>2017-04-02T08:48:16Z</time>
      </trkpt>
      <trkpt lat="49.23677" lon="1.40443">
        <ele>74.11</ele>
        <time>2017-04-02T08:48:29Z</time>
      </trkpt>
      <trkpt lat="49.23695" lon="1.40453">
        <ele>74.37</ele>
        <time>2017-04-02T08:48:41Z</time>
      </trkpt>
      <trkpt lat="49.23708" lon="1.4045">
        <ele>76.36</ele>
        <time>2017-04-02T08:48:51Z</time>
      </trkpt>
      <trkpt lat="49.23724" lon="1.40438">
        <ele>79.15</ele>
        <time>2017-04-02T08:48:59Z</time>
      </trkpt>
      <trkpt lat="49.23724" lon="1.40415">
        <ele>78.31</ele>
        <time>2017-04-02T08:49:06Z</time>
      </trkpt>
      <trkpt lat="49.23726" lon="1.40378">
        <ele>74.06</ele>
        <time>2017-04-02T08:49:12Z</time>
      </trkpt>
      <trkpt lat="49.23738" lon="1.40356">
        <ele>69.31</ele>
        <time>2017-04-02T08:49:16Z</time>
      </trkpt>
      <trkpt lat="49.23748" lon="1.40343">
        <ele>66.96</ele>
        <time>2017-04-02T08:49:19Z</time>
      </trkpt>
      <trkpt lat="49.23761" lon="1.40341">
        <ele>67.02</ele>
        <time>2017-04-02T08:49:30Z</time>
      </trkpt>
      <trkpt lat="49.23765" lon="1.40341">
        <ele>67.66</ele>
        <time>2017-04-02T08:49:47Z</time>
      </trkpt>
      <trkpt lat="49.23772" lon="1.40351">
        <ele>70.76</ele>
        <time>2017-04-02T08:50:05Z</time>
      </trkpt>
      <trkpt lat="49.23783" lon="1.40354">
        <ele>72.75</ele>
        <time>2017-04-02T08:50:23Z</time>
      </trkpt>
      <trkpt lat="49.23783" lon="1.40346">
        <ele>74.36</ele>
        <time>2017-04-02T08:50:42Z</time>
      </trkpt>
      <trkpt lat="49.2378" lon="1.40343">
        <ele>74.42</ele>
        <time>2017-04-02T08:50:47Z</time>
      </trkpt>
      <trkpt lat="49.23799" lon="1.40333">
        <ele>76.29</ele>
        <time>2017-04-02T08:50:59Z</time>
      </trkpt>
      <trkpt lat="49.23807" lon="1.40332">
        <ele>76.26</ele>
        <time>2017-04-02T08:51:03Z</time>
      </trkpt>
      <trkpt lat="49.2383" lon="1.40307">
        <ele>74.9</ele>
        <time>2017-04-02T08:51:13Z</time>
      </trkpt>
      <trkpt lat="49.23835" lon="1.40294">
        <ele>73.99</ele>
        <time>2017-04-02T08:51:15Z</time>
      </trkpt>
      <trkpt lat="49.23843" lon="1.40271">
        <ele>71.12</ele>
        <time>2017-04-02T08:51:18Z</time>
      </trkpt>
      <trkpt lat="49.2385" lon="1.40252">
        <ele>69.93</ele>
        <time>2017-04-02T08:51:25Z</time>
      </trkpt>
      <trkpt lat="49.23861" lon="1.4025">
        <ele>66.67</ele>
        <time>2017-04-02T08:51:29Z</time>
      </trkpt>
      <trkpt lat="49.23863" lon="1.40246">
        <ele>66.15</ele>
        <time>2017-04-02T08:51:30Z</time>
      </trkpt>
      <trkpt lat="49.23866" lon="1.4024">
        <ele>65.21</ele>
        <time>2017-04-02T08:51:32Z</time>
      </trkpt>
      <trkpt lat="49.23878" lon="1.40243">
        <ele>60.99</ele>
        <time>2017-04-02T08:51:37Z</time>
      </trkpt>
      <trkpt lat="49.23881" lon="1.40255">
        <ele>59.47</ele>
        <time>2017-04-02T08:51:41Z</time>
      </trkpt>
      <trkpt lat="49.23884" lon="1.40268">
        <ele>57.98</ele>
        <time>2017-04-02T08:51:43Z</time>
      </trkpt>
      <trkpt lat="49.23895" lon="1.40271">
        <ele>55.52</ele>
        <time>2017-04-02T08:51:47Z</time>
      </trkpt>
      <trkpt lat="49.2391" lon="1.40256">
        <ele>51.26</ele>
        <time>2017-04-02T08:51:52Z</time>
      </trkpt>
      <trkpt lat="49.23916" lon="1.4025">
        <ele>49.56</ele>
        <time>2017-04-02T08:51:54Z</time>
      </trkpt>
      <trkpt lat="49.23928" lon="1.40233">
        <ele>44.63</ele>
        <time>2017-04-02T08:51:58Z</time>
      </trkpt>
      <trkpt lat="49.23938" lon="1.40223">
        <ele>41.58</ele>
        <time>2017-04-02T08:52:01Z</time>
      </trkpt>
      <trkpt lat="49.23945" lon="1.40207">
        <ele>36.36</ele>
        <time>2017-04-02T08:52:05Z</time>
      </trkpt>
      <trkpt lat="49.23945" lon="1.40193">
        <ele>32.83</ele>
        <time>2017-04-02T08:52:08Z</time>
      </trkpt>
      <trkpt lat="49.23945" lon="1.40187">
        <ele>31.25</ele>
        <time>2017-04-02T08:52:10Z</time>
      </trkpt>
      <trkpt lat="49.2395" lon="1.40189">
        <ele>28.37</ele>
        <time>2017-04-02T08:52:14Z</time>
      </trkpt>
      <trkpt lat="49.23966" lon="1.40221">
        <ele>24.62</ele>
        <time>2017-04-02T08:52:20Z</time>
      </trkpt>
      <trkpt lat="49.23966" lon="1.40242">
        <ele>22.25</ele>
        <time>2017-04-02T08:52:25Z</time>
      </trkpt>
      <trkpt lat="49.23985" lon="1.40213">
        <ele>18.37</ele>
        <time>2017-04-02T08:52:32Z</time>
      </trkpt>
      <trkpt lat="49.24008" lon="1.40176">
        <ele>13.44</ele>
        <time>2017-04-02T08:52:38Z</time>
      </trkpt>
      <trkpt lat="49.24021" lon="1.40157">
        <ele>10.04</ele>
        <time>2017-04-02T08:52:41Z</time>
      </trkpt>
      <trkpt lat="49.2403" lon="1.40146">
        <ele>8.32</ele>
        <time>2017-04-02T08:52:44Z</time>
      </trkpt>
      <trkpt lat="49.24053" lon="1.4012">
        <ele>6.7</ele>
        <time>2017-04-02T08:52:50Z</time>
      </trkpt>
      <trkpt lat="49.24075" lon="1.401">
        <ele>4.44</ele>
        <time>2017-04-02T08:52:54Z</time>
      </trkpt>
      <trkpt lat="49.24088" lon="1.40081">
        <ele>0.27</ele>
        <time>2017-04-02T08:52:58Z</time>
      </trkpt>
      <trkpt lat="49.24096" lon="1.40064">
        <ele>-2.16</ele>
        <time>2017-04-02T08:53:02Z</time>
      </trkpt>
      <trkpt lat="49.24098" lon="1.40059">
        <ele>-2.2</ele>
        <time>2017-04-02T08:53:03Z</time>
      </trkpt>
      <trkpt lat="49.24105" lon="1.40043">
        <ele>-2.4</ele>
        <time>2017-04-02T08:53:06Z</time>
      </trkpt>
      <trkpt lat="49.241" lon="1.40012">
        <ele>-3.7</ele>
        <time>2017-04-02T08:53:11Z</time>
      </trkpt>
      <trkpt lat="49.24095" lon="1.4">
        <ele>-3.53</ele>
        <time>2017-04-02T08:53:13Z</time>
      </trkpt>
      <trkpt lat="49.24092" lon="1.39981">
        <ele>-5.34</ele>
        <time>2017-04-02T08:53:17Z</time>
      </trkpt>
      <trkpt lat="49.241" lon="1.39971">
        <ele>-5.23</ele>
        <time>2017-04-02T08:53:20Z</time>
      </trkpt>
      <trkpt lat="49.24151" lon="1.3993">
        <ele>-4.53</ele>
        <time>2017-04-02T08:53:36Z</time>
      </trkpt>
      <trkpt lat="49.24191" lon="1.39894">
        <ele>-5.43</ele>
        <time>2017-04-02T08:53:49Z</time>
      </trkpt>
      <trkpt lat="49.24231" lon="1.39863">
        <ele>-5.29</ele>
        <time>2017-04-02T08:54:03Z</time>
      </trkpt>
      <trkpt lat="49.24278" lon="1.39829">
        <ele>-5.13</ele>
        <time>2017-04-02T08:54:17Z</time>
      </trkpt>
      <trkpt lat="49.24311" lon="1.39813">
        <ele>-5.28</ele>
        <time>2017-04-02T08:54:25Z</time>
      </trkpt>
      <trkpt lat="49.24339" lon="1.39802">
        <ele>-5.35</ele>
        <time>2017-04-02T08:54:32Z</time>
      </trkpt>
      <trkpt lat="49.24368" lon="1.39786">
        <ele>-4.78</ele>
        <time>2017-04-02T08:54:39Z</time>
      </trkpt>
      <trkpt lat="49.24381" lon="1.39782">
        <ele>-4.39</ele>
        <time>2017-04-02T08:54:42Z</time>
      </trkpt>
      <trkpt lat="49.24389" lon="1.39778">
        <ele>-3.97</ele>
        <time>2017-04-02T08:54:44Z</time>
      </trkpt>
      <trkpt lat="49.24401" lon="1.39767">
        <ele>-3.95</ele>
        <time>2017-04-02T08:54:47Z</time>
      </trkpt>
      <trkpt lat="49.24415" lon="1.39748">
        <ele>-3.84</ele>
        <time>2017-04-02T08:54:51Z</time>
      </trkpt>
      <trkpt lat="49.2446" lon="1.39674">
        <ele>-4.5</ele>
        <time>2017-04-02T08:55:05Z</time>
      </trkpt>
      <trkpt lat="49.24483" lon="1.39624">
        <ele>-4.73</ele>
        <time>2017-04-02T08:55:13Z</time>
      </trkpt>
      <trkpt lat="49.245" lon="1.39598">
        <ele>-4.65</ele>
        <time>2017-04-02T08:55:18Z</time>
      </trkpt>
      <trkpt lat="49.24523" lon="1.39589">
        <ele>-4.4</ele>
        <time>2017-04-02T08:55:23Z</time>
      </trkpt>
      <trkpt lat="49.24536" lon="1.39574">
        <ele>-4.36</ele>
        <time>2017-04-02T08:55:27Z</time>
      </trkpt>
      <trkpt lat="49.24541" lon="1.39567">
        <ele>-4.02</ele>
        <time>2017-04-02T08:55:29Z</time>
      </trkpt>
      <trkpt lat="49.24552" lon="1.39574">
        <ele>-3.76</ele>
        <time>2017-04-02T08:55:33Z</time>
      </trkpt>
      <trkpt lat="49.24591" lon="1.39636">
        <ele>-0.71</ele>
        <time>2017-04-02T08:55:48Z</time>
      </trkpt>
      <trkpt lat="49.24578" lon="1.39665">
        <ele>-0.38</ele>
        <time>2017-04-02T08:55:54Z</time>
      </trkpt>
      <trkpt lat="49.24571" lon="1.39684">
        <ele>-0.42</ele>
        <time>2017-04-02T08:55:57Z</time>
      </trkpt>
      <trkpt lat="49.24568" lon="1.39722">
        <ele>-0.36</ele>
        <time>2017-04-02T08:56:02Z</time>
      </trkpt>
      <trkpt lat="49.24571" lon="1.39751">
        <ele>-0.02</ele>
        <time>2017-04-02T08:56:06Z</time>
      </trkpt>
      <trkpt lat="49.24593" lon="1.39865">
        <ele>-1.4</ele>
        <time>2017-04-02T08:56:20Z</time>
      </trkpt>
      <trkpt lat="49.24599" lon="1.39891">
        <ele>-1.5</ele>
        <time>2017-04-02T08:56:23Z</time>
      </trkpt>
      <trkpt lat="49.24605" lon="1.39934">
        <ele>-1.12</ele>
        <time>2017-04-02T08:56:30Z</time>
      </trkpt>
      <trkpt lat="49.24609" lon="1.39938">
        <ele>0.2</ele>
        <time>2017-04-02T08:56:38Z</time>
      </trkpt>
      <trkpt lat="49.24608" lon="1.3996">
        <ele>1.32</ele>
        <time>2017-04-02T08:56:53Z</time>
      </trkpt>
      <trkpt lat="49.2461" lon="1.39972">
        <ele>2.02</ele>
        <time>2017-04-02T08:56:57Z</time>
      </trkpt>
      <trkpt lat="49.24617" lon="1.40017">
        <ele>4.82</ele>
        <time>2017-04-02T08:57:10Z</time>
      </trkpt>
      <trkpt lat="49.24618" lon="1.40053">
        <ele>6.51</ele>
        <time>2017-04-02T08:57:21Z</time>
      </trkpt>
      <trkpt lat="49.24625" lon="1.40089">
        <ele>8.99</ele>
        <time>2017-04-02T08:57:32Z</time>
      </trkpt>
      <trkpt lat="49.2464" lon="1.40114">
        <ele>12.01</ele>
        <time>2017-04-02T08:57:42Z</time>
      </trkpt>
      <trkpt lat="49.24653" lon="1.4013">
        <ele>15.37</ele>
        <time>2017-04-02T08:57:52Z</time>
      </trkpt>
      <trkpt lat="49.24668" lon="1.40157">
        <ele>18.45</ele>
        <time>2017-04-02T08:58:03Z</time>
      </trkpt>
      <trkpt lat="49.24675" lon="1.40196">
        <ele>21.01</ele>
        <time>2017-04-02T08:58:15Z</time>
      </trkpt>
      <trkpt lat="49.24689" lon="1.4023">
        <ele>24.21</ele>
        <time>2017-04-02T08:58:28Z</time>
      </trkpt>
      <trkpt lat="49.24697" lon="1.4026">
        <ele>26.19</ele>
        <time>2017-04-02T08:58:38Z</time>
      </trkpt>
      <trkpt lat="49.24717" lon="1.40291">
        <ele>29.18</ele>
        <time>2017-04-02T08:58:52Z</time>
      </trkpt>
      <trkpt lat="49.24737" lon="1.4031">
        <ele>32.26</ele>
        <time>2017-04-02T08:59:05Z</time>
      </trkpt>
      <trkpt lat="49.24753" lon="1.40331">
        <ele>35.37</ele>
        <time>2017-04-02T08:59:18Z</time>
      </trkpt>
      <trkpt lat="49.2476" lon="1.40338">
        <ele>36.72</ele>
        <time>2017-04-02T08:59:24Z</time>
      </trkpt>
      <trkpt lat="49.24764" lon="1.40344">
        <ele>38.17</ele>
        <time>2017-04-02T08:59:28Z</time>
      </trkpt>
      <trkpt lat="49.24782" lon="1.40365">
        <ele>41.57</ele>
        <time>2017-04-02T08:59:43Z</time>
      </trkpt>
      <trkpt lat="49.24797" lon="1.40385">
        <ele>44.86</ele>
        <time>2017-04-02T08:59:55Z</time>
      </trkpt>
      <trkpt lat="49.24809" lon="1.40397">
        <ele>48.22</ele>
        <time>2017-04-02T09:00:06Z</time>
      </trkpt>
      <trkpt lat="49.2482" lon="1.40411">
        <ele>51.31</ele>
        <time>2017-04-02T09:00:15Z</time>
      </trkpt>
      <trkpt lat="49.24831" lon="1.40427">
        <ele>54.38</ele>
        <time>2017-04-02T09:00:26Z</time>
      </trkpt>
      <trkpt lat="49.24837" lon="1.40429">
        <ele>55.39</ele>
        <time>2017-04-02T09:00:30Z</time>
      </trkpt>
      <trkpt lat="49.2485" lon="1.40417">
        <ele>58.76</ele>
        <time>2017-04-02T09:00:41Z</time>
      </trkpt>
      <trkpt lat="49.24866" lon="1.40405">
        <ele>62.01</ele>
        <time>2017-04-02T09:00:53Z</time>
      </trkpt>
      <trkpt lat="49.24877" lon="1.4039">
        <ele>65.15</ele>
        <time>2017-04-02T09:01:04Z</time>
      </trkpt>
      <trkpt lat="49.24886" lon="1.40377">
        <ele>67.5</ele>
        <time>2017-04-02T09:01:13Z</time>
      </trkpt>
      <trkpt lat="49.24889" lon="1.40373">
        <ele>68.59</ele>
        <time>2017-04-02T09:01:17Z</time>
      </trkpt>
      <trkpt lat="49.24898" lon="1.40363">
        <ele>70.53</ele>
        <time>2017-04-02T09:01:24Z</time>
      </trkpt>
      <trkpt lat="49.24909" lon="1.40341">
        <ele>74.06</ele>
        <time>2017-04-02T09:01:37Z</time>
      </trkpt>
      <trkpt lat="49.24916" lon="1.4032">
        <ele>77.47</ele>
        <time>2017-04-02T09:01:46Z</time>
      </trkpt>
      <trkpt lat="49.2493" lon="1.40292">
        <ele>80.04</ele>
        <time>2017-04-02T09:01:59Z</time>
      </trkpt>
      <trkpt lat="49.24935" lon="1.40262">
        <ele>83.3</ele>
        <time>2017-04-02T09:02:11Z</time>
      </trkpt>
      <trkpt lat="49.24937" lon="1.40229">
        <ele>85.82</ele>
        <time>2017-04-02T09:02:24Z</time>
      </trkpt>
      <trkpt lat="49.24942" lon="1.40189">
        <ele>88.9</ele>
        <time>2017-04-02T09:02:38Z</time>
      </trkpt>
      <trkpt lat="49.24951" lon="1.40152">
        <ele>91.75</ele>
        <time>2017-04-02T09:02:52Z</time>
      </trkpt>
      <trkpt lat="49.2496" lon="1.40122">
        <ele>94.78</ele>
        <time>2017-04-02T09:03:04Z</time>
      </trkpt>
      <trkpt lat="49.24969" lon="1.40094">
        <ele>97.99</ele>
        <time>2017-04-02T09:03:15Z</time>
      </trkpt>
      <trkpt lat="49.24983" lon="1.40067">
        <ele>101.01</ele>
        <time>2017-04-02T09:03:27Z</time>
      </trkpt>
      <trkpt lat="49.24989" lon="1.40052">
        <ele>103.12</ele>
        <time>2017-04-02T09:03:33Z</time>
      </trkpt>
      <trkpt lat="49.25002" lon="1.40023">
        <ele>106.37</ele>
        <time>2017-04-02T09:03:44Z</time>
      </trkpt>
      <trkpt lat="49.25013" lon="1.39993">
        <ele>109.49</ele>
        <time>2017-04-02T09:03:55Z</time>
      </trkpt>
      <trkpt lat="49.25029" lon="1.3996">
        <ele>112.63</ele>
        <time>2017-04-02T09:04:08Z</time>
      </trkpt>
      <trkpt lat="49.25042" lon="1.39935">
        <ele>115.9</ele>
        <time>2017-04-02T09:04:20Z</time>
      </trkpt>
      <trkpt lat="49.25052" lon="1.39918">
        <ele>119.18</ele>
        <time>2017-04-02T09:04:29Z</time>
      </trkpt>
      <trkpt lat="49.25053" lon="1.39916">
        <ele>119.47</ele>
        <time>2017-04-02T09:04:30Z</time>
      </trkpt>
      <trkpt lat="49.25054" lon="1.39912">
        <ele>119.79</ele>
        <time>2017-04-02T09:04:32Z</time>
      </trkpt>
      <trkpt lat="49.2505" lon="1.39902">
        <ele>120.09</ele>
        <time>2017-04-02T09:04:38Z</time>
      </trkpt>
      <trkpt lat="49.25049" lon="1.39895">
        <ele>120.17</ele>
        <time>2017-04-02T09:04:42Z</time>
      </trkpt>
      <trkpt lat="49.25045" lon="1.39885">
        <ele>120.54</ele>
        <time>2017-04-02T09:04:48Z</time>
      </trkpt>
      <trkpt lat="49.25039" lon="1.39865">
        <ele>121.1</ele>
        <time>2017-04-02T09:04:57Z</time>
      </trkpt>
      <trkpt lat="49.25035" lon="1.39853">
        <ele>121.49</ele>
        <time>2017-04-02T09:05:02Z</time>
      </trkpt>
      <trkpt lat="49.25029" lon="1.39817">
        <ele>121.95</ele>
        <time>2017-04-02T09:05:16Z</time>
      </trkpt>
      <trkpt lat="49.25021" lon="1.39779">
        <ele>122.22</ele>
        <time>2017-04-02T09:05:31Z</time>
      </trkpt>
      <trkpt lat="49.25015" lon="1.39755">
        <ele>122.29</ele>
        <time>2017-04-02T09:05:42Z</time>
      </trkpt>
      <trkpt lat="49.25011" lon="1.39741">
        <ele>123.19</ele>
        <time>2017-04-02T09:05:57Z</time>
      </trkpt>
      <trkpt lat="49.25011" lon="1.39743">
        <ele>123.03</ele>
        <time>2017-04-02T09:06:24Z</time>
      </trkpt>
      <trkpt lat="49.25012" lon="1.39744">
        <ele>123.03</ele>
        <time>2017-04-02T09:06:44Z</time>
      </trkpt>
      <trkpt lat="49.25013" lon="1.39744">
        <ele>122.99</ele>
        <time>2017-04-02T09:07:12Z</time>
      </trkpt>
      <trkpt lat="49.25011" lon="1.39743">
        <ele>123.34</ele>
        <time>2017-04-02T09:07:44Z</time>
      </trkpt>
      <trkpt lat="49.25012" lon="1.39743">
        <ele>122.81</ele>
        <time>2017-04-02T09:08:13Z</time>
      </trkpt>
      <trkpt lat="49.25006" lon="1.39722">
        <ele>122.19</ele>
        <time>2017-04-02T09:08:33Z</time>
      </trkpt>
      <trkpt lat="49.24993" lon="1.39648">
        <ele>122.78</ele>
        <time>2017-04-02T09:08:48Z</time>
      </trkpt>
      <trkpt lat="49.24972" lon="1.39537">
        <ele>123.07</ele>
        <time>2017-04-02T09:09:10Z</time>
      </trkpt>
      <trkpt lat="49.24964" lon="1.39474">
        <ele>124.37</ele>
        <time>2017-04-02T09:09:24Z</time>
      </trkpt>
      <trkpt lat="49.2495" lon="1.39415">
        <ele>123.81</ele>
        <time>2017-04-02T09:09:37Z</time>
      </trkpt>
      <trkpt lat="49.24939" lon="1.39373">
        <ele>122.83</ele>
        <time>2017-04-02T09:09:46Z</time>
      </trkpt>
      <trkpt lat="49.24932" lon="1.39365">
        <ele>121.42</ele>
        <time>2017-04-02T09:09:50Z</time>
      </trkpt>
      <trkpt lat="49.24927" lon="1.39342">
        <ele>118.2</ele>
        <time>2017-04-02T09:09:58Z</time>
      </trkpt>
      <trkpt lat="49.24927" lon="1.39331">
        <ele>116.67</ele>
        <time>2017-04-02T09:10:00Z</time>
      </trkpt>
      <trkpt lat="49.24925" lon="1.39301">
        <ele>112.61</ele>
        <time>2017-04-02T09:10:05Z</time>
      </trkpt>
      <trkpt lat="49.24925" lon="1.39296">
        <ele>111.83</ele>
        <time>2017-04-02T09:10:06Z</time>
      </trkpt>
      <trkpt lat="49.24921" lon="1.3927">
        <ele>108.25</ele>
        <time>2017-04-02T09:10:10Z</time>
      </trkpt>
      <trkpt lat="49.24919" lon="1.3924">
        <ele>103.82</ele>
        <time>2017-04-02T09:10:15Z</time>
      </trkpt>
      <trkpt lat="49.24919" lon="1.3923">
        <ele>103.17</ele>
        <time>2017-04-02T09:10:17Z</time>
      </trkpt>
      <trkpt lat="49.24923" lon="1.39193">
        <ele>103.41</ele>
        <time>2017-04-02T09:10:26Z</time>
      </trkpt>
      <trkpt lat="49.24924" lon="1.39164">
        <ele>100.27</ele>
        <time>2017-04-02T09:10:32Z</time>
      </trkpt>
      <trkpt lat="49.24922" lon="1.39133">
        <ele>96.66</ele>
        <time>2017-04-02T09:10:40Z</time>
      </trkpt>
      <trkpt lat="49.24916" lon="1.39114">
        <ele>91.94</ele>
        <time>2017-04-02T09:10:46Z</time>
      </trkpt>
      <trkpt lat="49.24914" lon="1.39101">
        <ele>88.87</ele>
        <time>2017-04-02T09:10:53Z</time>
      </trkpt>
      <trkpt lat="49.24915" lon="1.39087">
        <ele>85.51</ele>
        <time>2017-04-02T09:11:07Z</time>
      </trkpt>
      <trkpt lat="49.24916" lon="1.39077">
        <ele>82.41</ele>
        <time>2017-04-02T09:11:15Z</time>
      </trkpt>
      <trkpt lat="49.24918" lon="1.39069">
        <ele>79.27</ele>
        <time>2017-04-02T09:11:26Z</time>
      </trkpt>
      <trkpt lat="49.2492" lon="1.39064">
        <ele>76.03</ele>
        <time>2017-04-02T09:11:34Z</time>
      </trkpt>
      <trkpt lat="49.24926" lon="1.39069">
        <ele>73.02</ele>
        <time>2017-04-02T09:11:54Z</time>
      </trkpt>
      <trkpt lat="49.24934" lon="1.39069">
        <ele>70.16</ele>
        <time>2017-04-02T09:12:08Z</time>
      </trkpt>
      <trkpt lat="49.24947" lon="1.39078">
        <ele>68.41</ele>
        <time>2017-04-02T09:12:14Z</time>
      </trkpt>
      <trkpt lat="49.24963" lon="1.39083">
        <ele>64.89</ele>
        <time>2017-04-02T09:12:21Z</time>
      </trkpt>
      <trkpt lat="49.24968" lon="1.39086">
        <ele>63.2</ele>
        <time>2017-04-02T09:12:24Z</time>
      </trkpt>
      <trkpt lat="49.24976" lon="1.39086">
        <ele>59.97</ele>
        <time>2017-04-02T09:12:30Z</time>
      </trkpt>
      <trkpt lat="49.24982" lon="1.39088">
        <ele>56.29</ele>
        <time>2017-04-02T09:12:34Z</time>
      </trkpt>
      <trkpt lat="49.2499" lon="1.39095">
        <ele>52.46</ele>
        <time>2017-04-02T09:12:49Z</time>
      </trkpt>
      <trkpt lat="49.24991" lon="1.39092">
        <ele>50.32</ele>
        <time>2017-04-02T09:13:07Z</time>
      </trkpt>
      <trkpt lat="49.24995" lon="1.39089">
        <ele>50.46</ele>
        <time>2017-04-02T09:13:37Z</time>
      </trkpt>
      <trkpt lat="49.24996" lon="1.39081">
        <ele>49.04</ele>
        <time>2017-04-02T09:13:45Z</time>
      </trkpt>
      <trkpt lat="49.24998" lon="1.3907">
        <ele>45.34</ele>
        <time>2017-04-02T09:13:56Z</time>
      </trkpt>
      <trkpt lat="49.24998" lon="1.39069">
        <ele>42.14</ele>
        <time>2017-04-02T09:14:02Z</time>
      </trkpt>
      <trkpt lat="49.25002" lon="1.39065">
        <ele>38.53</ele>
        <time>2017-04-02T09:14:09Z</time>
      </trkpt>
      <trkpt lat="49.25009" lon="1.39059">
        <ele>35.52</ele>
        <time>2017-04-02T09:14:19Z</time>
      </trkpt>
      <trkpt lat="49.2501" lon="1.39058">
        <ele>35.2</ele>
        <time>2017-04-02T09:14:20Z</time>
      </trkpt>
      <trkpt lat="49.2502" lon="1.39042">
        <ele>31.82</ele>
        <time>2017-04-02T09:14:26Z</time>
      </trkpt>
      <trkpt lat="49.25021" lon="1.39039">
        <ele>31.53</ele>
        <time>2017-04-02T09:14:27Z</time>
      </trkpt>
      <trkpt lat="49.25023" lon="1.39037">
        <ele>31</ele>
        <time>2017-04-02T09:14:35Z</time>
      </trkpt>
      <trkpt lat="49.25029" lon="1.39037">
        <ele>33.2</ele>
        <time>2017-04-02T09:14:59Z</time>
      </trkpt>
      <trkpt lat="49.25034" lon="1.39039">
        <ele>34.52</ele>
        <time>2017-04-02T09:15:24Z</time>
      </trkpt>
      <trkpt lat="49.25039" lon="1.39033">
        <ele>37.56</ele>
        <time>2017-04-02T09:15:36Z</time>
      </trkpt>
      <trkpt lat="49.25042" lon="1.39022">
        <ele>40.67</ele>
        <time>2017-04-02T09:15:54Z</time>
      </trkpt>
      <trkpt lat="49.25045" lon="1.39018">
        <ele>43.98</ele>
        <time>2017-04-02T09:16:08Z</time>
      </trkpt>
      <trkpt lat="49.25049" lon="1.39016">
        <ele>47.17</ele>
        <time>2017-04-02T09:16:19Z</time>
      </trkpt>
      <trkpt lat="49.25053" lon="1.39004">
        <ele>50.3</ele>
        <time>2017-04-02T09:16:34Z</time>
      </trkpt>
      <trkpt lat="49.25054" lon="1.38997">
        <ele>53.41</ele>
        <time>2017-04-02T09:16:55Z</time>
      </trkpt>
      <trkpt lat="49.25058" lon="1.38988">
        <ele>54.02</ele>
        <time>2017-04-02T09:17:15Z</time>
      </trkpt>
      <trkpt lat="49.2507" lon="1.38949">
        <ele>51.11</ele>
        <time>2017-04-02T09:17:25Z</time>
      </trkpt>
      <trkpt lat="49.25071" lon="1.38935">
        <ele>53.88</ele>
        <time>2017-04-02T09:17:37Z</time>
      </trkpt>
      <trkpt lat="49.25073" lon="1.38921">
        <ele>56.92</ele>
        <time>2017-04-02T09:17:51Z</time>
      </trkpt>
      <trkpt lat="49.25074" lon="1.38912">
        <ele>60.09</ele>
        <time>2017-04-02T09:18:03Z</time>
      </trkpt>
      <trkpt lat="49.25071" lon="1.38902">
        <ele>63.22</ele>
        <time>2017-04-02T09:18:18Z</time>
      </trkpt>
      <trkpt lat="49.25064" lon="1.38893">
        <ele>65.59</ele>
        <time>2017-04-02T09:18:40Z</time>
      </trkpt>
      <trkpt lat="49.25065" lon="1.38894">
        <ele>65.24</ele>
        <time>2017-04-02T09:19:03Z</time>
      </trkpt>
      <trkpt lat="49.25068" lon="1.38886">
        <ele>64.77</ele>
        <time>2017-04-02T09:19:32Z</time>
      </trkpt>
      <trkpt lat="49.25075" lon="1.38859">
        <ele>61.32</ele>
        <time>2017-04-02T09:19:42Z</time>
      </trkpt>
      <trkpt lat="49.25079" lon="1.38833">
        <ele>58.43</ele>
        <time>2017-04-02T09:19:51Z</time>
      </trkpt>
      <trkpt lat="49.25079" lon="1.38826">
        <ele>59.04</ele>
        <time>2017-04-02T09:19:55Z</time>
      </trkpt>
      <trkpt lat="49.25078" lon="1.38823">
        <ele>59.74</ele>
        <time>2017-04-02T09:19:57Z</time>
      </trkpt>
      <trkpt lat="49.25079" lon="1.38819">
        <ele>60.42</ele>
        <time>2017-04-02T09:19:59Z</time>
      </trkpt>
      <trkpt lat="49.25079" lon="1.38811">
        <ele>62.31</ele>
        <time>2017-04-02T09:20:03Z</time>
      </trkpt>
      <trkpt lat="49.25083" lon="1.38796">
        <ele>65.93</ele>
        <time>2017-04-02T09:20:14Z</time>
      </trkpt>
      <trkpt lat="49.25086" lon="1.38787">
        <ele>69.05</ele>
        <time>2017-04-02T09:20:26Z</time>
      </trkpt>
      <trkpt lat="49.25086" lon="1.38779">
        <ele>72.2</ele>
        <time>2017-04-02T09:20:40Z</time>
      </trkpt>
      <trkpt lat="49.25084" lon="1.38769">
        <ele>75.21</ele>
        <time>2017-04-02T09:20:56Z</time>
      </trkpt>
      <trkpt lat="49.25083" lon="1.38758">
        <ele>78.27</ele>
        <time>2017-04-02T09:21:14Z</time>
      </trkpt>
      <trkpt lat="49.25081" lon="1.38748">
        <ele>81.27</ele>
        <time>2017-04-02T09:21:28Z</time>
      </trkpt>
      <trkpt lat="49.2508" lon="1.38739">
        <ele>83.99</ele>
        <time>2017-04-02T09:21:49Z</time>
      </trkpt>
      <trkpt lat="49.25083" lon="1.38728">
        <ele>82.3</ele>
        <time>2017-04-02T09:22:08Z</time>
      </trkpt>
      <trkpt lat="49.25087" lon="1.38727">
        <ele>82.99</ele>
        <time>2017-04-02T09:22:36Z</time>
      </trkpt>
      <trkpt lat="49.2509" lon="1.38732">
        <ele>82.5</ele>
        <time>2017-04-02T09:22:49Z</time>
      </trkpt>
      <trkpt lat="49.25109" lon="1.38756">
        <ele>84.9</ele>
        <time>2017-04-02T09:23:06Z</time>
      </trkpt>
      <trkpt lat="49.25111" lon="1.38757">
        <ele>85.05</ele>
        <time>2017-04-02T09:23:07Z</time>
      </trkpt>
      <trkpt lat="49.25122" lon="1.38762">
        <ele>86.04</ele>
        <time>2017-04-02T09:23:15Z</time>
      </trkpt>
      <trkpt lat="49.25129" lon="1.3877">
        <ele>87.3</ele>
        <time>2017-04-02T09:23:21Z</time>
      </trkpt>
      <trkpt lat="49.25139" lon="1.38778">
        <ele>88.89</ele>
        <time>2017-04-02T09:23:28Z</time>
      </trkpt>
      <trkpt lat="49.25159" lon="1.38783">
        <ele>90.82</ele>
        <time>2017-04-02T09:23:40Z</time>
      </trkpt>
      <trkpt lat="49.25161" lon="1.38786">
        <ele>91.58</ele>
        <time>2017-04-02T09:23:43Z</time>
      </trkpt>
      <trkpt lat="49.25166" lon="1.38799">
        <ele>91.45</ele>
        <time>2017-04-02T09:23:50Z</time>
      </trkpt>
      <trkpt lat="49.25171" lon="1.38804">
        <ele>92.61</ele>
        <time>2017-04-02T09:23:54Z</time>
      </trkpt>
      <trkpt lat="49.2518" lon="1.38828">
        <ele>96.04</ele>
        <time>2017-04-02T09:24:06Z</time>
      </trkpt>
      <trkpt lat="49.25183" lon="1.38835">
        <ele>97.36</ele>
        <time>2017-04-02T09:24:10Z</time>
      </trkpt>
      <trkpt lat="49.25185" lon="1.38852">
        <ele>100.03</ele>
        <time>2017-04-02T09:24:21Z</time>
      </trkpt>
      <trkpt lat="49.25191" lon="1.38861">
        <ele>103.04</ele>
        <time>2017-04-02T09:24:34Z</time>
      </trkpt>
      <trkpt lat="49.25198" lon="1.38868">
        <ele>106.15</ele>
        <time>2017-04-02T09:24:48Z</time>
      </trkpt>
      <trkpt lat="49.25205" lon="1.38866">
        <ele>109.31</ele>
        <time>2017-04-02T09:25:01Z</time>
      </trkpt>
      <trkpt lat="49.25212" lon="1.38858">
        <ele>112.47</ele>
        <time>2017-04-02T09:25:17Z</time>
      </trkpt>
      <trkpt lat="49.25222" lon="1.3885">
        <ele>115.5</ele>
        <time>2017-04-02T09:25:31Z</time>
      </trkpt>
      <trkpt lat="49.25226" lon="1.38846">
        <ele>115.73</ele>
        <time>2017-04-02T09:25:37Z</time>
      </trkpt>
      <trkpt lat="49.25235" lon="1.38834">
        <ele>117.76</ele>
        <time>2017-04-02T09:25:46Z</time>
      </trkpt>
      <trkpt lat="49.25245" lon="1.38837">
        <ele>120.97</ele>
        <time>2017-04-02T09:25:54Z</time>
      </trkpt>
      <trkpt lat="49.25266" lon="1.38831">
        <ele>120.99</ele>
        <time>2017-04-02T09:26:06Z</time>
      </trkpt>
      <trkpt lat="49.25276" lon="1.38825">
        <ele>120.7</ele>
        <time>2017-04-02T09:26:17Z</time>
      </trkpt>
      <trkpt lat="49.25283" lon="1.38815">
        <ele>120.67</ele>
        <time>2017-04-02T09:26:40Z</time>
      </trkpt>
      <trkpt lat="49.25301" lon="1.38777">
        <ele>118.42</ele>
        <time>2017-04-02T09:26:52Z</time>
      </trkpt>
      <trkpt lat="49.25304" lon="1.3874">
        <ele>115.13</ele>
        <time>2017-04-02T09:27:02Z</time>
      </trkpt>
      <trkpt lat="49.25307" lon="1.38722">
        <ele>115.12</ele>
        <time>2017-04-02T09:27:07Z</time>
      </trkpt>
      <trkpt lat="49.25314" lon="1.38701">
        <ele>114.47</ele>
        <time>2017-04-02T09:27:12Z</time>
      </trkpt>
      <trkpt lat="49.25309" lon="1.38676">
        <ele>109.54</ele>
        <time>2017-04-02T09:27:16Z</time>
      </trkpt>
      <trkpt lat="49.25306" lon="1.38666">
        <ele>106.06</ele>
        <time>2017-04-02T09:27:18Z</time>
      </trkpt>
      <trkpt lat="49.25302" lon="1.38651">
        <ele>103.19</ele>
        <time>2017-04-02T09:27:20Z</time>
      </trkpt>
      <trkpt lat="49.25295" lon="1.38636">
        <ele>101.04</ele>
        <time>2017-04-02T09:27:22Z</time>
      </trkpt>
      <trkpt lat="49.25281" lon="1.38612">
        <ele>97.77</ele>
        <time>2017-04-02T09:27:26Z</time>
      </trkpt>
      <trkpt lat="49.25279" lon="1.38604">
        <ele>96.71</ele>
        <time>2017-04-02T09:27:28Z</time>
      </trkpt>
      <trkpt lat="49.25277" lon="1.38589">
        <ele>94.37</ele>
        <time>2017-04-02T09:27:31Z</time>
      </trkpt>
      <trkpt lat="49.25273" lon="1.38574">
        <ele>92.65</ele>
        <time>2017-04-02T09:27:33Z</time>
      </trkpt>
      <trkpt lat="49.25271" lon="1.38519">
        <ele>88.78</ele>
        <time>2017-04-02T09:27:42Z</time>
      </trkpt>
      <trkpt lat="49.25271" lon="1.38485">
        <ele>86.05</ele>
        <time>2017-04-02T09:27:45Z</time>
      </trkpt>
      <trkpt lat="49.25269" lon="1.38453">
        <ele>89.09</ele>
        <time>2017-04-02T09:27:51Z</time>
      </trkpt>
      <trkpt lat="49.25267" lon="1.38428">
        <ele>90.12</ele>
        <time>2017-04-02T09:27:57Z</time>
      </trkpt>
      <trkpt lat="49.25268" lon="1.38418">
        <ele>90.4</ele>
        <time>2017-04-02T09:28:00Z</time>
      </trkpt>
      <trkpt lat="49.25279" lon="1.38404">
        <ele>90.83</ele>
        <time>2017-04-02T09:28:06Z</time>
      </trkpt>
      <trkpt lat="49.25284" lon="1.38387">
        <ele>89.9</ele>
        <time>2017-04-02T09:28:10Z</time>
      </trkpt>
      <trkpt lat="49.25286" lon="1.38352">
        <ele>91.99</ele>
        <time>2017-04-02T09:28:22Z</time>
      </trkpt>
      <trkpt lat="49.25283" lon="1.38327">
        <ele>93.71</ele>
        <time>2017-04-02T09:28:33Z</time>
      </trkpt>
      <trkpt lat="49.25289" lon="1.38312">
        <ele>93.6</ele>
        <time>2017-04-02T09:28:41Z</time>
      </trkpt>
      <trkpt lat="49.25306" lon="1.3829">
        <ele>90.13</ele>
        <time>2017-04-02T09:28:49Z</time>
      </trkpt>
      <trkpt lat="49.25314" lon="1.38277">
        <ele>86.78</ele>
        <time>2017-04-02T09:28:55Z</time>
      </trkpt>
      <trkpt lat="49.25313" lon="1.38266">
        <ele>82.97</ele>
        <time>2017-04-02T09:29:03Z</time>
      </trkpt>
      <trkpt lat="49.25313" lon="1.38252">
        <ele>79.32</ele>
        <time>2017-04-02T09:29:08Z</time>
      </trkpt>
      <trkpt lat="49.25316" lon="1.3824">
        <ele>75.94</ele>
        <time>2017-04-02T09:29:12Z</time>
      </trkpt>
      <trkpt lat="49.25317" lon="1.38235">
        <ele>74.73</ele>
        <time>2017-04-02T09:29:14Z</time>
      </trkpt>
      <trkpt lat="49.25317" lon="1.38224">
        <ele>72.07</ele>
        <time>2017-04-02T09:29:18Z</time>
      </trkpt>
      <trkpt lat="49.25315" lon="1.38212">
        <ele>68.32</ele>
        <time>2017-04-02T09:29:24Z</time>
      </trkpt>
      <trkpt lat="49.25315" lon="1.3821">
        <ele>67.67</ele>
        <time>2017-04-02T09:29:25Z</time>
      </trkpt>
      <trkpt lat="49.25315" lon="1.382">
        <ele>64.87</ele>
        <time>2017-04-02T09:29:29Z</time>
      </trkpt>
      <trkpt lat="49.25315" lon="1.38189">
        <ele>61.65</ele>
        <time>2017-04-02T09:29:40Z</time>
      </trkpt>
      <trkpt lat="49.25312" lon="1.38188">
        <ele>58.49</ele>
        <time>2017-04-02T09:29:46Z</time>
      </trkpt>
      <trkpt lat="49.25312" lon="1.38184">
        <ele>56.19</ele>
        <time>2017-04-02T09:29:51Z</time>
      </trkpt>
      <trkpt lat="49.25314" lon="1.38177">
        <ele>54.16</ele>
        <time>2017-04-02T09:29:56Z</time>
      </trkpt>
      <trkpt lat="49.25314" lon="1.38162">
        <ele>50.71</ele>
        <time>2017-04-02T09:30:05Z</time>
      </trkpt>
      <trkpt lat="49.25313" lon="1.38149">
        <ele>47.47</ele>
        <time>2017-04-02T09:30:22Z</time>
      </trkpt>
      <trkpt lat="49.25313" lon="1.38131">
        <ele>43.79</ele>
        <time>2017-04-02T09:30:33Z</time>
      </trkpt>
      <trkpt lat="49.25319" lon="1.38119">
        <ele>42.05</ele>
        <time>2017-04-02T09:30:36Z</time>
      </trkpt>
      <trkpt lat="49.25324" lon="1.38115">
        <ele>42.72</ele>
        <time>2017-04-02T09:30:43Z</time>
      </trkpt>
      <trkpt lat="49.25345" lon="1.38108">
        <ele>41.46</ele>
        <time>2017-04-02T09:30:55Z</time>
      </trkpt>
      <trkpt lat="49.2535" lon="1.38109">
        <ele>40.23</ele>
        <time>2017-04-02T09:31:05Z</time>
      </trkpt>
      <trkpt lat="49.2535" lon="1.3811">
        <ele>40.22</ele>
        <time>2017-04-02T09:31:32Z</time>
      </trkpt>
      <trkpt lat="49.25351" lon="1.38108">
        <ele>40.09</ele>
        <time>2017-04-02T09:32:05Z</time>
      </trkpt>
      <trkpt lat="49.2535" lon="1.3811">
        <ele>40.12</ele>
        <time>2017-04-02T09:32:35Z</time>
      </trkpt>
      <trkpt lat="49.25351" lon="1.38109">
        <ele>40.25</ele>
        <time>2017-04-02T09:32:38Z</time>
      </trkpt>
      <trkpt lat="49.25363" lon="1.38099">
        <ele>39.01</ele>
        <time>2017-04-02T09:32:44Z</time>
      </trkpt>
      <trkpt lat="49.25371" lon="1.38099">
        <ele>38.02</ele>
        <time>2017-04-02T09:32:49Z</time>
      </trkpt>
      <trkpt lat="49.25405" lon="1.38103">
        <ele>37.1</ele>
        <time>2017-04-02T09:33:01Z</time>
      </trkpt>
      <trkpt lat="49.25408" lon="1.38102">
        <ele>36.76</ele>
        <time>2017-04-02T09:33:02Z</time>
      </trkpt>
      <trkpt lat="49.25413" lon="1.38094">
        <ele>34.25</ele>
        <time>2017-04-02T09:33:06Z</time>
      </trkpt>
      <trkpt lat="49.25424" lon="1.38081">
        <ele>29.79</ele>
        <time>2017-04-02T09:33:11Z</time>
      </trkpt>
      <trkpt lat="49.25428" lon="1.38071">
        <ele>25.32</ele>
        <time>2017-04-02T09:33:14Z</time>
      </trkpt>
      <trkpt lat="49.25432" lon="1.38067">
        <ele>23.63</ele>
        <time>2017-04-02T09:33:16Z</time>
      </trkpt>
      <trkpt lat="49.25446" lon="1.38064">
        <ele>20.01</ele>
        <time>2017-04-02T09:33:20Z</time>
      </trkpt>
      <trkpt lat="49.25454" lon="1.38066">
        <ele>18.99</ele>
        <time>2017-04-02T09:33:22Z</time>
      </trkpt>
      <trkpt lat="49.25487" lon="1.38072">
        <ele>17.57</ele>
        <time>2017-04-02T09:33:32Z</time>
      </trkpt>
      <trkpt lat="49.25516" lon="1.38095">
        <ele>19.95</ele>
        <time>2017-04-02T09:33:44Z</time>
      </trkpt>
      <trkpt lat="49.2555" lon="1.38117">
        <ele>19.99</ele>
        <time>2017-04-02T09:33:55Z</time>
      </trkpt>
      <trkpt lat="49.25559" lon="1.38122">
        <ele>19.55</ele>
        <time>2017-04-02T09:33:57Z</time>
      </trkpt>
      <trkpt lat="49.25584" lon="1.38142">
        <ele>16.24</ele>
        <time>2017-04-02T09:34:04Z</time>
      </trkpt>
      <trkpt lat="49.25599" lon="1.38154">
        <ele>14.52</ele>
        <time>2017-04-02T09:34:16Z</time>
      </trkpt>
      <trkpt lat="49.25602" lon="1.38158">
        <ele>14.46</ele>
        <time>2017-04-02T09:34:43Z</time>
      </trkpt>
      <trkpt lat="49.2561" lon="1.38163">
        <ele>14.35</ele>
        <time>2017-04-02T09:34:50Z</time>
      </trkpt>
      <trkpt lat="49.25651" lon="1.38189">
        <ele>11.18</ele>
        <time>2017-04-02T09:35:00Z</time>
      </trkpt>
      <trkpt lat="49.2564" lon="1.38166">
        <ele>7.12</ele>
        <time>2017-04-02T09:35:07Z</time>
      </trkpt>
      <trkpt lat="49.25638" lon="1.38162">
        <ele>5.13</ele>
        <time>2017-04-02T09:35:10Z</time>
      </trkpt>
      <trkpt lat="49.25633" lon="1.38153">
        <ele>4.17</ele>
        <time>2017-04-02T09:35:14Z</time>
      </trkpt>
      <trkpt lat="49.25626" lon="1.38141">
        <ele>2.31</ele>
        <time>2017-04-02T09:35:17Z</time>
      </trkpt>
      <trkpt lat="49.25619" lon="1.38117">
        <ele>-1.58</ele>
        <time>2017-04-02T09:35:22Z</time>
      </trkpt>
      <trkpt lat="49.25643" lon="1.38148">
        <ele>-2.09</ele>
        <time>2017-04-02T09:35:33Z</time>
      </trkpt>
      <trkpt lat="49.25674" lon="1.38184">
        <ele>-1.4</ele>
        <time>2017-04-02T09:35:45Z</time>
      </trkpt>
      <trkpt lat="49.25695" lon="1.38206">
        <ele>-0.69</ele>
        <time>2017-04-02T09:35:51Z</time>
      </trkpt>
      <trkpt lat="49.25706" lon="1.38214">
        <ele>-0.2</ele>
        <time>2017-04-02T09:35:54Z</time>
      </trkpt>
      <trkpt lat="49.25723" lon="1.38217">
        <ele>0.18</ele>
        <time>2017-04-02T09:35:58Z</time>
      </trkpt>
      <trkpt lat="49.25778" lon="1.38203">
        <ele>1.19</ele>
        <time>2017-04-02T09:36:12Z</time>
      </trkpt>
      <trkpt lat="49.25813" lon="1.38193">
        <ele>2.36</ele>
        <time>2017-04-02T09:36:23Z</time>
      </trkpt>
      <trkpt lat="49.25856" lon="1.38189">
        <ele>3.32</ele>
        <time>2017-04-02T09:36:34Z</time>
      </trkpt>
      <trkpt lat="49.25898" lon="1.38202">
        <ele>4.54</ele>
        <time>2017-04-02T09:36:45Z</time>
      </trkpt>
      <trkpt lat="49.25956" lon="1.38227">
        <ele>5.39</ele>
        <time>2017-04-02T09:37:01Z</time>
      </trkpt>
      <trkpt lat="49.25995" lon="1.3823">
        <ele>6.59</ele>
        <time>2017-04-02T09:37:12Z</time>
      </trkpt>
      <trkpt lat="49.26049" lon="1.38219">
        <ele>6.93</ele>
        <time>2017-04-02T09:37:26Z</time>
      </trkpt>
      <trkpt lat="49.26061" lon="1.38216">
        <ele>7.23</ele>
        <time>2017-04-02T09:37:29Z</time>
      </trkpt>
      <trkpt lat="49.26077" lon="1.38211">
        <ele>7.63</ele>
        <time>2017-04-02T09:37:33Z</time>
      </trkpt>
      <trkpt lat="49.26115" lon="1.38192">
        <ele>8.28</ele>
        <time>2017-04-02T09:37:44Z</time>
      </trkpt>
      <trkpt lat="49.26155" lon="1.38164">
        <ele>9.34</ele>
        <time>2017-04-02T09:37:54Z</time>
      </trkpt>
      <trkpt lat="49.26201" lon="1.38132">
        <ele>10.66</ele>
        <time>2017-04-02T09:38:07Z</time>
      </trkpt>
      <trkpt lat="49.26253" lon="1.38101">
        <ele>11.5</ele>
        <time>2017-04-02T09:38:20Z</time>
      </trkpt>
      <trkpt lat="49.26292" lon="1.38082">
        <ele>13.22</ele>
        <time>2017-04-02T09:38:30Z</time>
      </trkpt>
      <trkpt lat="49.26327" lon="1.38064">
        <ele>14.28</ele>
        <time>2017-04-02T09:38:40Z</time>
      </trkpt>
      <trkpt lat="49.26366" lon="1.38056">
        <ele>16.21</ele>
        <time>2017-04-02T09:38:50Z</time>
      </trkpt>
      <trkpt lat="49.26404" lon="1.38045">
        <ele>18.23</ele>
        <time>2017-04-02T09:39:00Z</time>
      </trkpt>
      <trkpt lat="49.26421" lon="1.38028">
        <ele>18.87</ele>
        <time>2017-04-02T09:39:05Z</time>
      </trkpt>
      <trkpt lat="49.26432" lon="1.38004">
        <ele>19.33</ele>
        <time>2017-04-02T09:39:09Z</time>
      </trkpt>
      <trkpt lat="49.26441" lon="1.3798">
        <ele>19.83</ele>
        <time>2017-04-02T09:39:13Z</time>
      </trkpt>
      <trkpt lat="49.26449" lon="1.37947">
        <ele>19.79</ele>
        <time>2017-04-02T09:39:18Z</time>
      </trkpt>
      <trkpt lat="49.26452" lon="1.37933">
        <ele>19.8</ele>
        <time>2017-04-02T09:39:20Z</time>
      </trkpt>
      <trkpt lat="49.26459" lon="1.37907">
        <ele>19.74</ele>
        <time>2017-04-02T09:39:23Z</time>
      </trkpt>
      <trkpt lat="49.26466" lon="1.37873">
        <ele>19.86</ele>
        <time>2017-04-02T09:39:27Z</time>
      </trkpt>
      <trkpt lat="49.26472" lon="1.37833">
        <ele>19.78</ele>
        <time>2017-04-02T09:39:32Z</time>
      </trkpt>
      <trkpt lat="49.26476" lon="1.37781">
        <ele>19.47</ele>
        <time>2017-04-02T09:39:39Z</time>
      </trkpt>
      <trkpt lat="49.26476" lon="1.37751">
        <ele>19.38</ele>
        <time>2017-04-02T09:39:43Z</time>
      </trkpt>
      <trkpt lat="49.26473" lon="1.37729">
        <ele>19.39</ele>
        <time>2017-04-02T09:39:46Z</time>
      </trkpt>
      <trkpt lat="49.26489" lon="1.37666">
        <ele>19.94</ele>
        <time>2017-04-02T09:39:54Z</time>
      </trkpt>
      <trkpt lat="49.26502" lon="1.3761">
        <ele>20.86</ele>
        <time>2017-04-02T09:40:05Z</time>
      </trkpt>
      <trkpt lat="49.26498" lon="1.37557">
        <ele>22.3</ele>
        <time>2017-04-02T09:40:15Z</time>
      </trkpt>
      <trkpt lat="49.26497" lon="1.37486">
        <ele>23.54</ele>
        <time>2017-04-02T09:40:27Z</time>
      </trkpt>
      <trkpt lat="49.26496" lon="1.37467">
        <ele>23.66</ele>
        <time>2017-04-02T09:40:30Z</time>
      </trkpt>
      <trkpt lat="49.26493" lon="1.37435">
        <ele>24.49</ele>
        <time>2017-04-02T09:40:35Z</time>
      </trkpt>
      <trkpt lat="49.26494" lon="1.37409">
        <ele>24.59</ele>
        <time>2017-04-02T09:40:39Z</time>
      </trkpt>
      <trkpt lat="49.26503" lon="1.3737">
        <ele>24.32</ele>
        <time>2017-04-02T09:40:45Z</time>
      </trkpt>
      <trkpt lat="49.26509" lon="1.3727">
        <ele>26.48</ele>
        <time>2017-04-02T09:41:00Z</time>
      </trkpt>
      <trkpt lat="49.26512" lon="1.37215">
        <ele>27.92</ele>
        <time>2017-04-02T09:41:11Z</time>
      </trkpt>
      <trkpt lat="49.26514" lon="1.37172">
        <ele>30.33</ele>
        <time>2017-04-02T09:41:22Z</time>
      </trkpt>
      <trkpt lat="49.26512" lon="1.37135">
        <ele>33.35</ele>
        <time>2017-04-02T09:41:33Z</time>
      </trkpt>
      <trkpt lat="49.2651" lon="1.37106">
        <ele>36.37</ele>
        <time>2017-04-02T09:41:43Z</time>
      </trkpt>
      <trkpt lat="49.2651" lon="1.37072">
        <ele>39.51</ele>
        <time>2017-04-02T09:41:52Z</time>
      </trkpt>
      <trkpt lat="49.26506" lon="1.37035">
        <ele>42.57</ele>
        <time>2017-04-02T09:42:02Z</time>
      </trkpt>
      <trkpt lat="49.26498" lon="1.3701">
        <ele>44.26</ele>
        <time>2017-04-02T09:42:10Z</time>
      </trkpt>
      <trkpt lat="49.26487" lon="1.3697">
        <ele>47.56</ele>
        <time>2017-04-02T09:42:24Z</time>
      </trkpt>
      <trkpt lat="49.26482" lon="1.36932">
        <ele>49.98</ele>
        <time>2017-04-02T09:42:36Z</time>
      </trkpt>
      <trkpt lat="49.26482" lon="1.36929">
        <ele>50.22</ele>
        <time>2017-04-02T09:42:37Z</time>
      </trkpt>
      <trkpt lat="49.26478" lon="1.36912">
        <ele>51.55</ele>
        <time>2017-04-02T09:42:43Z</time>
      </trkpt>
      <trkpt lat="49.26477" lon="1.36905">
        <ele>52.29</ele>
        <time>2017-04-02T09:42:46Z</time>
      </trkpt>
      <trkpt lat="49.26473" lon="1.3687">
        <ele>54.02</ele>
        <time>2017-04-02T09:42:56Z</time>
      </trkpt>
      <trkpt lat="49.2647" lon="1.36812">
        <ele>57.26</ele>
        <time>2017-04-02T09:43:10Z</time>
      </trkpt>
      <trkpt lat="49.26449" lon="1.36781">
        <ele>58.87</ele>
        <time>2017-04-02T09:43:23Z</time>
      </trkpt>
      <trkpt lat="49.26436" lon="1.36776">
        <ele>60.65</ele>
        <time>2017-04-02T09:43:30Z</time>
      </trkpt>
      <trkpt lat="49.26419" lon="1.36745">
        <ele>63.01</ele>
        <time>2017-04-02T09:43:42Z</time>
      </trkpt>
      <trkpt lat="49.26415" lon="1.36736">
        <ele>63.78</ele>
        <time>2017-04-02T09:43:46Z</time>
      </trkpt>
      <trkpt lat="49.26402" lon="1.36701">
        <ele>66.65</ele>
        <time>2017-04-02T09:44:00Z</time>
      </trkpt>
      <trkpt lat="49.26391" lon="1.36663">
        <ele>69.91</ele>
        <time>2017-04-02T09:44:11Z</time>
      </trkpt>
      <trkpt lat="49.26383" lon="1.36644">
        <ele>71.28</ele>
        <time>2017-04-02T09:44:18Z</time>
      </trkpt>
      <trkpt lat="49.26374" lon="1.36617">
        <ele>73.54</ele>
        <time>2017-04-02T09:44:28Z</time>
      </trkpt>
      <trkpt lat="49.26367" lon="1.36581">
        <ele>75.79</ele>
        <time>2017-04-02T09:44:40Z</time>
      </trkpt>
      <trkpt lat="49.26356" lon="1.36544">
        <ele>78.73</ele>
        <time>2017-04-02T09:44:52Z</time>
      </trkpt>
      <trkpt lat="49.26354" lon="1.36533">
        <ele>79.71</ele>
        <time>2017-04-02T09:44:55Z</time>
      </trkpt>
      <trkpt lat="49.26341" lon="1.36503">
        <ele>82.91</ele>
        <time>2017-04-02T09:45:06Z</time>
      </trkpt>
      <trkpt lat="49.2633" lon="1.36471">
        <ele>85.97</ele>
        <time>2017-04-02T09:45:17Z</time>
      </trkpt>
      <trkpt lat="49.2631" lon="1.36436">
        <ele>88.17</ele>
        <time>2017-04-02T09:45:29Z</time>
      </trkpt>
      <trkpt lat="49.263" lon="1.36434">
        <ele>88.42</ele>
        <time>2017-04-02T09:45:33Z</time>
      </trkpt>
      <trkpt lat="49.2628" lon="1.36423">
        <ele>88.55</ele>
        <time>2017-04-02T09:45:40Z</time>
      </trkpt>
      <trkpt lat="49.26245" lon="1.364">
        <ele>90.7</ele>
        <time>2017-04-02T09:45:53Z</time>
      </trkpt>
      <trkpt lat="49.26206" lon="1.36372">
        <ele>92.7</ele>
        <time>2017-04-02T09:46:07Z</time>
      </trkpt>
      <trkpt lat="49.26181" lon="1.36354">
        <ele>95</ele>
        <time>2017-04-02T09:46:18Z</time>
      </trkpt>
      <trkpt lat="49.26152" lon="1.36332">
        <ele>98.21</ele>
        <time>2017-04-02T09:46:30Z</time>
      </trkpt>
      <trkpt lat="49.26132" lon="1.36306">
        <ele>101.6</ele>
        <time>2017-04-02T09:46:41Z</time>
      </trkpt>
      <trkpt lat="49.26104" lon="1.36262">
        <ele>103.54</ele>
        <time>2017-04-02T09:46:53Z</time>
      </trkpt>
      <trkpt lat="49.26078" lon="1.36213">
        <ele>105.24</ele>
        <time>2017-04-02T09:47:06Z</time>
      </trkpt>
      <trkpt lat="49.26039" lon="1.36161">
        <ele>107.52</ele>
        <time>2017-04-02T09:47:22Z</time>
      </trkpt>
      <trkpt lat="49.26013" lon="1.36134">
        <ele>110.62</ele>
        <time>2017-04-02T09:47:34Z</time>
      </trkpt>
      <trkpt lat="49.25999" lon="1.36118">
        <ele>112.4</ele>
        <time>2017-04-02T09:47:41Z</time>
      </trkpt>
      <trkpt lat="49.25996" lon="1.36111">
        <ele>113.36</ele>
        <time>2017-04-02T09:47:50Z</time>
      </trkpt>
      <trkpt lat="49.25953" lon="1.36117">
        <ele>114.47</ele>
        <time>2017-04-02T09:48:02Z</time>
      </trkpt>
      <trkpt lat="49.2586" lon="1.36133">
        <ele>116.75</ele>
        <time>2017-04-02T09:48:25Z</time>
      </trkpt>
      <trkpt lat="49.25828" lon="1.36142">
        <ele>117.56</ele>
        <time>2017-04-02T09:48:33Z</time>
      </trkpt>
      <trkpt lat="49.25825" lon="1.36175">
        <ele>117.93</ele>
        <time>2017-04-02T09:48:38Z</time>
      </trkpt>
      <trkpt lat="49.25849" lon="1.36321">
        <ele>117.88</ele>
        <time>2017-04-02T09:48:54Z</time>
      </trkpt>
      <trkpt lat="49.25881" lon="1.36519">
        <ele>117.07</ele>
        <time>2017-04-02T09:49:13Z</time>
      </trkpt>
      <trkpt lat="49.25888" lon="1.36629">
        <ele>116.89</ele>
        <time>2017-04-02T09:49:24Z</time>
      </trkpt>
      <trkpt lat="49.25885" lon="1.36648">
        <ele>116.9</ele>
        <time>2017-04-02T09:49:26Z</time>
      </trkpt>
      <trkpt lat="49.25839" lon="1.36811">
        <ele>115.03</ele>
        <time>2017-04-02T09:49:42Z</time>
      </trkpt>
      <trkpt lat="49.25794" lon="1.36974">
        <ele>113.32</ele>
        <time>2017-04-02T09:49:56Z</time>
      </trkpt>
      <trkpt lat="49.25766" lon="1.37071">
        <ele>109.64</ele>
        <time>2017-04-02T09:50:03Z</time>
      </trkpt>
      <trkpt lat="49.25757" lon="1.37101">
        <ele>109.01</ele>
        <time>2017-04-02T09:50:05Z</time>
      </trkpt>
      <trkpt lat="49.25733" lon="1.37191">
        <ele>104.96</ele>
        <time>2017-04-02T09:50:11Z</time>
      </trkpt>
      <trkpt lat="49.25707" lon="1.3728">
        <ele>101.76</ele>
        <time>2017-04-02T09:50:17Z</time>
      </trkpt>
      <trkpt lat="49.257" lon="1.37304">
        <ele>100.16</ele>
        <time>2017-04-02T09:50:19Z</time>
      </trkpt>
      <trkpt lat="49.25699" lon="1.37333">
        <ele>98.33</ele>
        <time>2017-04-02T09:50:22Z</time>
      </trkpt>
      <trkpt lat="49.25703" lon="1.37355">
        <ele>97.52</ele>
        <time>2017-04-02T09:50:25Z</time>
      </trkpt>
      <trkpt lat="49.25704" lon="1.37369">
        <ele>97.03</ele>
        <time>2017-04-02T09:50:27Z</time>
      </trkpt>
      <trkpt lat="49.25708" lon="1.37412">
        <ele>93.33</ele>
        <time>2017-04-02T09:50:32Z</time>
      </trkpt>
      <trkpt lat="49.2571" lon="1.37422">
        <ele>93.05</ele>
        <time>2017-04-02T09:50:33Z</time>
      </trkpt>
      <trkpt lat="49.25712" lon="1.37442">
        <ele>91.51</ele>
        <time>2017-04-02T09:50:35Z</time>
      </trkpt>
      <trkpt lat="49.25711" lon="1.3748">
        <ele>88.8</ele>
        <time>2017-04-02T09:50:39Z</time>
      </trkpt>
      <trkpt lat="49.25705" lon="1.37519">
        <ele>85.91</ele>
        <time>2017-04-02T09:50:43Z</time>
      </trkpt>
      <trkpt lat="49.25706" lon="1.37557">
        <ele>83.66</ele>
        <time>2017-04-02T09:50:47Z</time>
      </trkpt>
      <trkpt lat="49.25711" lon="1.37603">
        <ele>78.7</ele>
        <time>2017-04-02T09:50:52Z</time>
      </trkpt>
      <trkpt lat="49.25714" lon="1.37632">
        <ele>75.07</ele>
        <time>2017-04-02T09:50:57Z</time>
      </trkpt>
      <trkpt lat="49.25715" lon="1.37648">
        <ele>73.51</ele>
        <time>2017-04-02T09:51:00Z</time>
      </trkpt>
      <trkpt lat="49.25724" lon="1.37681">
        <ele>69.35</ele>
        <time>2017-04-02T09:51:05Z</time>
      </trkpt>
      <trkpt lat="49.25727" lon="1.37712">
        <ele>66.13</ele>
        <time>2017-04-02T09:51:09Z</time>
      </trkpt>
      <trkpt lat="49.25729" lon="1.37729">
        <ele>63.84</ele>
        <time>2017-04-02T09:51:11Z</time>
      </trkpt>
      <trkpt lat="49.25725" lon="1.3776">
        <ele>59.45</ele>
        <time>2017-04-02T09:51:15Z</time>
      </trkpt>
      <trkpt lat="49.25723" lon="1.37769">
        <ele>57.98</ele>
        <time>2017-04-02T09:51:16Z</time>
      </trkpt>
      <trkpt lat="49.25714" lon="1.378">
        <ele>54.53</ele>
        <time>2017-04-02T09:51:20Z</time>
      </trkpt>
      <trkpt lat="49.25707" lon="1.37829">
        <ele>49.59</ele>
        <time>2017-04-02T09:51:24Z</time>
      </trkpt>
      <trkpt lat="49.257" lon="1.37851">
        <ele>46.91</ele>
        <time>2017-04-02T09:51:28Z</time>
      </trkpt>
      <trkpt lat="49.25685" lon="1.37863">
        <ele>42.38</ele>
        <time>2017-04-02T09:51:32Z</time>
      </trkpt>
      <trkpt lat="49.25676" lon="1.37864">
        <ele>41.03</ele>
        <time>2017-04-02T09:51:34Z</time>
      </trkpt>
      <trkpt lat="49.25661" lon="1.37865">
        <ele>37.43</ele>
        <time>2017-04-02T09:51:38Z</time>
      </trkpt>
      <trkpt lat="49.25641" lon="1.37868">
        <ele>34.39</ele>
        <time>2017-04-02T09:51:44Z</time>
      </trkpt>
      <trkpt lat="49.25639" lon="1.37869">
        <ele>34.1</ele>
        <time>2017-04-02T09:51:45Z</time>
      </trkpt>
      <trkpt lat="49.25631" lon="1.37882">
        <ele>33.25</ele>
        <time>2017-04-02T09:51:50Z</time>
      </trkpt>
      <trkpt lat="49.25624" lon="1.37878">
        <ele>31.6</ele>
        <time>2017-04-02T09:51:53Z</time>
      </trkpt>
      <trkpt lat="49.25608" lon="1.37871">
        <ele>28.23</ele>
        <time>2017-04-02T09:51:57Z</time>
      </trkpt>
      <trkpt lat="49.25606" lon="1.37868">
        <ele>27.09</ele>
        <time>2017-04-02T09:51:58Z</time>
      </trkpt>
      <trkpt lat="49.25599" lon="1.37864">
        <ele>23.67</ele>
        <time>2017-04-02T09:52:04Z</time>
      </trkpt>
      <trkpt lat="49.25578" lon="1.37863">
        <ele>20.47</ele>
        <time>2017-04-02T09:52:10Z</time>
      </trkpt>
      <trkpt lat="49.25545" lon="1.3786">
        <ele>15.69</ele>
        <time>2017-04-02T09:52:16Z</time>
      </trkpt>
      <trkpt lat="49.25525" lon="1.37856">
        <ele>12.28</ele>
        <time>2017-04-02T09:52:19Z</time>
      </trkpt>
      <trkpt lat="49.25508" lon="1.37856">
        <ele>10.04</ele>
        <time>2017-04-02T09:52:21Z</time>
      </trkpt>
      <trkpt lat="49.25494" lon="1.37859">
        <ele>7.85</ele>
        <time>2017-04-02T09:52:23Z</time>
      </trkpt>
      <trkpt lat="49.25459" lon="1.37861">
        <ele>3.76</ele>
        <time>2017-04-02T09:52:28Z</time>
      </trkpt>
      <trkpt lat="49.25427" lon="1.37861">
        <ele>1.55</ele>
        <time>2017-04-02T09:52:32Z</time>
      </trkpt>
      <trkpt lat="49.25394" lon="1.37885">
        <ele>-2.64</ele>
        <time>2017-04-02T09:52:38Z</time>
      </trkpt>
      <trkpt lat="49.25388" lon="1.37918">
        <ele>-3.98</ele>
        <time>2017-04-02T09:52:43Z</time>
      </trkpt>
      <trkpt lat="49.25385" lon="1.37938">
        <ele>-4.25</ele>
        <time>2017-04-02T09:52:46Z</time>
      </trkpt>
      <trkpt lat="49.25401" lon="1.37953">
        <ele>-4.65</ele>
        <time>2017-04-02T09:52:51Z</time>
      </trkpt>
      <trkpt lat="49.25412" lon="1.3795">
        <ele>-5.03</ele>
        <time>2017-04-02T09:52:53Z</time>
      </trkpt>
      <trkpt lat="49.25422" lon="1.37948">
        <ele>-5.15</ele>
        <time>2017-04-02T09:52:55Z</time>
      </trkpt>
      <trkpt lat="49.25451" lon="1.37952">
        <ele>-5.2</ele>
        <time>2017-04-02T09:53:01Z</time>
      </trkpt>
      <trkpt lat="49.25517" lon="1.37972">
        <ele>-4.96</ele>
        <time>2017-04-02T09:53:17Z</time>
      </trkpt>
      <trkpt lat="49.25532" lon="1.37978">
        <ele>-4.39</ele>
        <time>2017-04-02T09:53:21Z</time>
      </trkpt>
      <trkpt lat="49.25583" lon="1.38026">
        <ele>-3.12</ele>
        <time>2017-04-02T09:53:36Z</time>
      </trkpt>
      <trkpt lat="49.2561" lon="1.381">
        <ele>-2.89</ele>
        <time>2017-04-02T09:53:50Z</time>
      </trkpt>
      <trkpt lat="49.25636" lon="1.3814">
        <ele>-1.96</ele>
        <time>2017-04-02T09:54:01Z</time>
      </trkpt>
      <trkpt lat="49.25677" lon="1.38188">
        <ele>-1.25</ele>
        <time>2017-04-02T09:54:14Z</time>
      </trkpt>
      <trkpt lat="49.25719" lon="1.38218">
        <ele>-0.42</ele>
        <time>2017-04-02T09:54:25Z</time>
      </trkpt>
      <trkpt lat="49.25746" lon="1.38234">
        <ele>1.98</ele>
        <time>2017-04-02T09:54:36Z</time>
      </trkpt>
      <trkpt lat="49.25766" lon="1.38254">
        <ele>4.64</ele>
        <time>2017-04-02T09:54:47Z</time>
      </trkpt>
      <trkpt lat="49.25772" lon="1.3826">
        <ele>5.32</ele>
        <time>2017-04-02T09:54:51Z</time>
      </trkpt>
      <trkpt lat="49.25785" lon="1.38283">
        <ele>7.27</ele>
        <time>2017-04-02T09:55:00Z</time>
      </trkpt>
      <trkpt lat="49.25784" lon="1.38294">
        <ele>7.85</ele>
        <time>2017-04-02T09:55:04Z</time>
      </trkpt>
      <trkpt lat="49.25773" lon="1.38324">
        <ele>10.5</ele>
        <time>2017-04-02T09:55:19Z</time>
      </trkpt>
      <trkpt lat="49.2576" lon="1.38345">
        <ele>12.77</ele>
        <time>2017-04-02T09:55:30Z</time>
      </trkpt>
      <trkpt lat="49.25743" lon="1.38365">
        <ele>14.75</ele>
        <time>2017-04-02T09:55:41Z</time>
      </trkpt>
      <trkpt lat="49.25725" lon="1.38389">
        <ele>16.85</ele>
        <time>2017-04-02T09:55:54Z</time>
      </trkpt>
      <trkpt lat="49.25709" lon="1.38409">
        <ele>18.87</ele>
        <time>2017-04-02T09:56:05Z</time>
      </trkpt>
      <trkpt lat="49.25692" lon="1.38439">
        <ele>21.61</ele>
        <time>2017-04-02T09:56:20Z</time>
      </trkpt>
      <trkpt lat="49.25676" lon="1.38471">
        <ele>24.1</ele>
        <time>2017-04-02T09:56:33Z</time>
      </trkpt>
      <trkpt lat="49.25666" lon="1.38497">
        <ele>25.92</ele>
        <time>2017-04-02T09:56:44Z</time>
      </trkpt>
      <trkpt lat="49.25659" lon="1.38521">
        <ele>27.58</ele>
        <time>2017-04-02T09:56:53Z</time>
      </trkpt>
      <trkpt lat="49.25659" lon="1.38558">
        <ele>30.91</ele>
        <time>2017-04-02T09:57:07Z</time>
      </trkpt>
      <trkpt lat="49.25655" lon="1.38598">
        <ele>33.99</ele>
        <time>2017-04-02T09:57:19Z</time>
      </trkpt>
      <trkpt lat="49.25656" lon="1.38603">
        <ele>34.58</ele>
        <time>2017-04-02T09:57:21Z</time>
      </trkpt>
      <trkpt lat="49.2566" lon="1.38639">
        <ele>36.78</ele>
        <time>2017-04-02T09:57:34Z</time>
      </trkpt>
      <trkpt lat="49.25665" lon="1.38661">
        <ele>38.96</ele>
        <time>2017-04-02T09:57:43Z</time>
      </trkpt>
      <trkpt lat="49.2567" lon="1.38674">
        <ele>39.84</ele>
        <time>2017-04-02T09:57:49Z</time>
      </trkpt>
      <trkpt lat="49.25672" lon="1.38699">
        <ele>41.47</ele>
        <time>2017-04-02T09:57:58Z</time>
      </trkpt>
      <trkpt lat="49.25672" lon="1.38717">
        <ele>42.7</ele>
        <time>2017-04-02T09:58:04Z</time>
      </trkpt>
      <trkpt lat="49.25673" lon="1.38751">
        <ele>45.59</ele>
        <time>2017-04-02T09:58:16Z</time>
      </trkpt>
      <trkpt lat="49.25669" lon="1.38784">
        <ele>47.83</ele>
        <time>2017-04-02T09:58:28Z</time>
      </trkpt>
      <trkpt lat="49.25662" lon="1.38812">
        <ele>50.44</ele>
        <time>2017-04-02T09:58:40Z</time>
      </trkpt>
      <trkpt lat="49.25659" lon="1.38841">
        <ele>52.94</ele>
        <time>2017-04-02T09:58:52Z</time>
      </trkpt>
      <trkpt lat="49.25662" lon="1.38852">
        <ele>53.8</ele>
        <time>2017-04-02T09:58:57Z</time>
      </trkpt>
      <trkpt lat="49.25665" lon="1.38853">
        <ele>54.68</ele>
        <time>2017-04-02T09:59:00Z</time>
      </trkpt>
      <trkpt lat="49.25673" lon="1.38847">
        <ele>56.33</ele>
        <time>2017-04-02T09:59:07Z</time>
      </trkpt>
      <trkpt lat="49.25687" lon="1.38832">
        <ele>58.73</ele>
        <time>2017-04-02T09:59:19Z</time>
      </trkpt>
      <trkpt lat="49.25702" lon="1.38818">
        <ele>61.95</ele>
        <time>2017-04-02T09:59:32Z</time>
      </trkpt>
      <trkpt lat="49.25719" lon="1.38803">
        <ele>65.22</ele>
        <time>2017-04-02T09:59:49Z</time>
      </trkpt>
      <trkpt lat="49.25736" lon="1.38789">
        <ele>68.25</ele>
        <time>2017-04-02T10:00:00Z</time>
      </trkpt>
      <trkpt lat="49.25745" lon="1.38754">
        <ele>71.41</ele>
        <time>2017-04-02T10:00:13Z</time>
      </trkpt>
      <trkpt lat="49.25753" lon="1.38722">
        <ele>74.08</ele>
        <time>2017-04-02T10:00:26Z</time>
      </trkpt>
      <trkpt lat="49.25755" lon="1.38714">
        <ele>74.81</ele>
        <time>2017-04-02T10:00:29Z</time>
      </trkpt>
      <trkpt lat="49.25767" lon="1.38686">
        <ele>77</ele>
        <time>2017-04-02T10:00:42Z</time>
      </trkpt>
      <trkpt lat="49.25768" lon="1.38684">
        <ele>77.08</ele>
        <time>2017-04-02T10:00:43Z</time>
      </trkpt>
      <trkpt lat="49.25779" lon="1.38674">
        <ele>79.36</ele>
        <time>2017-04-02T10:00:51Z</time>
      </trkpt>
      <trkpt lat="49.25796" lon="1.38672">
        <ele>81.88</ele>
        <time>2017-04-02T10:01:02Z</time>
      </trkpt>
      <trkpt lat="49.258" lon="1.38676">
        <ele>82.56</ele>
        <time>2017-04-02T10:01:06Z</time>
      </trkpt>
      <trkpt lat="49.25817" lon="1.38693">
        <ele>86.19</ele>
        <time>2017-04-02T10:01:20Z</time>
      </trkpt>
      <trkpt lat="49.25828" lon="1.38711">
        <ele>89.25</ele>
        <time>2017-04-02T10:01:33Z</time>
      </trkpt>
      <trkpt lat="49.25834" lon="1.38719">
        <ele>90.8</ele>
        <time>2017-04-02T10:01:40Z</time>
      </trkpt>
      <trkpt lat="49.25845" lon="1.38736">
        <ele>94.26</ele>
        <time>2017-04-02T10:01:52Z</time>
      </trkpt>
      <trkpt lat="49.25855" lon="1.38752">
        <ele>96.84</ele>
        <time>2017-04-02T10:02:04Z</time>
      </trkpt>
      <trkpt lat="49.25858" lon="1.3876">
        <ele>98.39</ele>
        <time>2017-04-02T10:02:09Z</time>
      </trkpt>
      <trkpt lat="49.25861" lon="1.38763">
        <ele>99.14</ele>
        <time>2017-04-02T10:02:12Z</time>
      </trkpt>
      <trkpt lat="49.25875" lon="1.3877">
        <ele>101.95</ele>
        <time>2017-04-02T10:02:25Z</time>
      </trkpt>
      <trkpt lat="49.25892" lon="1.38771">
        <ele>105.14</ele>
        <time>2017-04-02T10:02:39Z</time>
      </trkpt>
      <trkpt lat="49.25906" lon="1.38765">
        <ele>106.89</ele>
        <time>2017-04-02T10:02:51Z</time>
      </trkpt>
      <trkpt lat="49.25934" lon="1.38759">
        <ele>109.85</ele>
        <time>2017-04-02T10:03:08Z</time>
      </trkpt>
      <trkpt lat="49.25939" lon="1.38755">
        <ele>110.2</ele>
        <time>2017-04-02T10:03:11Z</time>
      </trkpt>
      <trkpt lat="49.25961" lon="1.38746">
        <ele>113.04</ele>
        <time>2017-04-02T10:03:26Z</time>
      </trkpt>
      <trkpt lat="49.2598" lon="1.38739">
        <ele>114.99</ele>
        <time>2017-04-02T10:03:38Z</time>
      </trkpt>
      <trkpt lat="49.25985" lon="1.38738">
        <ele>115.76</ele>
        <time>2017-04-02T10:03:42Z</time>
      </trkpt>
      <trkpt lat="49.26018" lon="1.38741">
        <ele>119.1</ele>
        <time>2017-04-02T10:03:56Z</time>
      </trkpt>
      <trkpt lat="49.26054" lon="1.38735">
        <ele>120.68</ele>
        <time>2017-04-02T10:04:09Z</time>
      </trkpt>
      <trkpt lat="49.26084" lon="1.38737">
        <ele>122.08</ele>
        <time>2017-04-02T10:04:20Z</time>
      </trkpt>
      <trkpt lat="49.26132" lon="1.38766">
        <ele>122.8</ele>
        <time>2017-04-02T10:04:33Z</time>
      </trkpt>
      <trkpt lat="49.26167" lon="1.38785">
        <ele>123.03</ele>
        <time>2017-04-02T10:04:44Z</time>
      </trkpt>
      <trkpt lat="49.26205" lon="1.3881">
        <ele>121.7</ele>
        <time>2017-04-02T10:04:56Z</time>
      </trkpt>
      <trkpt lat="49.26241" lon="1.38813">
        <ele>120.99</ele>
        <time>2017-04-02T10:05:07Z</time>
      </trkpt>
      <trkpt lat="49.2626" lon="1.38823">
        <ele>120.36</ele>
        <time>2017-04-02T10:05:13Z</time>
      </trkpt>
      <trkpt lat="49.26304" lon="1.38873">
        <ele>119.44</ele>
        <time>2017-04-02T10:05:27Z</time>
      </trkpt>
      <trkpt lat="49.26315" lon="1.38893">
        <ele>119.12</ele>
        <time>2017-04-02T10:05:31Z</time>
      </trkpt>
      <trkpt lat="49.26332" lon="1.3892">
        <ele>118.54</ele>
        <time>2017-04-02T10:05:37Z</time>
      </trkpt>
      <trkpt lat="49.26343" lon="1.38937">
        <ele>117.69</ele>
        <time>2017-04-02T10:05:41Z</time>
      </trkpt>
      <trkpt lat="49.26349" lon="1.38976">
        <ele>118.01</ele>
        <time>2017-04-02T10:05:50Z</time>
      </trkpt>
      <trkpt lat="49.26287" lon="1.39012">
        <ele>120.06</ele>
        <time>2017-04-02T10:06:03Z</time>
      </trkpt>
      <trkpt lat="49.2625" lon="1.39034">
        <ele>121.04</ele>
        <time>2017-04-02T10:06:11Z</time>
      </trkpt>
      <trkpt lat="49.26218" lon="1.39072">
        <ele>121.75</ele>
        <time>2017-04-02T10:06:20Z</time>
      </trkpt>
      <trkpt lat="49.26201" lon="1.39097">
        <ele>122.21</ele>
        <time>2017-04-02T10:06:26Z</time>
      </trkpt>
      <trkpt lat="49.26158" lon="1.39148">
        <ele>123.76</ele>
        <time>2017-04-02T10:06:39Z</time>
      </trkpt>
      <trkpt lat="49.26117" lon="1.39203">
        <ele>125.04</ele>
        <time>2017-04-02T10:06:51Z</time>
      </trkpt>
      <trkpt lat="49.2611" lon="1.39214">
        <ele>125.36</ele>
        <time>2017-04-02T10:06:53Z</time>
      </trkpt>
      <trkpt lat="49.2606" lon="1.3929">
        <ele>126</ele>
        <time>2017-04-02T10:07:07Z</time>
      </trkpt>
      <trkpt lat="49.25995" lon="1.39391">
        <ele>126.76</ele>
        <time>2017-04-02T10:07:23Z</time>
      </trkpt>
      <trkpt lat="49.25941" lon="1.39478">
        <ele>127.46</ele>
        <time>2017-04-02T10:07:36Z</time>
      </trkpt>
      <trkpt lat="49.2592" lon="1.39489">
        <ele>126.89</ele>
        <time>2017-04-02T10:07:40Z</time>
      </trkpt>
      <trkpt lat="49.25814" lon="1.3948">
        <ele>126.42</ele>
        <time>2017-04-02T10:07:57Z</time>
      </trkpt>
      <trkpt lat="49.25807" lon="1.39481">
        <ele>126.34</ele>
        <time>2017-04-02T10:07:58Z</time>
      </trkpt>
      <trkpt lat="49.2572" lon="1.39507">
        <ele>125.87</ele>
        <time>2017-04-02T10:08:12Z</time>
      </trkpt>
      <trkpt lat="49.25622" lon="1.39523">
        <ele>125.25</ele>
        <time>2017-04-02T10:08:28Z</time>
      </trkpt>
      <trkpt lat="49.2551" lon="1.39527">
        <ele>126.17</ele>
        <time>2017-04-02T10:08:47Z</time>
      </trkpt>
      <trkpt lat="49.25445" lon="1.39551">
        <ele>127.56</ele>
        <time>2017-04-02T10:09:00Z</time>
      </trkpt>
      <trkpt lat="49.254" lon="1.39577">
        <ele>128.33</ele>
        <time>2017-04-02T10:09:10Z</time>
      </trkpt>
      <trkpt lat="49.25367" lon="1.39605">
        <ele>129</ele>
        <time>2017-04-02T10:09:16Z</time>
      </trkpt>
      <trkpt lat="49.25302" lon="1.39669">
        <ele>128.54</ele>
        <time>2017-04-02T10:09:28Z</time>
      </trkpt>
      <trkpt lat="49.25219" lon="1.39726">
        <ele>127.96</ele>
        <time>2017-04-02T10:09:43Z</time>
      </trkpt>
      <trkpt lat="49.25167" lon="1.39757">
        <ele>127.5</ele>
        <time>2017-04-02T10:09:52Z</time>
      </trkpt>
      <trkpt lat="49.25147" lon="1.39779">
        <ele>127.62</ele>
        <time>2017-04-02T10:09:56Z</time>
      </trkpt>
      <trkpt lat="49.25128" lon="1.39806">
        <ele>126.95</ele>
        <time>2017-04-02T10:10:00Z</time>
      </trkpt>
      <trkpt lat="49.25078" lon="1.39875">
        <ele>123.34</ele>
        <time>2017-04-02T10:10:09Z</time>
      </trkpt>
      <trkpt lat="49.25073" lon="1.39885">
        <ele>122.43</ele>
        <time>2017-04-02T10:10:10Z</time>
      </trkpt>
      <trkpt lat="49.25051" lon="1.399">
        <ele>118.33</ele>
        <time>2017-04-02T10:10:14Z</time>
      </trkpt>
      <trkpt lat="49.2504" lon="1.39882">
        <ele>117.45</ele>
        <time>2017-04-02T10:10:17Z</time>
      </trkpt>
      <trkpt lat="49.25032" lon="1.39841">
        <ele>118.31</ele>
        <time>2017-04-02T10:10:23Z</time>
      </trkpt>
      <trkpt lat="49.25007" lon="1.39721">
        <ele>119.19</ele>
        <time>2017-04-02T10:10:39Z</time>
      </trkpt>
      <trkpt lat="49.24984" lon="1.39589">
        <ele>120.84</ele>
        <time>2017-04-02T10:10:57Z</time>
      </trkpt>
      <trkpt lat="49.24974" lon="1.39536">
        <ele>120.79</ele>
        <time>2017-04-02T10:11:04Z</time>
      </trkpt>
      <trkpt lat="49.24964" lon="1.3946">
        <ele>121.97</ele>
        <time>2017-04-02T10:11:15Z</time>
      </trkpt>
      <trkpt lat="49.24946" lon="1.39385">
        <ele>120.15</ele>
        <time>2017-04-02T10:11:28Z</time>
      </trkpt>
      <trkpt lat="49.24945" lon="1.39379">
        <ele>120.09</ele>
        <time>2017-04-02T10:11:29Z</time>
      </trkpt>
      <trkpt lat="49.24934" lon="1.39361">
        <ele>118.56</ele>
        <time>2017-04-02T10:11:34Z</time>
      </trkpt>
      <trkpt lat="49.24924" lon="1.39352">
        <ele>114.52</ele>
        <time>2017-04-02T10:11:41Z</time>
      </trkpt>
      <trkpt lat="49.24922" lon="1.39353">
        <ele>113.88</ele>
        <time>2017-04-02T10:11:42Z</time>
      </trkpt>
      <trkpt lat="49.24906" lon="1.39369">
        <ele>109.67</ele>
        <time>2017-04-02T10:11:49Z</time>
      </trkpt>
      <trkpt lat="49.24889" lon="1.39388">
        <ele>106.66</ele>
        <time>2017-04-02T10:11:54Z</time>
      </trkpt>
      <trkpt lat="49.24868" lon="1.39396">
        <ele>103.39</ele>
        <time>2017-04-02T10:12:00Z</time>
      </trkpt>
      <trkpt lat="49.24843" lon="1.39409">
        <ele>99.51</ele>
        <time>2017-04-02T10:12:07Z</time>
      </trkpt>
      <trkpt lat="49.24832" lon="1.3942">
        <ele>96.27</ele>
        <time>2017-04-02T10:12:11Z</time>
      </trkpt>
      <trkpt lat="49.2482" lon="1.39443">
        <ele>92.64</ele>
        <time>2017-04-02T10:12:19Z</time>
      </trkpt>
      <trkpt lat="49.24812" lon="1.39454">
        <ele>89.41</ele>
        <time>2017-04-02T10:12:26Z</time>
      </trkpt>
      <trkpt lat="49.24804" lon="1.39462">
        <ele>86.4</ele>
        <time>2017-04-02T10:12:38Z</time>
      </trkpt>
      <trkpt lat="49.24795" lon="1.39472">
        <ele>83.07</ele>
        <time>2017-04-02T10:12:46Z</time>
      </trkpt>
      <trkpt lat="49.24763" lon="1.39512">
        <ele>80.41</ele>
        <time>2017-04-02T10:12:57Z</time>
      </trkpt>
      <trkpt lat="49.24746" lon="1.39541">
        <ele>76.73</ele>
        <time>2017-04-02T10:13:04Z</time>
      </trkpt>
      <trkpt lat="49.24735" lon="1.39548">
        <ele>73.15</ele>
        <time>2017-04-02T10:13:09Z</time>
      </trkpt>
      <trkpt lat="49.24725" lon="1.39552">
        <ele>69.51</ele>
        <time>2017-04-02T10:13:13Z</time>
      </trkpt>
      <trkpt lat="49.24719" lon="1.39558">
        <ele>66.4</ele>
        <time>2017-04-02T10:13:19Z</time>
      </trkpt>
      <trkpt lat="49.24718" lon="1.39558">
        <ele>66.01</ele>
        <time>2017-04-02T10:13:20Z</time>
      </trkpt>
      <trkpt lat="49.24708" lon="1.39565">
        <ele>62.02</ele>
        <time>2017-04-02T10:13:26Z</time>
      </trkpt>
      <trkpt lat="49.24701" lon="1.3957">
        <ele>58.67</ele>
        <time>2017-04-02T10:13:30Z</time>
      </trkpt>
      <trkpt lat="49.24696" lon="1.39575">
        <ele>56.61</ele>
        <time>2017-04-02T10:13:33Z</time>
      </trkpt>
      <trkpt lat="49.24685" lon="1.39586">
        <ele>52.62</ele>
        <time>2017-04-02T10:13:40Z</time>
      </trkpt>
      <trkpt lat="49.24678" lon="1.39593">
        <ele>49.11</ele>
        <time>2017-04-02T10:13:43Z</time>
      </trkpt>
      <trkpt lat="49.24672" lon="1.39603">
        <ele>45.68</ele>
        <time>2017-04-02T10:13:48Z</time>
      </trkpt>
      <trkpt lat="49.24668" lon="1.39611">
        <ele>42.56</ele>
        <time>2017-04-02T10:14:02Z</time>
      </trkpt>
      <trkpt lat="49.24665" lon="1.39621">
        <ele>39.33</ele>
        <time>2017-04-02T10:14:10Z</time>
      </trkpt>
      <trkpt lat="49.24662" lon="1.39631">
        <ele>36.07</ele>
        <time>2017-04-02T10:14:21Z</time>
      </trkpt>
      <trkpt lat="49.24658" lon="1.39642">
        <ele>32.99</ele>
        <time>2017-04-02T10:14:29Z</time>
      </trkpt>
      <trkpt lat="49.24656" lon="1.39647">
        <ele>31.52</ele>
        <time>2017-04-02T10:14:35Z</time>
      </trkpt>
      <trkpt lat="49.24647" lon="1.39668">
        <ele>28.23</ele>
        <time>2017-04-02T10:14:41Z</time>
      </trkpt>
      <trkpt lat="49.24644" lon="1.39681">
        <ele>27.37</ele>
        <time>2017-04-02T10:14:53Z</time>
      </trkpt>
      <trkpt lat="49.24637" lon="1.39716">
        <ele>29.3</ele>
        <time>2017-04-02T10:15:07Z</time>
      </trkpt>
      <trkpt lat="49.2464" lon="1.39723">
        <ele>30.36</ele>
        <time>2017-04-02T10:15:11Z</time>
      </trkpt>
      <trkpt lat="49.24637" lon="1.39745">
        <ele>29.71</ele>
        <time>2017-04-02T10:15:18Z</time>
      </trkpt>
      <trkpt lat="49.24633" lon="1.39763">
        <ele>26.1</ele>
        <time>2017-04-02T10:15:25Z</time>
      </trkpt>
      <trkpt lat="49.24632" lon="1.39771">
        <ele>23.77</ele>
        <time>2017-04-02T10:15:30Z</time>
      </trkpt>
      <trkpt lat="49.24627" lon="1.3977">
        <ele>20.75</ele>
        <time>2017-04-02T10:15:47Z</time>
      </trkpt>
      <trkpt lat="49.24622" lon="1.39763">
        <ele>17.63</ele>
        <time>2017-04-02T10:15:59Z</time>
      </trkpt>
      <trkpt lat="49.2462" lon="1.39773">
        <ele>14.15</ele>
        <time>2017-04-02T10:16:08Z</time>
      </trkpt>
      <trkpt lat="49.24618" lon="1.39782">
        <ele>11.02</ele>
        <time>2017-04-02T10:16:15Z</time>
      </trkpt>
      <trkpt lat="49.24613" lon="1.39788">
        <ele>7.69</ele>
        <time>2017-04-02T10:16:23Z</time>
      </trkpt>
      <trkpt lat="49.24607" lon="1.39788">
        <ele>4.4</ele>
        <time>2017-04-02T10:16:44Z</time>
      </trkpt>
      <trkpt lat="49.24602" lon="1.39794">
        <ele>1.37</ele>
        <time>2017-04-02T10:16:53Z</time>
      </trkpt>
      <trkpt lat="49.24598" lon="1.39795">
        <ele>-1.13</ele>
        <time>2017-04-02T10:16:59Z</time>
      </trkpt>
      <trkpt lat="49.24591" lon="1.39792">
        <ele>-2.61</ele>
        <time>2017-04-02T10:17:12Z</time>
      </trkpt>
      <trkpt lat="49.24594" lon="1.39792">
        <ele>-2.52</ele>
        <time>2017-04-02T10:17:23Z</time>
      </trkpt>
      <trkpt lat="49.24595" lon="1.39791">
        <ele>-2.52</ele>
        <time>2017-04-02T10:17:25Z</time>
      </trkpt>
      <trkpt lat="49.24603" lon="1.39791">
        <ele>-2.47</ele>
        <time>2017-04-02T10:17:57Z</time>
      </trkpt>
      <trkpt lat="49.24602" lon="1.39791">
        <ele>-2.43</ele>
        <time>2017-04-02T10:18:00Z</time>
      </trkpt>
      <trkpt lat="49.24594" lon="1.39779">
        <ele>-2.34</ele>
        <time>2017-04-02T10:18:13Z</time>
      </trkpt>
      <trkpt lat="49.24585" lon="1.39773">
        <ele>-2.33</ele>
        <time>2017-04-02T10:18:18Z</time>
      </trkpt>
      <trkpt lat="49.24576" lon="1.3975">
        <ele>-2.86</ele>
        <time>2017-04-02T10:18:24Z</time>
      </trkpt>
      <trkpt lat="49.24574" lon="1.39702">
        <ele>-3.16</ele>
        <time>2017-04-02T10:18:31Z</time>
      </trkpt>
      <trkpt lat="49.24542" lon="1.39702">
        <ele>-5.2</ele>
        <time>2017-04-02T10:18:39Z</time>
      </trkpt>
      <trkpt lat="49.24538" lon="1.39707">
        <ele>-5.49</ele>
        <time>2017-04-02T10:18:40Z</time>
      </trkpt>
      <trkpt lat="49.24479" lon="1.39769">
        <ele>-6.55</ele>
        <time>2017-04-02T10:18:56Z</time>
      </trkpt>
      <trkpt lat="49.24476" lon="1.39773">
        <ele>-6.58</ele>
        <time>2017-04-02T10:18:57Z</time>
      </trkpt>
      <trkpt lat="49.2448" lon="1.39801">
        <ele>-6.71</ele>
        <time>2017-04-02T10:19:04Z</time>
      </trkpt>
      <trkpt lat="49.24507" lon="1.39853">
        <ele>-7.67</ele>
        <time>2017-04-02T10:19:16Z</time>
      </trkpt>
      <trkpt lat="49.2452" lon="1.39874">
        <ele>-7.75</ele>
        <time>2017-04-02T10:19:20Z</time>
      </trkpt>
      <trkpt lat="49.24542" lon="1.39911">
        <ele>-8.28</ele>
        <time>2017-04-02T10:19:29Z</time>
      </trkpt>
      <trkpt lat="49.24538" lon="1.3993">
        <ele>-8.33</ele>
        <time>2017-04-02T10:19:32Z</time>
      </trkpt>
      <trkpt lat="49.24531" lon="1.39949">
        <ele>-8.67</ele>
        <time>2017-04-02T10:19:35Z</time>
      </trkpt>
      <trkpt lat="49.24519" lon="1.3998">
        <ele>-8.93</ele>
        <time>2017-04-02T10:19:40Z</time>
      </trkpt>
      <trkpt lat="49.24507" lon="1.40022">
        <ele>-8.12</ele>
        <time>2017-04-02T10:19:47Z</time>
      </trkpt>
      <trkpt lat="49.24504" lon="1.40084">
        <ele>-8.01</ele>
        <time>2017-04-02T10:19:57Z</time>
      </trkpt>
      <trkpt lat="49.24501" lon="1.40179">
        <ele>-6.83</ele>
        <time>2017-04-02T10:20:12Z</time>
      </trkpt>
      <trkpt lat="49.24496" lon="1.4028">
        <ele>-6.62</ele>
        <time>2017-04-02T10:20:27Z</time>
      </trkpt>
      <trkpt lat="49.24496" lon="1.40301">
        <ele>-6.56</ele>
        <time>2017-04-02T10:20:30Z</time>
      </trkpt>
      <trkpt lat="49.24494" lon="1.40369">
        <ele>-6.49</ele>
        <time>2017-04-02T10:20:40Z</time>
      </trkpt>
      <trkpt lat="49.24496" lon="1.40458">
        <ele>-6.48</ele>
        <time>2017-04-02T10:20:55Z</time>
      </trkpt>
      <trkpt lat="49.24497" lon="1.40535">
        <ele>-6.04</ele>
        <time>2017-04-02T10:21:07Z</time>
      </trkpt>
      <trkpt lat="49.24497" lon="1.40633">
        <ele>-5.48</ele>
        <time>2017-04-02T10:21:22Z</time>
      </trkpt>
      <trkpt lat="49.24493" lon="1.40687">
        <ele>-6.12</ele>
        <time>2017-04-02T10:21:32Z</time>
      </trkpt>
      <trkpt lat="49.24496" lon="1.40753">
        <ele>-5.09</ele>
        <time>2017-04-02T10:21:43Z</time>
      </trkpt>
      <trkpt lat="49.24495" lon="1.4081">
        <ele>-4.78</ele>
        <time>2017-04-02T10:21:52Z</time>
      </trkpt>
      <trkpt lat="49.24497" lon="1.40822">
        <ele>-4.57</ele>
        <time>2017-04-02T10:21:54Z</time>
      </trkpt>
      <trkpt lat="49.24505" lon="1.40861">
        <ele>-4.53</ele>
        <time>2017-04-02T10:22:00Z</time>
      </trkpt>
      <trkpt lat="49.24516" lon="1.40882">
        <ele>-4.57</ele>
        <time>2017-04-02T10:22:04Z</time>
      </trkpt>
      <trkpt lat="49.24542" lon="1.40941">
        <ele>-3.83</ele>
        <time>2017-04-02T10:22:15Z</time>
      </trkpt>
      <trkpt lat="49.2455" lon="1.40957">
        <ele>-3.84</ele>
        <time>2017-04-02T10:22:18Z</time>
      </trkpt>
      <trkpt lat="49.24581" lon="1.41018">
        <ele>-3.44</ele>
        <time>2017-04-02T10:22:30Z</time>
      </trkpt>
      <trkpt lat="49.24596" lon="1.41092">
        <ele>-3.42</ele>
        <time>2017-04-02T10:22:42Z</time>
      </trkpt>
      <trkpt lat="49.24637" lon="1.41149">
        <ele>-3.26</ele>
        <time>2017-04-02T10:22:55Z</time>
      </trkpt>
      <trkpt lat="49.24644" lon="1.41161">
        <ele>-3.65</ele>
        <time>2017-04-02T10:22:58Z</time>
      </trkpt>
      <trkpt lat="49.24654" lon="1.41195">
        <ele>-2.68</ele>
        <time>2017-04-02T10:23:04Z</time>
      </trkpt>
      <trkpt lat="49.24661" lon="1.41214">
        <ele>-2.18</ele>
        <time>2017-04-02T10:23:07Z</time>
      </trkpt>
      <trkpt lat="49.24667" lon="1.4124">
        <ele>-1.98</ele>
        <time>2017-04-02T10:23:11Z</time>
      </trkpt>
      <trkpt lat="49.24668" lon="1.41273">
        <ele>-1.93</ele>
        <time>2017-04-02T10:23:16Z</time>
      </trkpt>
      <trkpt lat="49.24665" lon="1.41328">
        <ele>-2.24</ele>
        <time>2017-04-02T10:23:24Z</time>
      </trkpt>
      <trkpt lat="49.24662" lon="1.41377">
        <ele>-3.01</ele>
        <time>2017-04-02T10:23:35Z</time>
      </trkpt>
      <trkpt lat="49.24659" lon="1.41401">
        <ele>-3.09</ele>
        <time>2017-04-02T10:23:40Z</time>
      </trkpt>
      <trkpt lat="49.24657" lon="1.41421">
        <ele>-2.55</ele>
        <time>2017-04-02T10:23:43Z</time>
      </trkpt>
      <trkpt lat="49.24649" lon="1.41478">
        <ele>-2.13</ele>
        <time>2017-04-02T10:23:53Z</time>
      </trkpt>
      <trkpt lat="49.24617" lon="1.41477">
        <ele>-2.69</ele>
        <time>2017-04-02T10:24:03Z</time>
      </trkpt>
      <trkpt lat="49.24611" lon="1.41478">
        <ele>-2.92</ele>
        <time>2017-04-02T10:24:05Z</time>
      </trkpt>
      <trkpt lat="49.24613" lon="1.41515">
        <ele>-2.82</ele>
        <time>2017-04-02T10:24:12Z</time>
      </trkpt>
      <trkpt lat="49.24615" lon="1.41522">
        <ele>-2.71</ele>
        <time>2017-04-02T10:24:13Z</time>
      </trkpt>
      <trkpt lat="49.2464" lon="1.41632">
        <ele>-2.21</ele>
        <time>2017-04-02T10:24:28Z</time>
      </trkpt>
      <trkpt lat="49.24645" lon="1.41665">
        <ele>-1.87</ele>
        <time>2017-04-02T10:24:32Z</time>
      </trkpt>
      <trkpt lat="49.24667" lon="1.41794">
        <ele>-2.18</ele>
        <time>2017-04-02T10:24:48Z</time>
      </trkpt>
      <trkpt lat="49.24677" lon="1.41897">
        <ele>-1.52</ele>
        <time>2017-04-02T10:25:01Z</time>
      </trkpt>
      <trkpt lat="49.24677" lon="1.42023">
        <ele>-1.12</ele>
        <time>2017-04-02T10:25:17Z</time>
      </trkpt>
      <trkpt lat="49.24675" lon="1.42062">
        <ele>-0.87</ele>
        <time>2017-04-02T10:25:22Z</time>
      </trkpt>
      <trkpt lat="49.2469" lon="1.42109">
        <ele>-0.31</ele>
        <time>2017-04-02T10:25:29Z</time>
      </trkpt>
      <trkpt lat="49.24721" lon="1.42168">
        <ele>2.01</ele>
        <time>2017-04-02T10:25:42Z</time>
      </trkpt>
      <trkpt lat="49.24747" lon="1.422">
        <ele>2.72</ele>
        <time>2017-04-02T10:25:52Z</time>
      </trkpt>
      <trkpt lat="49.24755" lon="1.42225">
        <ele>2.72</ele>
        <time>2017-04-02T10:26:03Z</time>
      </trkpt>
      <trkpt lat="49.24754" lon="1.4223">
        <ele>3.48</ele>
        <time>2017-04-02T10:26:19Z</time>
      </trkpt>
      <trkpt lat="49.24754" lon="1.4223">
        <ele>3.45</ele>
        <time>2017-04-02T10:26:21Z</time>
      </trkpt>
    </trkseg>
  </trk>
</gpx>